Provisional Data: Susquehanna River at Kirkwood, NY


Please select a monitoring station.
Please select start date.
Please select start date.

Toggle Unit: C/F Toggle Unit: C/F
Sample Time Temperature (C) Temperature (F) Specific Conductivity (mS/cm) pH   Turbidity (NTU+) DO (mg/L)
1/12/2021 12:00:00 AM 0.14 32.252 0.167 6.94 195.43 0.24
1/12/2021 12:15:00 AM 0.13 32.234 0.168 6.94 236.98 0.24
1/12/2021 12:30:00 AM 0.13 32.234 0.167 6.94 309.51 0.24
1/12/2021 12:45:00 AM 0.12 32.216 0.168 6.94 325.07 0.24
1/12/2021 1:00:00 AM 0.12 32.216 0.167 6.94 312 0.24
1/12/2021 1:15:00 AM 0.12 32.216 0.168 6.94 298.06 0.24
1/12/2021 1:30:00 AM 0.12 32.216 0.167 6.94 345.62 0.24
1/12/2021 1:45:00 AM 0.12 32.216 0.168 6.94 373.79 0.24
1/12/2021 2:00:00 AM 0.12 32.216 0.168 6.94 310.53 0.24
1/12/2021 2:15:00 AM 0.12 32.216 0.168 6.94 302.53 0.24
1/12/2021 2:30:00 AM 0.12 32.216 0.168 6.94 392.35 0.24
1/12/2021 2:45:00 AM 0.12 32.216 0.168 6.95 394.93 0.24
1/12/2021 3:00:00 AM 0.12 32.216 0.168 6.95 526.16 0.24
1/12/2021 3:15:00 AM 0.11 32.198 0.168 6.95 469.5 0.24
1/12/2021 3:30:00 AM 0.11 32.198 0.168 6.95 534.73 0.24
1/12/2021 3:45:00 AM 0.1 32.18 0.168 6.95 417.41 0.24
1/12/2021 4:00:00 AM 0.09 32.162 0.168 6.95 249.56 0.24
1/12/2021 4:15:00 AM 0.08 32.144 0.169 6.95 231.87 0.24
1/12/2021 4:30:00 AM 0.07 32.126 0.169 6.95 242.6 0.24
1/12/2021 4:45:00 AM 0.06 32.108 0.169 6.95 264.79 0.24
1/12/2021 5:00:00 AM 0.06 32.108 0.169 6.95 288.48 0.24
1/12/2021 5:15:00 AM 0.05 32.09 0.169 6.95 303.04 0.24
1/12/2021 5:30:00 AM 0.04 32.072 0.169 6.95 288.12 0.24
1/12/2021 5:45:00 AM 0.04 32.072 0.169 6.95 296.43 0.24
1/12/2021 6:00:00 AM 0.03 32.054 0.169 6.95 297.96 0.24
1/12/2021 6:15:00 AM 0.02 32.036 0.169 6.96 301.86 0.24
1/12/2021 6:30:00 AM 0.02 32.036 0.17 6.96 316.38 0.24
1/12/2021 6:45:00 AM 0.01 32.018 0.17 6.96 335.84 0.24
1/12/2021 7:00:00 AM 0 32 0.17 6.96 346.63 0.24
1/12/2021 7:15:00 AM 0 32 0.17 6.96 353.62 0.25
1/12/2021 7:30:00 AM -0.01 31.982 0.17 6.96 360.21 0.25
1/12/2021 7:45:00 AM -0.01 31.982 0.17 6.96 372.65 0.24
1/12/2021 8:00:00 AM -0.01 31.982 0.17 6.96 372.14 0.24
1/12/2021 8:15:00 AM -0.01 31.982 0.17 6.96 372.98 0.24
1/12/2021 8:30:00 AM -0.01 31.982 0.17 6.96 369.51 0.24
1/12/2021 8:45:00 AM -0.01 31.982 0.17 6.96 370.99 0.24
1/12/2021 9:00:00 AM -0.01 31.982 0.17 6.97 372.64 0.24
1/12/2021 9:15:00 AM 0 32 0.17 6.97 377.98 0.24
1/12/2021 9:30:00 AM 0 32 0.17 6.97 383.52 0.24
1/12/2021 9:45:00 AM 0.01 32.018 0.17 6.97 390.04 0.24
1/12/2021 10:00:00 AM 0.02 32.036 0.17 6.97 391.74 0.24
1/12/2021 10:15:00 AM 0.03 32.054 0.17 6.97 399.81 0.24
1/12/2021 10:30:00 AM 0.05 32.09 0.17 6.97 405.2 0.24
1/12/2021 10:45:00 AM 0.06 32.108 0.17 6.97 407.88 0.24
1/12/2021 11:00:00 AM 0.08 32.144 0.17 6.97 413.91 0.24
1/12/2021 11:15:00 AM 0.11 32.198 0.171 6.97 419.34 0.24
1/12/2021 11:30:00 AM 0.12 32.216 0.171 6.97 424.01 0.24
1/12/2021 11:45:00 AM 0.14 32.252 0.171 6.97 431.15 0.24
1/12/2021 12:00:00 PM 0.16 32.288 0.171 6.98 424.66 0.24
1/12/2021 12:15:00 PM 0.19 32.342 0.171 6.98 399.75 0.24
1/12/2021 12:30:00 PM 0.21 32.378 0.171 6.98 401.82 0.24
1/12/2021 12:45:00 PM 0.23 32.414 0.171 6.98 407.11 0.24
1/12/2021 1:00:00 PM 0.25 32.45 0.171 6.98 414.22 0.24
1/12/2021 1:15:00 PM 0.27 32.486 0.171 6.98 417.65 0.24
1/12/2021 1:30:00 PM 0.29 32.522 0.172 6.98 424.24 0.24
1/12/2021 1:45:00 PM 0.32 32.576 0.172 6.98 426.1 0.24
1/12/2021 2:00:00 PM 0.34 32.612 0.172 6.98 422.32 0.24
1/12/2021 2:15:00 PM 0.35 32.63 0.172 6.98 425.79 0.24
1/12/2021 2:30:00 PM 0.37 32.666 0.172 6.98 431.94 0.24
1/12/2021 2:45:00 PM 0.39 32.702 0.172 6.98 434.69 0.24
1/12/2021 3:00:00 PM 0.41 32.738 0.173 6.99 409.97 0.24
1/12/2021 3:15:00 PM 0.42 32.756 0.173 6.99 402.89 0.24
1/12/2021 3:30:00 PM 0.43 32.774 0.173 6.99 425.51 0.24
1/12/2021 3:45:00 PM 0.44 32.792 0.173 6.99 432.85 0.24
1/12/2021 4:00:00 PM 0.44 32.792 0.173 6.99 438.09 0.24
1/12/2021 4:15:00 PM 0.44 32.792 0.173 6.99 447.76 0.24
1/12/2021 4:30:00 PM 0.44 32.792 0.173 6.99 457.48 0.24
1/12/2021 4:45:00 PM 0.44 32.792 0.174 6.99 469.96 0.24
1/12/2021 5:00:00 PM 0.44 32.792 0.174 6.99 482.64 0.24
1/12/2021 5:15:00 PM 0.44 32.792 0.174 6.99 497.42 0.24
1/12/2021 5:30:00 PM 0.44 32.792 0.174 6.99 510.97 0.24
1/12/2021 5:45:00 PM 0.44 32.792 0.174 6.99 527.92 0.24
1/12/2021 6:00:00 PM 0.43 32.774 0.174 6.99 545.64 0.24
1/12/2021 6:15:00 PM 0.43 32.774 0.174 6.99 553.91 0.24
1/12/2021 6:30:00 PM 0.43 32.774 0.174 7 576.61 0.24
1/12/2021 6:45:00 PM 0.43 32.774 0.174 7 601.05 0.24
1/12/2021 7:00:00 PM 0.43 32.774 0.174 7 487.16 0.24
1/12/2021 7:15:00 PM 0.42 32.756 0.174 7 449.75 0.24
1/12/2021 7:30:00 PM 0.42 32.756 0.174 7 282.67 0.24
1/12/2021 7:45:00 PM 0.42 32.756 0.175 7 283.64 0.24
1/12/2021 8:00:00 PM 0.42 32.756 0.175 7 283.68 0.24
1/12/2021 8:15:00 PM 0.41 32.738 0.174 7 280.69 0.24
1/12/2021 8:30:00 PM 0.41 32.738 0.174 7 312.92 0.24
1/12/2021 8:45:00 PM 0.41 32.738 0.174 7 338.61 0.24
1/12/2021 9:00:00 PM 0.41 32.738 0.174 7 347.89 0.24
1/12/2021 9:15:00 PM 0.41 32.738 0.174 7 369.77 0.24
1/12/2021 9:30:00 PM 0.4 32.72 0.174 7 363.74 0.24
1/12/2021 9:45:00 PM 0.4 32.72 0.174 7 354.98 0.24
1/12/2021 10:00:00 PM 0.4 32.72 0.174 7 353.96 0.24
1/12/2021 10:15:00 PM 0.4 32.72 0.173 7.01 366.46 0.24
1/12/2021 10:30:00 PM 0.4 32.72 0.173 7.01 363.83 0.24
1/12/2021 10:45:00 PM 0.4 32.72 0.172 7.01 359.37 0.24
1/12/2021 11:00:00 PM 0.4 32.72 0.172 7.01 356.7 0.24
1/12/2021 11:15:00 PM 0.4 32.72 0.172 7.01 361.61 0.24
1/12/2021 11:30:00 PM 0.4 32.72 0.171 7.01 370.13 0.24
1/12/2021 11:45:00 PM 0.4 32.72 0.17 7.01 384.96 0.24
1/13/2021 12:00:00 AM 0.4 32.72 0.17 7.01 406.15 0.24
1/13/2021 12:15:00 AM 0.4 32.72 0.169 7.01 401.73 0.24
1/13/2021 12:30:00 AM 0.4 32.72 0.168 7.01 413.79 0.24
1/13/2021 12:45:00 AM 0.4 32.72 0.168 7.01 439.99 0.24
1/13/2021 1:00:00 AM 0.41 32.738 0.167 7.02 467.49 0.24
1/13/2021 1:15:00 AM 0.41 32.738 0.167 7.02 522.57 0.24
1/13/2021 1:30:00 AM 0.41 32.738 0.167 7.02 604.75 0.24
1/13/2021 1:45:00 AM 0.41 32.738 0.167 7.02 632.41 0.24
1/13/2021 2:00:00 AM 0.42 32.756 0.168 7.02 517.36 0.24
1/13/2021 2:15:00 AM 0.42 32.756 0.17 7.02 613.99 0.24
1/13/2021 2:30:00 AM 0.43 32.774 0.192 7.11 112.35 0.24
1/13/2021 2:45:00 AM 0.43 32.774 0.191 7.1 111.05 0.24
1/13/2021 3:00:00 AM 0.44 32.792 0.189 7.09 111.69 0.24
1/13/2021 3:15:00 AM 0.44 32.792 0.188 7.09 112.37 0.24
1/13/2021 3:30:00 AM 0.44 32.792 0.188 7.08 112.28 0.24
1/13/2021 3:45:00 AM 0.45 32.81 0.187 7.08 113.14 0.24
1/13/2021 4:00:00 AM 0.45 32.81 0.186 7.08 113.57 0.24
1/13/2021 4:15:00 AM 0.45 32.81 0.186 7.08 113.97 0.24
1/13/2021 4:30:00 AM 0.45 32.81 0.186 7.08 115.05 0.24
1/13/2021 4:45:00 AM 0.45 32.81 0.186 7.08 116.41 0.24
1/13/2021 5:00:00 AM 0.46 32.828 0.185 7.08 118.59 0.24
1/13/2021 5:15:00 AM 0.45 32.81 0.185 7.08 121.37 0.24
1/13/2021 5:30:00 AM 0.45 32.81 0.184 7.08 126.54 0.24
1/13/2021 5:45:00 AM 0.45 32.81 0.184 7.08 132.43 0.24
1/13/2021 6:00:00 AM 0.45 32.81 0.184 7.08 136.47 0.24
1/13/2021 6:15:00 AM 0.45 32.81 0.183 7.08 137.49 0.24
1/13/2021 6:30:00 AM 0.44 32.792 0.183 7.08 136.56 0.24
1/13/2021 6:45:00 AM 0.44 32.792 0.183 7.07 147.03 0.24
1/13/2021 7:00:00 AM 0.44 32.792 0.182 7.07 138.19 0.24
1/13/2021 7:15:00 AM 0.43 32.774 0.182 7.07 137.48 0.24
1/13/2021 7:30:00 AM 0.43 32.774 0.182 7.07 149.5 0.24
1/13/2021 7:45:00 AM 0.42 32.756 0.182 7.07 148.4 0.24
1/13/2021 8:00:00 AM 0.42 32.756 0.181 7.07 153.74 0.24
1/13/2021 8:15:00 AM 0.41 32.738 0.181 7.07 159.93 0.24
1/13/2021 8:30:00 AM 0.41 32.738 0.181 7.08 166.74 0.24
1/13/2021 8:45:00 AM 0.41 32.738 0.181 7.08 174.69 0.24
1/13/2021 9:00:00 AM 0.41 32.738 0.181 7.08 179.71 0.24
1/13/2021 9:15:00 AM 0.41 32.738 0.18 7.08 185.21 0.24
1/13/2021 9:30:00 AM 0.41 32.738 0.18 7.08 190.6 0.24
1/13/2021 9:45:00 AM 0.41 32.738 0.18 7.08 195.54 0.24
1/13/2021 10:00:00 AM 0.41 32.738 0.18 7.08 200.39 0.24
1/13/2021 10:15:00 AM 0.42 32.756 0.179 7.08 204.98 0.24
1/13/2021 10:30:00 AM 0.42 32.756 0.179 7.08 208.99 0.24
1/13/2021 10:45:00 AM 0.43 32.774 0.179 7.08 212.29 0.24
1/13/2021 11:00:00 AM 0.43 32.774 0.179 7.08 216.34 0.24
1/13/2021 11:15:00 AM 0.44 32.792 0.179 7.08 220.75 0.24
1/13/2021 11:30:00 AM 0.46 32.828 0.179 7.08 222.44 0.24
1/13/2021 11:45:00 AM 0.47 32.846 0.178 7.08 223.89 0.24
1/13/2021 12:00:00 PM 0.48 32.864 0.178 7.08 228.45 0.24
1/13/2021 12:15:00 PM 0.49 32.882 0.178 7.08 230.3 0.24
1/13/2021 12:30:00 PM 0.51 32.918 0.178 7.08 234.25 0.24
1/13/2021 12:45:00 PM 0.52 32.936 0.177 7.08 237.22 0.24
1/13/2021 1:00:00 PM 0.53 32.954 0.177 7.08 240.36 0.24
1/13/2021 1:15:00 PM 0.55 32.99 0.177 7.08 240.96 0.24
1/13/2021 1:30:00 PM 0.56 33.008 0.177 7.08 241.83 0.24
1/13/2021 1:45:00 PM 0.58 33.044 0.176 7.09 243.55 0.24
1/13/2021 2:00:00 PM 0.59 33.062 0.176 7.09 246.62 0.24
1/13/2021 2:15:00 PM 0.61 33.098 0.176 7.09 247.66 0.24
1/13/2021 2:30:00 PM 0.63 33.134 0.175 7.09 246.67 0.24
1/13/2021 2:45:00 PM 0.64 33.152 0.175 7.09 250.02 0.24
1/13/2021 3:00:00 PM 0.66 33.188 0.174 7.09 252.23 0.24
1/13/2021 3:15:00 PM 0.68 33.224 0.174 7.09 257.02 0.24
1/13/2021 3:30:00 PM 0.7 33.26 0.173 7.09 259.31 0.24
1/13/2021 3:45:00 PM 0.71 33.278 0.173 7.09 259.29 0.24
1/13/2021 4:00:00 PM 0.72 33.296 0.172 7.09 259.24 0.24
1/13/2021 4:15:00 PM 0.73 33.314 0.171 7.09 257.15 0.24
1/13/2021 4:30:00 PM 0.73 33.314 0.17 7.09 256.7 0.24
1/13/2021 4:45:00 PM 0.72 33.296 0.169 7.09 257.32 0.24
1/13/2021 5:00:00 PM 0.72 33.296 0.169 7.09 248.91 0.24
1/13/2021 5:15:00 PM 0.71 33.278 0.168 7.09 241.02 0.24
1/13/2021 5:30:00 PM 0.69 33.242 0.168 7.09 238.31 0.24
1/13/2021 5:45:00 PM 0.68 33.224 0.167 7.09 238.32 0.24
1/13/2021 6:00:00 PM 0.67 33.206 0.166 7.09 238.45 0.24
1/13/2021 6:15:00 PM 0.67 33.206 0.166 7.1 244.79 0.24
1/13/2021 6:30:00 PM 0.66 33.188 0.166 7.1 243.97 0.24
1/13/2021 6:45:00 PM 0.65 33.17 0.165 7.1 242.29 0.24
1/13/2021 7:00:00 PM 0.65 33.17 0.164 7.1 239.83 0.24
1/13/2021 7:15:00 PM 0.65 33.17 0.164 7.1 238.78 0.24
1/13/2021 7:30:00 PM 0.64 33.152 0.164 7.1 252.24 0.24
1/13/2021 7:45:00 PM 0.64 33.152 0.168 7.1 276.03 0.24
1/13/2021 8:00:00 PM 0.63 33.134 0.192 7.17 114.38 0.24
1/13/2021 8:15:00 PM 0.63 33.134 0.187 7.13 111.76 0.24
1/13/2021 8:30:00 PM 0.62 33.116 0.185 7.12 110.45 0.24
1/13/2021 8:45:00 PM 0.62 33.116 0.183 7.12 109.49 0.24
1/13/2021 9:00:00 PM 0.62 33.116 0.182 7.12 108.66 0.24
1/13/2021 9:15:00 PM 0.61 33.098 0.18 7.13 108.62 0.24
1/13/2021 9:30:00 PM 0.61 33.098 0.179 7.13 108.56 0.24
1/13/2021 9:45:00 PM 0.61 33.098 0.179 7.13 108.2 0.24
1/13/2021 10:00:00 PM 0.6 33.08 0.177 7.13 107.38 0.24
1/13/2021 10:15:00 PM 0.6 33.08 0.176 7.13 107.36 0.24
1/13/2021 10:30:00 PM 0.6 33.08 0.175 7.13 107.7 0.24
1/13/2021 10:45:00 PM 0.6 33.08 0.174 7.13 108.09 0.24
1/13/2021 11:00:00 PM 0.59 33.062 0.173 7.13 108.3 0.24
1/13/2021 11:15:00 PM 0.59 33.062 0.173 7.13 111.94 0.24
1/13/2021 11:30:00 PM 0.58 33.044 0.172 7.13 116.33 0.24
1/13/2021 11:45:00 PM 0.58 33.044 0.171 7.13 123.26 0.24
1/14/2021 12:00:00 AM 0.58 33.044 0.17 7.12 132.73 0.24
1/14/2021 12:15:00 AM 0.58 33.044 0.169 7.12 137.77 0.24
1/14/2021 12:30:00 AM 0.58 33.044 0.169 7.12 139.42 0.24
1/14/2021 12:45:00 AM 0.58 33.044 0.168 7.12 139.52 0.24
1/14/2021 1:00:00 AM 0.58 33.044 0.168 7.12 144.09 0.24
1/14/2021 1:15:00 AM 0.58 33.044 0.168 7.12 147.86 0.24
1/14/2021 1:30:00 AM 0.58 33.044 0.167 7.12 156.39 0.24
1/14/2021 1:45:00 AM 0.59 33.062 0.167 7.12 156.83 0.24
1/14/2021 2:00:00 AM 0.59 33.062 0.167 7.12 160.54 0.24
1/14/2021 2:15:00 AM 0.59 33.062 0.166 7.12 162.74 0.24
1/14/2021 2:30:00 AM 0.6 33.08 0.166 7.12 165.09 0.24
1/14/2021 2:45:00 AM 0.61 33.098 0.166 7.12 167.33 0.24
1/14/2021 3:00:00 AM 0.61 33.098 0.165 7.12 169.02 0.24
1/14/2021 3:15:00 AM 0.62 33.116 0.165 7.12 172.28 0.24
1/14/2021 3:30:00 AM 0.62 33.116 0.165 7.11 203.27 0.24
1/14/2021 3:45:00 AM 0.63 33.134 0.164 7.11 211.2 0.24
1/14/2021 4:00:00 AM 0.63 33.134 0.164 7.11 219.04 0.24
1/14/2021 4:15:00 AM 0.63 33.134 0.164 7.11 222.11 0.24
1/14/2021 4:30:00 AM 0.64 33.152 0.164 7.11 227.16 0.24
1/14/2021 4:45:00 AM 0.64 33.152 0.164 7.11 229.08 0.24
1/14/2021 5:00:00 AM 0.64 33.152 0.163 7.11 232.15 0.24
1/14/2021 5:15:00 AM 0.64 33.152 0.163 7.11 233.07 0.24
1/14/2021 5:30:00 AM 0.65 33.17 0.163 7.11 236.31 0.24
1/14/2021 5:45:00 AM 0.65 33.17 0.162 7.11 240 0.24
1/14/2021 6:00:00 AM 0.65 33.17 0.162 7.11 245.92 0.24
1/14/2021 6:15:00 AM 0.66 33.188 0.162 7.11 254.6 0.24
1/14/2021 6:30:00 AM 0.66 33.188 0.161 7.11 262.7 0.24
1/14/2021 6:45:00 AM 0.66 33.188 0.161 7.11 268.29 0.24
1/14/2021 7:00:00 AM 0.66 33.188 0.16 7.11 277.15 0.24
1/14/2021 7:15:00 AM 0.66 33.188 0.16 7.11 288.5 0.24
1/14/2021 7:30:00 AM 0.66 33.188 0.16 7.11 303.38 0.24
1/14/2021 7:45:00 AM 0.65 33.17 0.159 7.11 315.33 0.24
1/14/2021 8:00:00 AM 0.65 33.17 0.159 7.11 336.2 0.24
1/14/2021 8:15:00 AM 0.65 33.17 0.159 7.11 350.1 0.24
1/14/2021 8:30:00 AM 0.65 33.17 0.159 7.11 295.98 0.24
1/14/2021 8:45:00 AM 0.65 33.17 0.158 7.11 332.01 0.24
1/14/2021 9:00:00 AM 0.65 33.17 0.158 7.11 374.57 0.24
1/14/2021 9:15:00 AM 0.66 33.188 0.158 7.11 457.04 0.24
1/14/2021 9:30:00 AM 0.66 33.188 0.157 7.11 538.27 0.24
1/14/2021 9:45:00 AM 0.67 33.206 0.157 7.11 648.79 0.24
1/14/2021 10:00:00 AM 0.68 33.224 0.157 7.11 703.43 0.24
1/14/2021 10:15:00 AM 0.69 33.242 0.157 7.11 756.21 0.24
1/14/2021 10:30:00 AM 0.71 33.278 0.157 7.11 630.25 0.24
1/14/2021 10:45:00 AM 0.72 33.296 0.157 7.11 618.17 0.24
1/14/2021 11:00:00 AM 0.75 33.35 0.158 7.11 485.74 0.24
1/14/2021 11:15:00 AM 0.77 33.386 0.158 7.11 449.74 0.24
1/14/2021 11:30:00 AM 0.8 33.44 0.158 7.11 342.45 0.24
1/14/2021 11:45:00 AM 0.83 33.494 0.158 7.11 369.82 0.24
1/14/2021 12:00:00 PM 0.85 33.53 0.158 7.11 336.57 0.24
1/14/2021 12:15:00 PM 0.88 33.584 0.159 7.11 339.61 0.24
1/14/2021 12:30:00 PM 0.89 33.602 0.159 7.11 325.42 0.24
1/14/2021 12:45:00 PM 0.91 33.638 0.16 7.11 336.61 0.24
1/14/2021 1:00:00 PM 0.93 33.674 0.163 7.11 299.53 0.24
1/14/2021 1:15:00 PM 0.95 33.71 0.168 7.11 306.47 0.24
1/14/2021 1:30:00 PM 0.97 33.746 0.175 7.11 359.55 0.24
1/14/2021 1:45:00 PM 0.99 33.782 0.193 7.16 117.37 0.23
1/14/2021 2:00:00 PM 1 33.8 0.194 7.13 119.56 0.24
1/14/2021 2:15:00 PM 1.02 33.836 0.193 7.12 121.44 0.24
1/14/2021 2:30:00 PM 1.04 33.872 0.192 7.12 130.48 0.24
1/14/2021 2:45:00 PM 1.06 33.908 0.192 7.13 144.12 0.24
1/14/2021 3:00:00 PM 1.07 33.926 0.191 7.13 158.37 0.24
1/14/2021 3:15:00 PM 1.09 33.962 0.19 7.13 171.86 0.23
1/14/2021 3:30:00 PM 1.1 33.98 0.188 7.13 184.09 0.24
1/14/2021 3:45:00 PM 1.11 33.998 0.187 7.13 199.39 0.24
1/14/2021 4:00:00 PM 1.11 33.998 0.186 7.13 207.17 0.23
1/14/2021 4:15:00 PM 1.12 34.016 0.185 7.13 213.65 0.23
1/14/2021 4:30:00 PM 1.12 34.016 0.183 7.13 221.89 0.24
1/14/2021 4:45:00 PM 1.12 34.016 0.182 7.13 241.1 0.24
1/14/2021 5:00:00 PM 1.11 33.998 0.18 7.13 282.09 0.24
1/14/2021 5:15:00 PM 1.1 33.98 0.179 7.13 295.59 0.24
1/14/2021 5:30:00 PM 1.1 33.98 0.178 7.13 336.36 0.24
1/14/2021 5:45:00 PM 1.09 33.962 0.178 7.13 394.4 0.23
1/14/2021 6:00:00 PM 1.09 33.962 0.176 7.12 443.61 0.24
1/14/2021 6:15:00 PM 1.08 33.944 0.175 7.12 379.55 0.24
1/14/2021 6:30:00 PM 1.08 33.944 0.174 7.12 441.3 0.24
1/14/2021 6:45:00 PM 1.07 33.926 0.173 7.12 474.57 0.23
1/14/2021 7:00:00 PM 1.07 33.926 0.172 7.12 499.13 0.24
1/14/2021 7:15:00 PM 1.07 33.926 0.172 7.12 521.94 0.24
1/14/2021 7:30:00 PM 1.07 33.926 0.171 7.12 548.79 0.24
1/14/2021 7:45:00 PM 1.07 33.926 0.17 7.12 537.34 0.23
1/14/2021 8:00:00 PM 1.07 33.926 0.169 7.12 555.65 0.24
1/14/2021 8:15:00 PM 1.07 33.926 0.168 7.12 578.17 0.24
1/14/2021 8:30:00 PM 1.07 33.926 0.166 7.12 546.44 0.24
1/14/2021 8:45:00 PM 1.08 33.944 0.165 7.12 522.82 0.24
1/14/2021 9:00:00 PM 1.08 33.944 0.164 7.12 382.97 0.23
1/14/2021 9:15:00 PM 1.09 33.962 0.163 7.12 374 0.24
1/14/2021 9:30:00 PM 1.09 33.962 0.162 7.12 389.17 0.24
1/14/2021 9:45:00 PM 1.1 33.98 0.161 7.12 404.91 0.24
1/14/2021 10:00:00 PM 1.11 33.998 0.16 7.12 490.33 0.23
1/14/2021 10:15:00 PM 1.11 33.998 0.159 7.12 622.35 0.24
1/14/2021 10:30:00 PM 1.12 34.016 0.159 7.12 756.34 0.24
1/14/2021 10:45:00 PM 1.13 34.034 0.158 7.12 771.91 0.23
1/14/2021 11:00:00 PM 1.13 34.034 0.158 7.12 956.56 0.23
1/14/2021 11:15:00 PM 1.14 34.052 0.159 7.12 566.1 0.23
1/14/2021 11:30:00 PM 1.15 34.07 0.163 7.12 669.21 0.23
1/14/2021 11:45:00 PM 1.16 34.088 0.225 7.09 124.33 0.24
1/15/2021 12:00:00 AM 1.16 34.088 0.221 7.09 123.93 0.23
1/15/2021 12:15:00 AM 1.17 34.106 0.214 7.09 136.61 0.23
1/15/2021 12:30:00 AM 1.18 34.124 0.208 7.09 173.18 0.23
1/15/2021 12:45:00 AM 1.18 34.124 0.202 7.1 213.54 0.24
1/15/2021 1:00:00 AM 1.19 34.142 0.198 7.1 237.49 0.23
1/15/2021 1:15:00 AM 1.2 34.16 0.194 7.1 280.33 0.24
1/15/2021 1:30:00 AM 1.2 34.16 0.191 7.1 279 0.24
1/15/2021 1:45:00 AM 1.21 34.178 0.186 7.09 321.17 0.24
1/15/2021 2:00:00 AM 1.22 34.196 0.18 7.09 273.17 0.23
1/15/2021 2:15:00 AM 1.22 34.196 0.177 7.09 372.48 0.23
1/15/2021 2:30:00 AM 1.23 34.214 0.231 7.11 115.35 0.23
1/15/2021 2:45:00 AM 1.24 34.232 0.232 7.07 110.33 0.23
1/15/2021 3:00:00 AM 1.25 34.25 0.232 7.08 108.38 0.24
1/15/2021 3:15:00 AM 1.25 34.25 0.232 7.09 107.6 0.23
1/15/2021 3:30:00 AM 1.26 34.268 0.233 7.09 106.17 0.23
1/15/2021 3:45:00 AM 1.26 34.268 0.233 7.1 105.73 0.24
1/15/2021 4:00:00 AM 1.26 34.268 0.234 7.1 105.67 0.23
1/15/2021 4:15:00 AM 1.26 34.268 0.234 7.1 105.92 0.23
1/15/2021 4:30:00 AM 1.26 34.268 0.233 7.1 105.74 0.24
1/15/2021 4:45:00 AM 1.26 34.268 0.233 7.1 105.72 0.24
1/15/2021 5:00:00 AM 1.26 34.268 0.233 7.1 105.96 0.23
1/15/2021 5:15:00 AM 1.26 34.268 0.233 7.1 106.08 0.23
1/15/2021 5:30:00 AM 1.26 34.268 0.232 7.1 105.62 0.23
1/15/2021 5:45:00 AM 1.26 34.268 0.231 7.1 106.09 0.24
1/15/2021 6:00:00 AM 1.25 34.25 0.23 7.1 106.06 0.24
1/15/2021 6:15:00 AM 1.25 34.25 0.23 7.1 106.22 0.23
1/15/2021 6:30:00 AM 1.24 34.232 0.229 7.1 106.19 0.23
1/15/2021 6:45:00 AM 1.24 34.232 0.229 7.1 106.08 0.23
1/15/2021 7:00:00 AM 1.23 34.214 0.229 7.1 106.33 0.23
1/15/2021 7:15:00 AM 1.21 34.178 0.229 7.1 106.63 0.23
1/15/2021 7:30:00 AM 1.2 34.16 0.228 7.1 106.85 0.23
1/15/2021 7:45:00 AM 1.19 34.142 0.228 7.1 106.93 0.23
1/15/2021 8:00:00 AM 1.18 34.124 0.228 7.1 107.22 0.24
1/15/2021 8:15:00 AM 1.17 34.106 0.228 7.1 107.1 0.23
1/15/2021 8:30:00 AM 1.16 34.088 0.228 7.1 106.97 0.24
1/15/2021 8:45:00 AM 1.16 34.088 0.228 7.1 107.58 0.24
1/15/2021 9:00:00 AM 1.16 34.088 0.228 7.1 108.48 0.23
1/15/2021 9:15:00 AM 1.16 34.088 0.228 7.1 109.71 0.23
1/15/2021 9:30:00 AM 1.16 34.088 0.228 7.1 111.89 0.23
1/15/2021 9:45:00 AM 1.17 34.106 0.228 7.1 113.11 0.23
1/15/2021 10:00:00 AM 1.17 34.106 0.228 7.1 115.93 0.24
1/15/2021 10:15:00 AM 1.18 34.124 0.228 7.1 118.12 0.24
1/15/2021 10:30:00 AM 1.19 34.142 0.228 7.1 119.21 0.24
1/15/2021 10:45:00 AM 1.2 34.16 0.228 7.1 119.07 0.23
1/15/2021 11:00:00 AM 1.22 34.196 0.228 7.1 120.16 0.24
1/15/2021 11:15:00 AM 1.25 34.25 0.228 7.1 120.15 0.23
1/15/2021 11:30:00 AM 1.27 34.286 0.228 7.11 120.39 0.24
1/15/2021 11:45:00 AM 1.3 34.34 0.228 7.11 121.33 0.24
1/15/2021 12:00:00 PM 1.34 34.412 0.228 7.11 120.78 0.23
1/15/2021 12:15:00 PM 1.38 34.484 0.228 7.11 121.09 0.23
1/15/2021 12:30:00 PM 1.43 34.574 0.228 7.11 120.76 0.23
1/15/2021 12:45:00 PM 1.49 34.682 0.228 7.11 120.69 0.23
1/15/2021 1:00:00 PM 1.53 34.754 0.229 7.11 121.27 0.23
1/15/2021 1:15:00 PM 1.57 34.826 0.229 7.11 121.82 0.23
1/15/2021 1:30:00 PM 1.59 34.862 0.229 7.11 121.99 0.23
1/15/2021 1:45:00 PM 1.6 34.88 0.229 7.11 122.58 0.23
1/15/2021 2:00:00 PM 1.61 34.898 0.229 7.11 122.23 0.23
1/15/2021 2:15:00 PM 1.61 34.898 0.228 7.11 124.53 0.23
1/15/2021 2:30:00 PM 1.61 34.898 0.228 7.11 125.23 0.23
1/15/2021 2:45:00 PM 1.6 34.88 0.228 7.11 126.38 0.23
1/15/2021 3:00:00 PM 1.6 34.88 0.228 7.11 125.51 0.23
1/15/2021 3:15:00 PM 1.59 34.862 0.228 7.11 127.12 0.23
1/15/2021 3:30:00 PM 1.58 34.844 0.228 7.12 127.69 0.23
1/15/2021 3:45:00 PM 1.57 34.826 0.228 7.12 127.71 0.23
1/15/2021 4:00:00 PM 1.56 34.808 0.228 7.11 126.45 0.23
1/15/2021 4:15:00 PM 1.56 34.808 0.228 7.12 125.96 0.23
1/15/2021 4:30:00 PM 1.55 34.79 0.228 7.12 126.14 0.23
1/15/2021 4:45:00 PM 1.54 34.772 0.228 7.12 125.91 0.23
1/15/2021 5:00:00 PM 1.53 34.754 0.228 7.12 126.62 0.23
1/15/2021 5:15:00 PM 1.53 34.754 0.228 7.12 126 0.23
1/15/2021 5:30:00 PM 1.52 34.736 0.228 7.12 127.53 0.23
1/15/2021 5:45:00 PM 1.52 34.736 0.228 7.12 133.21 0.23
1/15/2021 6:00:00 PM 1.51 34.718 0.229 7.12 140.75 0.23
1/15/2021 6:15:00 PM 1.51 34.718 0.228 7.12 143.16 0.23
1/15/2021 6:30:00 PM 1.51 34.718 0.228 7.12 156.54 0.23
1/15/2021 6:45:00 PM 1.52 34.736 0.228 7.12 160.49 0.23
1/15/2021 7:00:00 PM 1.52 34.736 0.228 7.12 166.52 0.23
1/15/2021 7:15:00 PM 1.53 34.754 0.228 7.12 178.88 0.23
1/15/2021 7:30:00 PM 1.53 34.754 0.228 7.12 198.04 0.23
1/15/2021 7:45:00 PM 1.54 34.772 0.228 7.12 199.04 0.23
1/15/2021 8:00:00 PM 1.55 34.79 0.227 7.12 209.59 0.23
1/15/2021 8:15:00 PM 1.56 34.808 0.227 7.12 212.04 0.23
1/15/2021 8:30:00 PM 1.56 34.808 0.227 7.12 224.13 0.23
1/15/2021 8:45:00 PM 1.57 34.826 0.227 7.12 231.21 0.23
1/15/2021 9:00:00 PM 1.58 34.844 0.227 7.12 237.33 0.23
1/15/2021 9:15:00 PM 1.58 34.844 0.227 7.12 249.48 0.23
1/15/2021 9:30:00 PM 1.59 34.862 0.226 7.12 255.66 0.23
1/15/2021 9:45:00 PM 1.59 34.862 0.226 7.12 258.23 0.23
1/15/2021 10:00:00 PM 1.59 34.862 0.226 7.12 261.71 0.23
1/15/2021 10:15:00 PM 1.6 34.88 0.226 7.12 273.31 0.23
1/15/2021 10:30:00 PM 1.61 34.898 0.226 7.12 279.44 0.23
1/15/2021 10:45:00 PM 1.62 34.916 0.225 7.12 288.49 0.23
1/15/2021 11:00:00 PM 1.62 34.916 0.225 7.12 297.06 0.23
1/15/2021 11:15:00 PM 1.63 34.934 0.225 7.12 289.61 0.23
1/15/2021 11:30:00 PM 1.64 34.952 0.225 7.12 281.64 0.23
1/15/2021 11:45:00 PM 1.64 34.952 0.225 7.12 276.68 0.23
1/16/2021 12:00:00 AM 1.65 34.97 0.225 7.12 276.27 0.23
1/16/2021 12:15:00 AM 1.66 34.988 0.225 7.12 257.75 0.23
1/16/2021 12:30:00 AM 1.67 35.006 0.225 7.12 262.49 0.23
1/16/2021 12:45:00 AM 1.68 35.024 0.225 7.13 263.17 0.23
1/16/2021 1:00:00 AM 1.69 35.042 0.224 7.13 265.3 0.23
1/16/2021 1:15:00 AM 1.7 35.06 0.224 7.13 258.51 0.23
1/16/2021 1:30:00 AM 1.71 35.078 0.224 7.13 256.91 0.23
1/16/2021 1:45:00 AM 1.72 35.096 0.224 7.13 243.21 0.23
1/16/2021 2:00:00 AM 1.72 35.096 0.224 7.13 221.78 0.23
1/16/2021 2:15:00 AM 1.73 35.114 0.224 7.13 216.8 0.23
1/16/2021 2:30:00 AM 1.74 35.132 0.224 7.13 202.03 0.23
1/16/2021 2:45:00 AM 1.74 35.132 0.224 7.13 205.14 0.23
1/16/2021 3:00:00 AM 1.75 35.15 0.224 7.13 207.32 0.23
1/16/2021 3:15:00 AM 1.75 35.15 0.224 7.13 227.53 0.23
1/16/2021 3:30:00 AM 1.76 35.168 0.224 7.13 219.4 0.23
1/16/2021 3:45:00 AM 1.76 35.168 0.224 7.13 232.98 0.23
1/16/2021 4:00:00 AM 1.76 35.168 0.224 7.13 237.88 0.23
1/16/2021 4:15:00 AM 1.76 35.168 0.224 7.13 243.69 0.23
1/16/2021 4:30:00 AM 1.76 35.168 0.224 7.13 244.52 0.23
1/16/2021 4:45:00 AM 1.76 35.168 0.224 7.13 249.86 0.23
1/16/2021 5:00:00 AM 1.75 35.15 0.224 7.13 259.61 0.23
1/16/2021 5:15:00 AM 1.74 35.132 0.225 7.13 270.71 0.23
1/16/2021 5:30:00 AM 1.72 35.096 0.225 7.13 264.98 0.23
1/16/2021 5:45:00 AM 1.7 35.06 0.225 7.13 268.4 0.23
1/16/2021 6:00:00 AM 1.67 35.006 0.225 7.13 277.89 0.23
1/16/2021 6:15:00 AM 1.65 34.97 0.225 7.13 282.84 0.23
1/16/2021 6:30:00 AM 1.63 34.934 0.225 7.13 289.89 0.23
1/16/2021 6:45:00 AM 1.62 34.916 0.226 7.14 294.14 0.23
1/16/2021 7:00:00 AM 1.61 34.898 0.226 7.14 296.82 0.23
1/16/2021 7:15:00 AM 1.6 34.88 0.226 7.14 291.02 0.23
1/16/2021 7:30:00 AM 1.59 34.862 0.226 7.14 288.32 0.23
1/16/2021 7:45:00 AM 1.58 34.844 0.226 7.14 289.55 0.23
1/16/2021 8:00:00 AM 1.58 34.844 0.226 7.14 287.23 0.23
1/16/2021 8:15:00 AM 1.57 34.826 0.227 7.14 287.71 0.23
1/16/2021 8:30:00 AM 1.57 34.826 0.227 7.14 295.93 0.23
1/16/2021 8:45:00 AM 1.56 34.808 0.227 7.14 287.91 0.23
1/16/2021 9:00:00 AM 1.56 34.808 0.227 7.14 289.96 0.23
1/16/2021 9:15:00 AM 1.56 34.808 0.227 7.14 290.44 0.23
1/16/2021 9:30:00 AM 1.56 34.808 0.228 7.14 282.93 0.23
1/16/2021 9:45:00 AM 1.57 34.826 0.228 7.14 289.21 0.23
1/16/2021 10:00:00 AM 1.58 34.844 0.228 7.14 280.13 0.23
1/16/2021 10:15:00 AM 1.58 34.844 0.228 7.14 280.37 0.23
1/16/2021 10:30:00 AM 1.59 34.862 0.228 7.14 282.4 0.23
1/16/2021 10:45:00 AM 1.6 34.88 0.228 7.14 286.85 0.23
1/16/2021 11:00:00 AM 1.6 34.88 0.228 7.14 282.65 0.23
1/16/2021 11:15:00 AM 1.61 34.898 0.229 7.14 281.82 0.23
1/16/2021 11:30:00 AM 1.61 34.898 0.229 7.14 280.23 0.23
1/16/2021 11:45:00 AM 1.61 34.898 0.229 7.15 282.01 0.23
1/16/2021 12:00:00 PM 1.6 34.88 0.229 7.15 279.98 0.23
1/16/2021 12:15:00 PM 1.6 34.88 0.229 7.15 285.55 0.23
1/16/2021 12:30:00 PM 1.59 34.862 0.229 7.15 286.96 0.23
1/16/2021 12:45:00 PM 1.58 34.844 0.229 7.15 290.51 0.23
1/16/2021 1:00:00 PM 1.57 34.826 0.229 7.15 289.01 0.23
1/16/2021 1:15:00 PM 1.57 34.826 0.229 7.15 294.14 0.23
1/16/2021 1:30:00 PM 1.56 34.808 0.229 7.15 292.89 0.23
1/16/2021 1:45:00 PM 1.55 34.79 0.229 7.15 293.8 0.23
1/16/2021 2:00:00 PM 1.55 34.79 0.23 7.15 289.89 0.23
1/16/2021 2:15:00 PM 1.55 34.79 0.23 7.15 291.79 0.23
1/16/2021 2:30:00 PM 1.55 34.79 0.23 7.15 299.6 0.23
1/16/2021 2:45:00 PM 1.57 34.826 0.23 7.15 298.58 0.23
1/16/2021 3:00:00 PM 1.58 34.844 0.23 7.15 296.7 0.23
1/16/2021 3:15:00 PM 1.6 34.88 0.23 7.15 301.86 0.23
1/16/2021 3:30:00 PM 1.62 34.916 0.23 7.15 295.94 0.23
1/16/2021 3:45:00 PM 1.63 34.934 0.23 7.15 298.61 0.23
1/16/2021 4:00:00 PM 1.63 34.934 0.23 7.15 304.43 0.23
1/16/2021 4:15:00 PM 1.64 34.952 0.23 7.15 308.46 0.23
1/16/2021 4:30:00 PM 1.64 34.952 0.23 7.15 323.15 0.23
1/16/2021 4:45:00 PM 1.64 34.952 0.23 7.15 326.35 0.23
1/16/2021 5:00:00 PM 1.63 34.934 0.23 7.15 331.47 0.23
1/16/2021 5:15:00 PM 1.62 34.916 0.23 7.15 337.65 0.23
1/16/2021 5:30:00 PM 1.6 34.88 0.23 7.15 336.55 0.23
1/16/2021 5:45:00 PM 1.59 34.862 0.23 7.15 331.51 0.23
1/16/2021 6:00:00 PM 1.57 34.826 0.23 7.15 332.16 0.23
1/16/2021 6:15:00 PM 1.55 34.79 0.23 7.15 327.47 0.23
1/16/2021 6:30:00 PM 1.53 34.754 0.23 7.15 326.49 0.23
1/16/2021 6:45:00 PM 1.51 34.718 0.23 7.15 311.07 0.23
1/16/2021 7:00:00 PM 1.49 34.682 0.23 7.15 299.41 0.23
1/16/2021 7:15:00 PM 1.47 34.646 0.23 7.15 307.42 0.23
1/16/2021 7:30:00 PM 1.46 34.628 0.23 7.15 309.44 0.23
1/16/2021 7:45:00 PM 1.44 34.592 0.23 7.15 310.07 0.23
1/16/2021 8:00:00 PM 1.42 34.556 0.23 7.15 314.06 0.23
1/16/2021 8:15:00 PM 1.4 34.52 0.23 7.15 319.67 0.23
1/16/2021 8:30:00 PM 1.38 34.484 0.23 7.15 319.66 0.23
1/16/2021 8:45:00 PM 1.36 34.448 0.23 7.16 317.49 0.23
1/16/2021 9:00:00 PM 1.35 34.43 0.23 7.16 314.65 0.23
1/16/2021 9:15:00 PM 1.33 34.394 0.23 7.16 296.05 0.23
1/16/2021 9:30:00 PM 1.32 34.376 0.23 7.16 308.78 0.23
1/16/2021 9:45:00 PM 1.31 34.358 0.23 7.16 321.03 0.23
1/16/2021 10:00:00 PM 1.31 34.358 0.23 7.16 325.47 0.23
1/16/2021 10:15:00 PM 1.3 34.34 0.23 7.16 338.03 0.23
1/16/2021 10:30:00 PM 1.3 34.34 0.23 7.16 322.78 0.23
1/16/2021 10:45:00 PM 1.29 34.322 0.229 7.16 323.5 0.23
1/16/2021 11:00:00 PM 1.29 34.322 0.229 7.16 312.81 0.24
1/16/2021 11:15:00 PM 1.29 34.322 0.229 7.16 324.89 0.23
1/16/2021 11:30:00 PM 1.29 34.322 0.228 7.16 315.19 0.23
1/16/2021 11:45:00 PM 1.3 34.34 0.227 7.16 330.58 0.23
1/17/2021 12:00:00 AM 1.3 34.34 0.227 7.16 329.99 0.23
1/17/2021 12:15:00 AM 1.31 34.358 0.226 7.16 291.86 0.23
1/17/2021 12:30:00 AM 1.31 34.358 0.225 7.16 296.41 0.23
1/17/2021 12:45:00 AM 1.32 34.376 0.224 7.16 293.91 0.24
1/17/2021 1:00:00 AM 1.33 34.394 0.223 7.16 295.11 0.23
1/17/2021 1:15:00 AM 1.34 34.412 0.222 7.16 284.48 0.23
1/17/2021 1:30:00 AM 1.34 34.412 0.221 7.16 300.88 0.23
1/17/2021 1:45:00 AM 1.35 34.43 0.22 7.16 304.02 0.23
1/17/2021 2:00:00 AM 1.36 34.448 0.219 7.16 304.22 0.23
1/17/2021 2:15:00 AM 1.37 34.466 0.218 7.16 305.34 0.23
1/17/2021 2:30:00 AM 1.38 34.484 0.218 7.16 319.11 0.23
1/17/2021 2:45:00 AM 1.38 34.484 0.218 7.16 375.72 0.23
1/17/2021 3:00:00 AM 1.39 34.502 0.218 7.16 414.97 0.23
1/17/2021 3:15:00 AM 1.4 34.52 0.218 7.17 379.46 0.23
1/17/2021 3:30:00 AM 1.4 34.52 0.216 7.17 260.85 0.23
1/17/2021 3:45:00 AM 1.41 34.538 0.296 7.2 108.77 0.23
1/17/2021 4:00:00 AM 1.41 34.538 0.292 7.19 107.53 0.23
1/17/2021 4:15:00 AM 1.41 34.538 0.289 7.19 107.14 0.23
1/17/2021 4:30:00 AM 1.41 34.538 0.287 7.19 107.18 0.23
1/17/2021 4:45:00 AM 1.42 34.556 0.285 7.2 107.52 0.23
1/17/2021 5:00:00 AM 1.42 34.556 0.283 7.2 107.99 0.23
1/17/2021 5:15:00 AM 1.42 34.556 0.282 7.2 107.89 0.23
1/17/2021 5:30:00 AM 1.42 34.556 0.28 7.2 107.79 0.23
1/17/2021 5:45:00 AM 1.42 34.556 0.278 7.2 107.86 0.23
1/17/2021 6:00:00 AM 1.42 34.556 0.276 7.2 108.27 0.23
1/17/2021 6:15:00 AM 1.42 34.556 0.275 7.2 108.16 0.23
1/17/2021 6:30:00 AM 1.41 34.538 0.273 7.2 107.84 0.23
1/17/2021 6:45:00 AM 1.41 34.538 0.272 7.19 107.97 0.23
1/17/2021 7:00:00 AM 1.4 34.52 0.27 7.2 108.24 0.23
1/17/2021 7:15:00 AM 1.4 34.52 0.269 7.2 108.24 0.23
1/17/2021 7:30:00 AM 1.39 34.502 0.267 7.2 108.42 0.23
1/17/2021 7:45:00 AM 1.38 34.484 0.266 7.2 107.43 0.23
1/17/2021 8:00:00 AM 1.37 34.466 0.265 7.2 109.32 0.23
1/17/2021 8:15:00 AM 1.36 34.448 0.264 7.2 109.51 0.23
1/17/2021 8:30:00 AM 1.35 34.43 0.263 7.2 110.25 0.24
1/17/2021 8:45:00 AM 1.35 34.43 0.263 7.2 110.32 0.23
1/17/2021 9:00:00 AM 1.35 34.43 0.262 7.2 110.37 0.23
1/17/2021 9:15:00 AM 1.34 34.412 0.261 7.19 113.04 0.23
1/17/2021 9:30:00 AM 1.34 34.412 0.26 7.19 119.25 0.23
1/17/2021 9:45:00 AM 1.34 34.412 0.258 7.19 123.19 0.23
1/17/2021 10:00:00 AM 1.34 34.412 0.258 7.19 128.9 0.23
1/17/2021 10:15:00 AM 1.35 34.43 0.257 7.18 135.83 0.23
1/17/2021 10:30:00 AM 1.35 34.43 0.256 7.18 142.27 0.23
1/17/2021 10:45:00 AM 1.37 34.466 0.256 7.18 148.79 0.23
1/17/2021 11:00:00 AM 1.38 34.484 0.255 7.18 155.43 0.23
1/17/2021 11:15:00 AM 1.4 34.52 0.254 7.18 159.68 0.23
1/17/2021 11:30:00 AM 1.41 34.538 0.254 7.18 166.79 0.23
1/17/2021 11:45:00 AM 1.41 34.538 0.253 7.17 173.13 0.23
1/17/2021 12:00:00 PM 1.42 34.556 0.252 7.17 178.75 0.23
1/17/2021 12:15:00 PM 1.43 34.574 0.252 7.17 185.65 0.23
1/17/2021 12:30:00 PM 1.44 34.592 0.251 7.17 195.46 0.23
1/17/2021 12:45:00 PM 1.44 34.592 0.25 7.17 198.96 0.23
1/17/2021 1:00:00 PM 1.46 34.628 0.249 7.17 211.91 0.23
1/17/2021 1:15:00 PM 1.47 34.646 0.247 7.17 210.15 0.23
1/17/2021 1:30:00 PM 1.49 34.682 0.246 7.16 212.91 0.23
1/17/2021 1:45:00 PM 1.51 34.718 0.245 7.16 211.49 0.23
1/17/2021 2:00:00 PM 1.52 34.736 0.244 7.16 214.82 0.23
1/17/2021 2:15:00 PM 1.54 34.772 0.243 7.16 216.05 0.23
1/17/2021 2:30:00 PM 1.55 34.79 0.241 7.16 217.68 0.23
1/17/2021 2:45:00 PM 1.57 34.826 0.24 7.15 216.46 0.23
1/17/2021 3:00:00 PM 1.58 34.844 0.238 7.15 223.1 0.23
1/17/2021 3:15:00 PM 1.58 34.844 0.236 7.15 228.03 0.23
1/17/2021 3:30:00 PM 1.58 34.844 0.233 7.15 232.04 0.23
1/17/2021 3:45:00 PM 1.58 34.844 0.231 7.15 263.45 0.23
1/17/2021 4:00:00 PM 1.57 34.826 0.228 7.15 247.12 0.23
1/17/2021 4:15:00 PM 1.57 34.826 0.227 7.14 251.2 0.23
1/17/2021 4:30:00 PM 1.56 34.808 0.225 7.14 302.29 0.23
1/17/2021 4:45:00 PM 1.56 34.808 0.223 7.14 320.75 0.23
1/17/2021 5:00:00 PM 1.56 34.808 0.271 7.2 115.55 0.23
1/17/2021 5:15:00 PM 1.55 34.79 0.269 7.17 114.7 0.23
1/17/2021 5:30:00 PM 1.54 34.772 0.267 7.17 114.17 0.23
1/17/2021 5:45:00 PM 1.54 34.772 0.266 7.17 113.19 0.23
1/17/2021 6:00:00 PM 1.53 34.754 0.264 7.17 112.95 0.23
1/17/2021 6:15:00 PM 1.53 34.754 0.263 7.17 112 0.23
1/17/2021 6:30:00 PM 1.52 34.736 0.261 7.16 119.84 0.23
1/17/2021 6:45:00 PM 1.52 34.736 0.26 7.16 131.91 0.23
1/17/2021 7:00:00 PM 1.52 34.736 0.258 7.16 142.28 0.23
1/17/2021 7:15:00 PM 1.51 34.718 0.257 7.16 159.9 0.23
1/17/2021 7:30:00 PM 1.51 34.718 0.256 7.15 170.69 0.23
1/17/2021 7:45:00 PM 1.51 34.718 0.255 7.15 180.63 0.23
1/17/2021 8:00:00 PM 1.51 34.718 0.254 7.15 186.36 0.23
1/17/2021 8:15:00 PM 1.51 34.718 0.254 7.15 189.6 0.23
1/17/2021 8:30:00 PM 1.5 34.7 0.253 7.15 195.16 0.23
1/17/2021 8:45:00 PM 1.5 34.7 0.252 7.15 198.4 0.23
1/17/2021 9:00:00 PM 1.51 34.718 0.251 7.15 206.49 0.23
1/17/2021 9:15:00 PM 1.51 34.718 0.25 7.14 213.59 0.23
1/17/2021 9:30:00 PM 1.51 34.718 0.249 7.14 230.04 0.23
1/17/2021 9:45:00 PM 1.51 34.718 0.248 7.14 249.55 0.23
1/17/2021 10:00:00 PM 1.51 34.718 0.248 7.14 255.02 0.23
1/17/2021 10:15:00 PM 1.52 34.736 0.247 7.14 260.95 0.23
1/17/2021 10:30:00 PM 1.52 34.736 0.246 7.14 268.79 0.23
1/17/2021 10:45:00 PM 1.52 34.736 0.246 7.14 278.53 0.23
1/17/2021 11:00:00 PM 1.53 34.754 0.245 7.14 288.32 0.23
1/17/2021 11:15:00 PM 1.53 34.754 0.244 7.14 314.37 0.23
1/17/2021 11:30:00 PM 1.53 34.754 0.243 7.14 327.29 0.23
1/17/2021 11:45:00 PM 1.53 34.754 0.243 7.13 346.35 0.23
1/18/2021 12:00:00 AM 1.54 34.772 0.242 7.13 362.41 0.23
1/18/2021 12:15:00 AM 1.54 34.772 0.241 7.13 353.91 0.23
1/18/2021 12:30:00 AM 1.54 34.772 0.24 7.13 363.83 0.23
1/18/2021 12:45:00 AM 1.54 34.772 0.24 7.13 372.15 0.23
1/18/2021 1:00:00 AM 1.54 34.772 0.239 7.13 391.54 0.23
1/18/2021 1:15:00 AM 1.54 34.772 0.238 7.13 416.28 0.23
1/18/2021 1:30:00 AM 1.54 34.772 0.238 7.13 390.44 0.23
1/18/2021 1:45:00 AM 1.54 34.772 0.237 7.13 413.62 0.23
1/18/2021 2:00:00 AM 1.53 34.754 0.236 7.13 447.47 0.23
1/18/2021 2:15:00 AM 1.53 34.754 0.234 7.12 486.19 0.23
1/18/2021 2:30:00 AM 1.53 34.754 0.233 7.12 531.04 0.23
1/18/2021 2:45:00 AM 1.52 34.736 0.232 7.12 570.72 0.23
1/18/2021 3:00:00 AM 1.51 34.718 0.231 7.12 487.68 0.23
1/18/2021 3:15:00 AM 1.51 34.718 0.23 7.12 499.76 0.23
1/18/2021 3:30:00 AM 1.5 34.7 0.228 7.12 589.43 0.23
1/18/2021 3:45:00 AM 1.5 34.7 0.226 7.12 722.12 0.23
1/18/2021 4:00:00 AM 1.49 34.682 0.225 7.11 839.97 0.23
1/18/2021 4:15:00 AM 1.49 34.682 0.223 7.11 909.79 0.23
1/18/2021 4:30:00 AM 1.49 34.682 0.221 7.11 992.2 0.23
1/18/2021 4:45:00 AM 1.49 34.682 0.219 7.11 1116.83 0.23
1/18/2021 5:00:00 AM 1.49 34.682 0.218 7.11 856.36 0.23
1/18/2021 5:15:00 AM 1.49 34.682 0.216 7.11 910.99 0.23
1/18/2021 5:30:00 AM 1.49 34.682 0.215 7.11 884.53 0.23
1/18/2021 5:45:00 AM 1.49 34.682 0.259 7.17 108.14 0.23
1/18/2021 6:00:00 AM 1.49 34.682 0.256 7.15 121.76 0.23
1/18/2021 6:15:00 AM 1.49 34.682 0.254 7.15 151.4 0.23
1/18/2021 6:30:00 AM 1.49 34.682 0.252 7.16 172.17 0.23
1/18/2021 6:45:00 AM 1.49 34.682 0.25 7.17 181.8 0.23
1/18/2021 7:00:00 AM 1.49 34.682 0.248 7.17 190.39 0.23
1/18/2021 7:15:00 AM 1.48 34.664 0.245 7.17 197.63 0.23
1/18/2021 7:30:00 AM 1.48 34.664 0.243 7.17 203.02 0.23
1/18/2021 7:45:00 AM 1.48 34.664 0.241 7.17 205.24 0.23
1/18/2021 8:00:00 AM 1.48 34.664 0.239 7.16 203.78 0.23
1/18/2021 8:15:00 AM 1.48 34.664 0.237 7.16 201.57 0.23
1/18/2021 8:30:00 AM 1.48 34.664 0.235 7.16 198.46 0.23
1/18/2021 8:45:00 AM 1.48 34.664 0.233 7.16 190.5 0.23
1/18/2021 9:00:00 AM 1.49 34.682 0.231 7.16 179.62 0.23
1/18/2021 9:15:00 AM 1.5 34.7 0.23 7.15 169.31 0.23
1/18/2021 9:30:00 AM 1.5 34.7 0.229 7.15 160.11 0.23
1/18/2021 9:45:00 AM 1.51 34.718 0.228 7.15 152.04 0.23
1/18/2021 10:00:00 AM 1.52 34.736 0.227 7.15 142.73 0.23
1/18/2021 10:15:00 AM 1.53 34.754 0.226 7.15 134.46 0.23
1/18/2021 10:30:00 AM 1.54 34.772 0.225 7.14 125.15 0.23
1/18/2021 10:45:00 AM 1.56 34.808 0.224 7.14 121.01 0.23
1/18/2021 11:00:00 AM 1.57 34.826 0.223 7.14 119.9 0.23
1/18/2021 11:15:00 AM 1.58 34.844 0.222 7.14 120.3 0.23
1/18/2021 11:30:00 AM 1.59 34.862 0.221 7.14 121.11 0.23
1/18/2021 11:45:00 AM 1.62 34.916 0.22 7.14 121.28 0.23
1/18/2021 12:00:00 PM 1.64 34.952 0.219 7.14 121.28 0.23
1/18/2021 12:15:00 PM 1.68 35.024 0.217 7.14 120.07 0.23
1/18/2021 12:30:00 PM 1.71 35.078 0.216 7.14 121.65 0.23
1/18/2021 12:45:00 PM 1.74 35.132 0.215 7.15 121.65 0.23
1/18/2021 1:00:00 PM 1.77 35.186 0.213 7.15 122.03 0.23
1/18/2021 1:15:00 PM 1.8 35.24 0.211 7.15 123.04 0.23
1/18/2021 1:30:00 PM 1.83 35.294 0.209 7.15 122.35 0.23
1/18/2021 1:45:00 PM 1.86 35.348 0.207 7.15 119.64 0.23
1/18/2021 2:00:00 PM 1.9 35.42 0.205 7.15 127.3 0.23
1/18/2021 2:15:00 PM 1.95 35.51 0.204 7.15 147.63 0.23
1/18/2021 2:30:00 PM 1.99 35.582 0.203 7.16 162.9 0.23
1/18/2021 2:45:00 PM 2.03 35.654 0.201 7.16 214.99 0.23
1/18/2021 3:00:00 PM 2.08 35.744 0.246 7.21 106.19 0.23
1/18/2021 3:15:00 PM 2.08 35.744 0.244 7.16 106.39 0.23
1/18/2021 3:30:00 PM 2.07 35.726 0.24 7.16 101.75 0.23
1/18/2021 3:45:00 PM 2.06 35.708 0.237 7.17 99.17 0.23
1/18/2021 4:00:00 PM 2.04 35.672 0.233 7.16 97.24 0.23
1/18/2021 4:15:00 PM 2.03 35.654 0.231 7.16 97.42 0.23
1/18/2021 4:30:00 PM 2.01 35.618 0.229 7.16 99.66 0.23
1/18/2021 4:45:00 PM 1.99 35.582 0.227 7.16 100.53 0.23
1/18/2021 5:00:00 PM 1.97 35.546 0.226 7.15 102.46 0.23
1/18/2021 5:15:00 PM 1.95 35.51 0.224 7.15 106.1 0.23
1/18/2021 5:30:00 PM 1.93 35.474 0.222 7.15 109.65 0.23
1/18/2021 5:45:00 PM 1.91 35.438 0.221 7.15 111.68 0.23
1/18/2021 6:00:00 PM 1.89 35.402 0.219 7.15 115.27 0.23
1/18/2021 6:15:00 PM 1.86 35.348 0.217 7.14 119.92 0.23
1/18/2021 6:30:00 PM 1.84 35.312 0.215 7.14 126.63 0.23
1/18/2021 6:45:00 PM 1.81 35.258 0.213 7.14 137.42 0.23
1/18/2021 7:00:00 PM 1.79 35.222 0.211 7.14 144.75 0.23
1/18/2021 7:15:00 PM 1.77 35.186 0.208 7.15 155.52 0.23
1/18/2021 7:30:00 PM 1.75 35.15 0.206 7.15 155.46 0.23
1/18/2021 7:45:00 PM 1.73 35.114 0.205 7.15 142.68 0.23
1/18/2021 8:00:00 PM 1.72 35.096 0.203 7.15 142.88 0.23
1/18/2021 8:15:00 PM 1.71 35.078 0.201 7.15 146.15 0.23
1/18/2021 8:30:00 PM 1.71 35.078 0.202 7.14 162.4 0.23
1/18/2021 8:45:00 PM 1.7 35.06 0.248 7.23 106.24 0.23
1/18/2021 9:00:00 PM 1.7 35.06 0.244 7.18 109.35 0.23
1/18/2021 9:15:00 PM 1.69 35.042 0.237 7.18 130.66 0.23
1/18/2021 9:30:00 PM 1.68 35.024 0.232 7.19 283.32 0.23
1/18/2021 9:45:00 PM 1.67 35.006 0.229 7.19 376.52 0.23
1/18/2021 10:00:00 PM 1.67 35.006 0.225 7.19 530.32 0.23
1/18/2021 10:15:00 PM 1.66 34.988 0.222 7.19 633.5 0.23
1/18/2021 10:30:00 PM 1.66 34.988 0.22 7.19 1274.87 0.23
1/18/2021 10:45:00 PM 1.65 34.97 0.218 7.19 1330.94 0.23
1/18/2021 11:00:00 PM 1.64 34.952 0.216 7.19 1258.37 0.23
1/18/2021 11:15:00 PM 1.64 34.952 0.213 7.18 1709.6 0.23
1/18/2021 11:30:00 PM 1.64 34.952 0.211 7.18 2079.13 0.23
1/18/2021 11:45:00 PM 1.64 34.952 0.209 7.18 2059.27 0.23
1/19/2021 12:00:00 AM 1.64 34.952 0.207 7.18 1565.61 0.23
1/19/2021 12:15:00 AM 1.64 34.952 0.205 7.18 1278.55 0.23
1/19/2021 12:30:00 AM 1.64 34.952 0.202 7.18 1471.41 0.23
1/19/2021 12:45:00 AM 1.64 34.952 0.199 7.18 1551.96 0.23
1/19/2021 1:00:00 AM 1.63 34.934 0.196 7.18 1637.78 0.23
1/19/2021 1:15:00 AM 1.63 34.934 0.194 7.18 329.62 0.23
1/19/2021 1:30:00 AM 1.62 34.916 0.192 7.18 382.75 0.23
1/19/2021 1:45:00 AM 1.62 34.916 0.191 7.18 395.08 0.23
1/19/2021 2:00:00 AM 1.61 34.898 0.189 7.18 528.84 0.23
1/19/2021 2:15:00 AM 1.61 34.898 0.235 7.22 119.58 0.23
1/19/2021 2:30:00 AM 1.6 34.88 0.232 7.2 118.79 0.23
1/19/2021 2:45:00 AM 1.6 34.88 0.228 7.19 160.91 0.23
1/19/2021 3:00:00 AM 1.6 34.88 0.224 7.19 221.7 0.23
1/19/2021 3:15:00 AM 1.6 34.88 0.221 7.19 239.61 0.23
1/19/2021 3:30:00 AM 1.6 34.88 0.218 7.19 245.64 0.23
1/19/2021 3:45:00 AM 1.6 34.88 0.214 7.19 276.77 0.23
1/19/2021 4:00:00 AM 1.6 34.88 0.212 7.19 304.77 0.23
1/19/2021 4:15:00 AM 1.6 34.88 0.21 7.18 364.41 0.23
1/19/2021 4:30:00 AM 1.59 34.862 0.208 7.18 451.11 0.23
1/19/2021 4:45:00 AM 1.59 34.862 0.205 7.18 591.99 0.23
1/19/2021 5:00:00 AM 1.59 34.862 0.202 7.18 825.41 0.23
1/19/2021 5:15:00 AM 1.58 34.844 0.199 7.18 1293.72 0.23
1/19/2021 5:30:00 AM 1.58 34.844 0.196 7.18 1496.58 0.23
1/19/2021 5:45:00 AM 1.57 34.826 0.193 7.18 1724.18 0.23
1/19/2021 6:00:00 AM 1.57 34.826 0.19 7.18 597.22 0.23
1/19/2021 6:15:00 AM 1.56 34.808 0.187 7.18 728.01 0.23
1/19/2021 6:30:00 AM 1.55 34.79 0.185 7.19 469.02 0.23
1/19/2021 6:45:00 AM 1.54 34.772 0.242 7.19 120.17 0.23
1/19/2021 7:00:00 AM 1.53 34.754 0.24 7.18 117.84 0.23
1/19/2021 7:15:00 AM 1.52 34.736 0.236 7.18 136.23 0.23
1/19/2021 7:30:00 AM 1.5 34.7 0.232 7.18 168.43 0.23
1/19/2021 7:45:00 AM 1.49 34.682 0.227 7.18 197.28 0.23
1/19/2021 8:00:00 AM 1.47 34.646 0.224 7.17 199.14 0.23
1/19/2021 8:15:00 AM 1.46 34.628 0.222 7.17 201.52 0.23
1/19/2021 8:30:00 AM 1.45 34.61 0.219 7.17 251.81 0.23
1/19/2021 8:45:00 AM 1.45 34.61 0.217 7.16 269.6 0.23
1/19/2021 9:00:00 AM 1.44 34.592 0.215 7.16 310.82 0.23
1/19/2021 9:15:00 AM 1.44 34.592 0.214 7.16 380.29 0.23
1/19/2021 9:30:00 AM 1.44 34.592 0.213 7.15 456.52 0.23
1/19/2021 9:45:00 AM 1.44 34.592 0.211 7.15 603.58 0.23
1/19/2021 10:00:00 AM 1.45 34.61 0.21 7.15 712.14 0.23
1/19/2021 10:15:00 AM 1.45 34.61 0.208 7.15 731.1 0.23
1/19/2021 10:30:00 AM 1.46 34.628 0.207 7.14 537.25 0.23
1/19/2021 10:45:00 AM 1.47 34.646 0.206 7.14 535.36 0.23
1/19/2021 11:00:00 AM 1.49 34.682 0.204 7.14 633.73 0.23
1/19/2021 11:15:00 AM 1.5 34.7 0.202 7.14 546.79 0.23
1/19/2021 11:30:00 AM 1.52 34.736 0.201 7.13 689.77 0.23
1/19/2021 11:45:00 AM 1.53 34.754 0.198 7.13 688.96 0.23
1/19/2021 12:00:00 PM 1.55 34.79 0.195 7.13 600.32 0.23
1/19/2021 12:15:00 PM 1.57 34.826 0.192 7.13 591.27 0.23
1/19/2021 12:30:00 PM 1.61 34.898 0.19 7.13 588.4 0.23
1/19/2021 12:45:00 PM 1.71 35.078 0.188 7.13 623.81 0.23
1/19/2021 1:00:00 PM 1.72 35.096 0.188 7.12 618.08 0.23
1/19/2021 1:15:00 PM 1.77 35.186 0.207 7.15 133.72 0.23
1/19/2021 1:30:00 PM 1.78 35.204 0.204 7.13 152.61 0.23
1/19/2021 1:45:00 PM 1.78 35.204 0.201 7.11 161.83 0.23
1/19/2021 2:00:00 PM 1.79 35.222 0.198 7.11 170.93 0.23
1/19/2021 2:15:00 PM 1.8 35.24 0.194 7.12 205.68 0.23
1/19/2021 2:30:00 PM 1.83 35.294 0.191 7.13 246.93 0.23
1/19/2021 2:45:00 PM 1.84 35.312 0.189 7.12 260.23 0.23
1/19/2021 3:00:00 PM 1.87 35.366 0.188 7.11 257.5 0.23
1/19/2021 3:15:00 PM 1.9 35.42 0.186 7.11 292.22 0.23
1/19/2021 3:30:00 PM 1.93 35.474 0.185 7.11 284.38 0.23
1/19/2021 3:45:00 PM 1.95 35.51 0.184 7.11 279.19 0.23
1/19/2021 4:00:00 PM 1.97 35.546 0.183 7.11 293.69 0.23
1/19/2021 4:15:00 PM 1.98 35.564 0.181 7.11 317.33 0.23
1/19/2021 4:30:00 PM 1.98 35.564 0.18 7.1 394.58 0.23
1/19/2021 4:45:00 PM 1.97 35.546 0.178 7.1 478.77 0.23
1/19/2021 5:00:00 PM 1.95 35.51 0.177 7.1 683.98 0.23
1/19/2021 5:15:00 PM 1.94 35.492 0.177 7.09 944.36 0.23
1/19/2021 5:30:00 PM 1.92 35.456 0.216 7.16 123.71 0.23
1/19/2021 5:45:00 PM 1.9 35.42 0.213 7.13 151.8 0.23
1/19/2021 6:00:00 PM 1.88 35.384 0.209 7.13 214.07 0.23
1/19/2021 6:15:00 PM 1.86 35.348 0.206 7.13 322.88 0.23
1/19/2021 6:30:00 PM 1.83 35.294 0.204 7.12 345.94 0.23
1/19/2021 6:45:00 PM 1.8 35.24 0.203 7.12 377.87 0.23
1/19/2021 7:00:00 PM 1.78 35.204 0.202 7.11 365.13 0.23
1/19/2021 7:15:00 PM 1.75 35.15 0.2 7.11 353.84 0.23
1/19/2021 7:30:00 PM 1.73 35.114 0.199 7.1 314.29 0.23
1/19/2021 7:45:00 PM 1.7 35.06 0.198 7.1 306.64 0.23
1/19/2021 8:00:00 PM 1.69 35.042 0.196 7.1 286.23 0.23
1/19/2021 8:15:00 PM 1.67 35.006 0.194 7.1 341.74 0.23
1/19/2021 8:30:00 PM 1.66 34.988 0.193 7.1 429.07 0.23
1/19/2021 8:45:00 PM 1.65 34.97 0.192 7.09 523.04 0.23
1/19/2021 9:00:00 PM 1.64 34.952 0.191 7.09 668.68 0.23
1/19/2021 9:15:00 PM 1.64 34.952 0.19 7.09 953.6 0.23
1/19/2021 9:30:00 PM 1.63 34.934 0.189 7.08 1257.2 0.23
1/19/2021 9:45:00 PM 1.63 34.934 0.188 7.08 1722.7 0.23
1/19/2021 10:00:00 PM 1.62 34.916 0.188 7.08 2292.6 0.23
1/19/2021 10:15:00 PM 1.62 34.916 0.187 7.08 2804.16 0.23
1/19/2021 10:30:00 PM 1.62 34.916 0.187 7.08 3363.96 0.23
1/19/2021 10:45:00 PM 1.62 34.916 0.187 7.08 3906.86 0.23
1/19/2021 11:00:00 PM 1.62 34.916 0.186 7.08 4587.86 0.23
1/19/2021 11:15:00 PM 1.62 34.916 0.186 7.08 5224.32 0.23
1/19/2021 11:30:00 PM 1.63 34.934 0.185 7.08 5962.22 0.23
1/19/2021 11:45:00 PM 1.63 34.934 0.185 7.08 6596.75 0.23
1/20/2021 12:00:00 AM 1.63 34.934 0.184 7.08 7681.29 0.23
1/20/2021 12:15:00 AM 1.64 34.952 0.183 7.08 8323.35 0.23
1/20/2021 12:30:00 AM 1.64 34.952 0.183 7.08 9091.19 0.23
1/20/2021 12:45:00 AM 1.64 34.952 0.183 7.08 9651.82 0.23
1/20/2021 1:00:00 AM 1.64 34.952 0.183 7.08 9871.3 0.23
1/20/2021 1:15:00 AM 1.65 34.97 0.182 7.08 10535.29 0.23
1/20/2021 1:30:00 AM 1.65 34.97 0.182 7.08 7826.99 0.23
1/20/2021 1:45:00 AM 1.65 34.97 0.181 7.08 8849.78 0.23
1/20/2021 2:00:00 AM 1.65 34.97 0.18 7.08 8664.65 0.23
1/20/2021 2:15:00 AM 1.65 34.97 0.18 7.08 8903.81 0.23
1/20/2021 2:30:00 AM 1.65 34.97 0.179 7.08 8489.34 0.23
1/20/2021 2:45:00 AM 1.65 34.97 0.179 7.09 2358.36 0.23
1/20/2021 3:00:00 AM 1.65 34.97 0.179 7.09 2640.31 0.23
1/20/2021 3:15:00 AM 1.65 34.97 0.178 7.09 2918.14 0.23
1/20/2021 3:30:00 AM 1.65 34.97 0.178 7.09 3184.24 0.23
1/20/2021 3:45:00 AM 1.65 34.97 0.177 7.09 3434.25 0.23
1/20/2021 4:00:00 AM 1.64 34.952 0.177 7.1 2429.6 0.23
1/20/2021 4:15:00 AM 1.64 34.952 0.176 7.1 2496.49 0.23
1/20/2021 4:30:00 AM 1.63 34.934 0.176 7.1 2445.08 0.23
1/20/2021 4:45:00 AM 1.63 34.934 0.175 7.1 2334.94 0.23
1/20/2021 5:00:00 AM 1.62 34.916 0.175 7.1 2196.45 0.23
1/20/2021 5:15:00 AM 1.62 34.916 0.175 7.1 1585.44 0.23
1/20/2021 5:30:00 AM 1.61 34.898 0.175 7.11 2411.27 0.23
1/20/2021 5:45:00 AM 1.6 34.88 0.175 7.11 2061.17 0.23
1/20/2021 6:00:00 AM 1.59 34.862 0.177 7.11 493.16 0.23
1/20/2021 6:15:00 AM 1.58 34.844 0.218 7.16 172 0.23
1/20/2021 6:30:00 AM 1.56 34.808 0.217 7.16 201.27 0.23
1/20/2021 6:45:00 AM 1.54 34.772 0.215 7.16 220.81 0.23
1/20/2021 7:00:00 AM 1.51 34.718 0.213 7.17 241.95 0.23
1/20/2021 7:15:00 AM 1.48 34.664 0.209 7.17 235.47 0.23
1/20/2021 7:30:00 AM 1.47 34.646 0.205 7.16 240.31 0.23
1/20/2021 7:45:00 AM 1.45 34.61 0.202 7.15 186.8 0.23
1/20/2021 8:00:00 AM 1.43 34.574 0.198 7.15 184.89 0.23
1/20/2021 8:15:00 AM 1.42 34.556 0.196 7.14 190.8 0.23
1/20/2021 8:30:00 AM 1.41 34.538 0.194 7.14 266.59 0.23
1/20/2021 8:45:00 AM 1.4 34.52 0.191 7.14 410.97 0.23
1/20/2021 9:00:00 AM 1.39 34.502 0.187 7.14 852.56 0.23
1/20/2021 9:15:00 AM 1.38 34.484 0.185 7.14 1930.67 0.23
1/20/2021 9:30:00 AM 1.37 34.466 0.182 7.14 2059.66 0.23
1/20/2021 9:45:00 AM 1.35 34.43 0.18 7.13 2113.69 0.23
1/20/2021 10:00:00 AM 1.35 34.43 0.178 7.13 3373.88 0.23
1/20/2021 10:15:00 AM 1.36 34.448 0.219 7.19 318.6 0.24
1/20/2021 10:30:00 AM 1.37 34.466 0.219 7.15 245 0.23
1/20/2021 10:45:00 AM 1.39 34.502 0.218 7.14 225.68 0.23
1/20/2021 11:00:00 AM 1.43 34.574 0.217 7.14 208.11 0.23
1/20/2021 11:15:00 AM 1.47 34.646 0.214 7.13 218.73 0.23
1/20/2021 11:30:00 AM 1.5 34.7 0.212 7.13 243.33 0.23
1/20/2021 11:45:00 AM 1.52 34.736 0.209 7.13 307.9 0.23
1/20/2021 12:00:00 PM 1.54 34.772 0.206 7.12 347.12 0.23
1/20/2021 12:15:00 PM 1.58 34.844 0.203 7.13 570.03 0.23
1/20/2021 12:30:00 PM 1.62 34.916 0.2 7.13 879.35 0.23
1/20/2021 12:45:00 PM 1.66 34.988 0.197 7.12 655.2 0.23
1/20/2021 1:00:00 PM 1.7 35.06 0.194 7.12 445.85 0.23
1/20/2021 1:15:00 PM 1.72 35.096 0.191 7.11 604.77 0.23
1/20/2021 1:30:00 PM 1.74 35.132 0.186 7.11 635.25 0.23
1/20/2021 1:45:00 PM 1.77 35.186 0.182 7.1 845.96 0.23
1/20/2021 2:00:00 PM 1.81 35.258 0.178 7.1 782.77 0.23
1/20/2021 2:15:00 PM 1.82 35.276 0.217 7.16 592.89 0.3
1/20/2021 2:30:00 PM 1.83 35.294 0.216 7.14 839.89 0.23
1/20/2021 2:45:00 PM 1.85 35.33 0.213 7.13 686.83 0.23
1/20/2021 3:00:00 PM 1.85 35.33 0.21 7.13 614.65 0.23
1/20/2021 3:15:00 PM 1.85 35.33 0.207 7.14 507.16 0.23
1/20/2021 3:30:00 PM 1.85 35.33 0.204 7.14 401.25 0.23
1/20/2021 3:45:00 PM 1.81 35.258 0.202 7.13 345.82 0.23
1/20/2021 4:00:00 PM 1.76 35.168 0.199 7.13 358.47 0.23
1/20/2021 4:15:00 PM 1.72 35.096 0.197 7.12 338.24 0.23
1/20/2021 4:30:00 PM 1.65 34.97 0.195 7.11 387.53 0.23
1/20/2021 4:45:00 PM 1.59 34.862 0.193 7.11 345.49 0.23
1/20/2021 5:00:00 PM 1.52 34.736 0.191 7.1 318.72 0.23
1/20/2021 5:15:00 PM 1.45 34.61 0.189 7.09 374.29 0.23
1/20/2021 5:30:00 PM 1.38 34.484 0.187 7.08 407.24 0.23
1/20/2021 5:45:00 PM 1.32 34.376 0.184 7.07 356.89 0.23
1/20/2021 6:00:00 PM 1.27 34.286 0.181 7.07 303.31 0.23
1/20/2021 6:15:00 PM 1.23 34.214 0.177 7.06 246.46 0.23
1/20/2021 6:30:00 PM 1.19 34.142 0.175 7.06 310.08 0.24
1/20/2021 6:45:00 PM 1.15 34.07 0.172 7.05 306.81 0.23
1/20/2021 7:00:00 PM 1.13 34.034 0.21 7.11 133.83 0.93
1/20/2021 7:15:00 PM 1.1 33.98 0.208 7.11 132.44 0.25
1/20/2021 7:30:00 PM 1.07 33.926 0.204 7.1 157.89 0.24
1/20/2021 7:45:00 PM 1.04 33.872 0.201 7.1 177.07 0.24
1/20/2021 8:00:00 PM 1.02 33.836 0.197 7.1 193.9 0.23
1/20/2021 8:15:00 PM 0.99 33.782 0.194 7.1 196.12 0.23
1/20/2021 8:30:00 PM 0.97 33.746 0.19 7.09 199.29 0.24
1/20/2021 8:45:00 PM 0.95 33.71 0.187 7.08 189.77 0.24
1/20/2021 9:00:00 PM 0.93 33.674 0.184 7.08 179.33 0.24
1/20/2021 9:15:00 PM 0.91 33.638 0.182 7.07 182.99 0.24
1/20/2021 9:30:00 PM 0.9 33.62 0.18 7.07 182.85 0.24
1/20/2021 9:45:00 PM 0.88 33.584 0.177 7.07 155.07 0.24
1/20/2021 10:00:00 PM 0.88 33.584 0.171 7.06 175.49 0.24
1/20/2021 10:15:00 PM 0.87 33.566 0.168 7.06 169.4 0.24
1/20/2021 10:30:00 PM 0.88 33.584 0.204 7.11 134.44 1.72
1/20/2021 10:45:00 PM 0.87 33.566 0.205 7.12 148.59 0.33
1/20/2021 11:00:00 PM 0.86 33.548 0.204 7.11 166.64 0.25
1/20/2021 11:15:00 PM 0.85 33.53 0.204 7.11 176.42 0.24
1/20/2021 11:30:00 PM 0.84 33.512 0.204 7.11 180.11 0.24
1/20/2021 11:45:00 PM 0.83 33.494 0.204 7.1 182.46 0.24
1/21/2021 12:00:00 AM 0.82 33.476 0.203 7.1 187.31 0.24
1/21/2021 12:15:00 AM 0.81 33.458 0.203 7.1 190.15 0.24
1/21/2021 12:30:00 AM 0.79 33.422 0.204 7.09 194.36 0.24
1/21/2021 12:45:00 AM 0.78 33.404 0.204 7.09 197.42 0.24
1/21/2021 1:00:00 AM 0.75 33.35 0.203 7.09 196.51 0.24
1/21/2021 1:15:00 AM 0.73 33.314 0.202 7.08 202.92 0.24
1/21/2021 1:30:00 AM 0.7 33.26 0.202 7.07 210.91 0.24
1/21/2021 1:45:00 AM 0.67 33.206 0.202 7.07 217.62 0.24
1/21/2021 2:00:00 AM 0.65 33.17 0.201 7.06 222.89 0.24
1/21/2021 2:15:00 AM 0.62 33.116 0.201 7.06 231.81 0.24
1/21/2021 2:30:00 AM 0.59 33.062 0.2 7.06 233.42 0.24
1/21/2021 2:45:00 AM 0.57 33.026 0.199 7.06 235.32 0.24
1/21/2021 3:00:00 AM 0.55 32.99 0.199 7.06 234.64 0.24
1/21/2021 3:15:00 AM 0.53 32.954 0.199 7.06 232.24 0.24
1/21/2021 3:30:00 AM 0.51 32.918 0.198 7.06 231.39 0.24
1/21/2021 3:45:00 AM 0.48 32.864 0.198 7.05 240.2 0.24
1/21/2021 4:00:00 AM 0.46 32.828 0.198 7.05 244.26 0.24
1/21/2021 4:15:00 AM 0.44 32.792 0.198 7.05 243.66 0.24
1/21/2021 4:30:00 AM 0.41 32.738 0.198 7.05 247.47 0.24
1/21/2021 4:45:00 AM 0.39 32.702 0.198 7.05 248.83 0.24
1/21/2021 5:00:00 AM 0.38 32.684 0.197 7.04 249.22 0.24
1/21/2021 5:15:00 AM 0.37 32.666 0.196 7.04 244.4 0.24
1/21/2021 5:30:00 AM 0.36 32.648 0.196 7.04 247.81 0.24
1/21/2021 5:45:00 AM 0.35 32.63 0.195 7.03 246.89 0.24
1/21/2021 6:00:00 AM 0.34 32.612 0.195 7.03 246.74 0.24
1/21/2021 6:15:00 AM 0.34 32.612 0.194 7.03 248.43 0.24
1/21/2021 6:30:00 AM 0.33 32.594 0.194 7.02 249.74 0.24
1/21/2021 6:45:00 AM 0.33 32.594 0.193 7.02 250.53 0.24
1/21/2021 7:00:00 AM 0.33 32.594 0.193 7.01 252.93 0.24
1/21/2021 7:15:00 AM 0.33 32.594 0.192 7.01 252.05 0.24
1/21/2021 7:30:00 AM 0.32 32.576 0.192 7.01 249.99 0.24
1/21/2021 7:45:00 AM 0.32 32.576 0.192 7 248.7 0.24
1/21/2021 8:00:00 AM 0.31 32.558 0.191 6.99 248.85 0.24
1/21/2021 8:15:00 AM 0.31 32.558 0.191 6.99 247.74 0.24
1/21/2021 8:30:00 AM 0.31 32.558 0.19 6.98 246.69 0.24
1/21/2021 8:45:00 AM 0.31 32.558 0.189 6.98 245.03 0.24
1/21/2021 9:00:00 AM 0.31 32.558 0.189 6.97 242.88 0.24
1/21/2021 9:15:00 AM 0.31 32.558 0.188 6.97 242 0.24
1/21/2021 9:30:00 AM 0.31 32.558 0.187 6.96 241.07 0.24
1/21/2021 9:45:00 AM 0.31 32.558 0.187 6.95 236.99 0.24
1/21/2021 10:00:00 AM 0.32 32.576 0.186 6.95 233.62 0.24
1/21/2021 10:15:00 AM 0.33 32.594 0.184 6.95 230.82 0.24
1/21/2021 10:30:00 AM 0.34 32.612 0.183 6.94 226.8 0.24
1/21/2021 10:45:00 AM 0.36 32.648 0.181 6.94 215.89 0.24
1/21/2021 11:00:00 AM 0.39 32.702 0.18 6.93 206.12 0.24
1/21/2021 11:15:00 AM 0.41 32.738 0.178 6.93 200.77 0.24
1/21/2021 11:30:00 AM 0.44 32.792 0.176 6.93 196.89 0.24
1/21/2021 11:45:00 AM 0.45 32.81 0.173 6.93 195.02 0.24
1/21/2021 12:00:00 PM 0.47 32.846 0.171 6.92 193.92 0.24
1/21/2021 12:15:00 PM 0.49 32.882 0.208 7.01 136.59 2.59
1/21/2021 12:30:00 PM 0.52 32.936 0.207 7.03 138.73 0.38
1/21/2021 12:45:00 PM 0.54 32.972 0.207 7.02 139.19 0.26
1/21/2021 1:00:00 PM 0.56 33.008 0.206 7.02 136.66 0.24
1/21/2021 1:15:00 PM 0.58 33.044 0.206 7.02 136.42 0.24
1/21/2021 1:30:00 PM 0.61 33.098 0.205 7.01 136.68 0.24
1/21/2021 1:45:00 PM 0.63 33.134 0.205 7.01 135.71 0.24
1/21/2021 2:00:00 PM 0.65 33.17 0.205 7.01 134.86 0.24
1/21/2021 2:15:00 PM 0.67 33.206 0.205 7.01 133.92 0.24
1/21/2021 2:30:00 PM 0.68 33.224 0.204 7 134.46 0.24
1/21/2021 2:45:00 PM 0.69 33.242 0.204 7 134.82 0.24
1/21/2021 3:00:00 PM 0.71 33.278 0.203 6.99 135.09 0.24
1/21/2021 3:15:00 PM 0.72 33.296 0.203 6.99 136.01 0.24
1/21/2021 3:30:00 PM 0.73 33.314 0.202 6.98 137.21 0.24
1/21/2021 3:45:00 PM 0.74 33.332 0.202 6.98 137.86 0.24
1/21/2021 4:00:00 PM 0.74 33.332 0.202 6.98 138.33 0.24
1/21/2021 4:15:00 PM 0.74 33.332 0.201 6.97 138.89 0.24
1/21/2021 4:30:00 PM 0.74 33.332 0.201 6.97 139.09 0.24
1/21/2021 4:45:00 PM 0.73 33.314 0.201 6.97 140.27 0.24
1/21/2021 5:00:00 PM 0.72 33.296 0.2 6.97 140.79 0.24
1/21/2021 5:15:00 PM 0.71 33.278 0.2 6.96 142.78 0.24
1/21/2021 5:30:00 PM 0.7 33.26 0.2 6.96 143.51 0.24
1/21/2021 5:45:00 PM 0.68 33.224 0.2 6.96 137.09 0.24
1/21/2021 6:00:00 PM 0.67 33.206 0.199 6.96 137.14 0.24
1/21/2021 6:15:00 PM 0.66 33.188 0.199 6.96 139.4 0.24
1/21/2021 6:30:00 PM 0.65 33.17 0.199 6.96 141.84 0.24
1/21/2021 6:45:00 PM 0.64 33.152 0.199 6.96 142.88 0.24
1/21/2021 7:00:00 PM 0.63 33.134 0.199 6.96 144.17 0.24
1/21/2021 7:15:00 PM 0.62 33.116 0.199 6.96 144.61 0.24
1/21/2021 7:30:00 PM 0.61 33.098 0.199 6.96 145.56 0.24
1/21/2021 7:45:00 PM 0.6 33.08 0.199 6.96 145.96 0.24
1/21/2021 8:00:00 PM 0.6 33.08 0.199 6.96 146.18 0.24
1/21/2021 8:15:00 PM 0.59 33.062 0.199 6.96 147.68 0.24
1/21/2021 8:30:00 PM 0.59 33.062 0.199 6.96 149.52 0.24
1/21/2021 8:45:00 PM 0.59 33.062 0.199 6.96 150.45 0.24
1/21/2021 9:00:00 PM 0.58 33.044 0.199 6.96 152.32 0.24
1/21/2021 9:15:00 PM 0.58 33.044 0.199 6.96 152.14 0.24
1/21/2021 9:30:00 PM 0.58 33.044 0.199 6.96 154.34 0.24
1/21/2021 9:45:00 PM 0.59 33.062 0.199 6.96 153.79 0.24
1/21/2021 10:00:00 PM 0.59 33.062 0.199 6.96 154.78 0.24
1/21/2021 10:15:00 PM 0.59 33.062 0.199 6.96 156.63 0.24
1/21/2021 10:30:00 PM 0.61 33.098 0.199 6.96 159.52 0.24
1/21/2021 10:45:00 PM 0.62 33.116 0.199 6.97 160.55 0.24
1/21/2021 11:00:00 PM 0.64 33.152 0.199 6.97 161.63 0.24
1/21/2021 11:15:00 PM 0.62 33.116 0.199 6.97 161.82 0.24
1/21/2021 11:30:00 PM 0.61 33.098 0.199 6.97 162.92 0.24
1/21/2021 11:45:00 PM 0.61 33.098 0.199 6.97 163.3 0.24
1/22/2021 12:00:00 AM 0.61 33.098 0.199 6.98 164.92 0.24
1/22/2021 12:15:00 AM 0.6 33.08 0.199 6.98 163.38 0.24
1/22/2021 12:30:00 AM 0.6 33.08 0.199 6.98 161.65 0.24
1/22/2021 12:45:00 AM 0.59 33.062 0.199 6.98 162.16 0.24
1/22/2021 1:00:00 AM 0.59 33.062 0.199 6.98 161.24 0.24
1/22/2021 1:15:00 AM 0.59 33.062 0.199 6.98 161.99 0.24
1/22/2021 1:30:00 AM 0.58 33.044 0.199 6.98 162.49 0.24
1/22/2021 1:45:00 AM 0.58 33.044 0.199 6.98 163.57 0.24
1/22/2021 2:00:00 AM 0.58 33.044 0.199 6.98 163.63 0.24
1/22/2021 2:15:00 AM 0.58 33.044 0.199 6.98 163.37 0.24
1/22/2021 2:30:00 AM 0.58 33.044 0.199 6.98 163.42 0.24
1/22/2021 2:45:00 AM 0.59 33.062 0.199 6.98 164.07 0.24
1/22/2021 3:00:00 AM 0.59 33.062 0.199 6.98 165.41 0.24
1/22/2021 3:15:00 AM 0.59 33.062 0.199 6.98 165.43 0.24
1/22/2021 3:30:00 AM 0.6 33.08 0.199 6.98 168.41 0.24
1/22/2021 3:45:00 AM 0.6 33.08 0.198 6.98 170.38 0.24
1/22/2021 4:00:00 AM 0.61 33.098 0.198 6.99 171.21 0.24
1/22/2021 4:15:00 AM 0.61 33.098 0.198 6.99 173.55 0.24
1/22/2021 4:30:00 AM 0.62 33.116 0.197 6.99 176.03 0.24
1/22/2021 4:45:00 AM 0.63 33.134 0.197 6.99 175.81 0.24
1/22/2021 5:00:00 AM 0.63 33.134 0.196 6.99 179.28 0.24
1/22/2021 5:15:00 AM 0.64 33.152 0.196 6.99 181.09 0.24
1/22/2021 5:30:00 AM 0.64 33.152 0.195 6.99 184.58 0.24
1/22/2021 5:45:00 AM 0.65 33.17 0.194 6.99 186.93 0.24
1/22/2021 6:00:00 AM 0.65 33.17 0.193 6.99 189.57 0.24
1/22/2021 6:15:00 AM 0.65 33.17 0.192 6.99 187.35 0.24
1/22/2021 6:30:00 AM 0.65 33.17 0.192 6.99 191.29 0.24
1/22/2021 6:45:00 AM 0.65 33.17 0.191 6.99 195.16 0.24
1/22/2021 7:00:00 AM 0.65 33.17 0.189 7 199.14 0.24
1/22/2021 7:15:00 AM 0.64 33.152 0.188 7 202.2 0.24
1/22/2021 7:30:00 AM 0.64 33.152 0.186 7 202.73 0.24
1/22/2021 7:45:00 AM 0.63 33.134 0.184 7 207.77 0.24
1/22/2021 8:00:00 AM 0.63 33.134 0.182 7.01 209.21 0.24
1/22/2021 8:15:00 AM 0.63 33.134 0.227 7.12 133.25 0.26
1/22/2021 8:30:00 AM 0.63 33.134 0.225 7.11 134.33 0.24
1/22/2021 8:45:00 AM 0.64 33.152 0.224 7.09 134.11 0.24
1/22/2021 9:00:00 AM 0.64 33.152 0.222 7.08 134.64 0.24
1/22/2021 9:15:00 AM 0.65 33.17 0.22 7.09 135.73 0.24
1/22/2021 9:30:00 AM 0.66 33.188 0.217 7.09 135.48 0.24
1/22/2021 9:45:00 AM 0.67 33.206 0.215 7.09 135.37 0.24
1/22/2021 10:00:00 AM 0.69 33.242 0.214 7.09 135.6 0.24
1/22/2021 10:15:00 AM 0.7 33.26 0.212 7.09 135.73 0.24
1/22/2021 10:30:00 AM 0.72 33.296 0.21 7.09 135.29 0.24
1/22/2021 10:45:00 AM 0.74 33.332 0.209 7.09 134.81 0.24
1/22/2021 11:00:00 AM 0.76 33.368 0.207 7.08 134.26 0.24
1/22/2021 11:15:00 AM 0.79 33.422 0.206 7.08 134.07 0.24
1/22/2021 11:30:00 AM 0.82 33.476 0.204 7.08 133.58 0.24
1/22/2021 11:45:00 AM 0.84 33.512 0.202 7.08 132.82 0.24
1/22/2021 12:00:00 PM 0.87 33.566 0.201 7.08 132.41 0.24
1/22/2021 12:15:00 PM 0.88 33.584 0.199 7.08 131.63 0.24
1/22/2021 12:30:00 PM 0.91 33.638 0.198 7.08 131.21 0.24
1/22/2021 12:45:00 PM 0.92 33.656 0.195 7.08 131.03 0.24
1/22/2021 1:00:00 PM 0.94 33.692 0.193 7.08 130.46 0.23
1/22/2021 1:15:00 PM 0.97 33.746 0.19 7.08 130.18 0.23
1/22/2021 1:30:00 PM 1.01 33.818 0.187 7.08 130.4 0.23
1/22/2021 1:45:00 PM 1.03 33.854 0.185 7.08 130.17 0.23
1/22/2021 2:00:00 PM 1.05 33.89 0.183 7.08 129.67 0.24
1/22/2021 2:15:00 PM 1.05 33.89 0.181 7.08 129.43 0.24
1/22/2021 2:30:00 PM 1.05 33.89 0.179 7.08 129.36 0.24
1/22/2021 2:45:00 PM 1.06 33.908 0.177 7.08 129.46 0.23
1/22/2021 3:00:00 PM 1.05 33.89 0.212 7.17 135.64 1.28
1/22/2021 3:15:00 PM 1.04 33.872 0.209 7.12 156.67 0.24
1/22/2021 3:30:00 PM 1.03 33.854 0.206 7.1 172.67 0.23
1/22/2021 3:45:00 PM 1.01 33.818 0.206 7.08 181.33 0.23
1/22/2021 4:00:00 PM 0.99 33.782 0.205 7.08 172.15 0.23
1/22/2021 4:15:00 PM 0.96 33.728 0.203 7.07 175.99 0.24
1/22/2021 4:30:00 PM 0.93 33.674 0.201 7.07 199.2 0.24
1/22/2021 4:45:00 PM 0.9 33.62 0.198 7.06 224.35 0.24
1/22/2021 5:00:00 PM 0.87 33.566 0.196 7.06 238.13 0.24
1/22/2021 5:15:00 PM 0.84 33.512 0.193 7.06 235.09 0.24
1/22/2021 5:30:00 PM 0.81 33.458 0.19 7.06 221.98 0.24
1/22/2021 5:45:00 PM 0.78 33.404 0.188 7.06 210.91 0.24
1/22/2021 6:00:00 PM 0.75 33.35 0.185 7.05 245.1 0.24
1/22/2021 6:15:00 PM 0.72 33.296 0.181 7.06 223.64 0.24
1/22/2021 6:30:00 PM 0.69 33.242 0.177 7.06 228.49 0.24
1/22/2021 6:45:00 PM 0.65 33.17 0.213 7.19 145.53 2.13
1/22/2021 7:00:00 PM 0.63 33.134 0.213 7.14 134.81 0.3
1/22/2021 7:15:00 PM 0.6 33.08 0.212 7.12 131.89 0.24
1/22/2021 7:30:00 PM 0.57 33.026 0.21 7.1 130.55 0.24
1/22/2021 7:45:00 PM 0.54 32.972 0.209 7.09 129.56 0.24
1/22/2021 8:00:00 PM 0.52 32.936 0.208 7.08 129.44 0.24
1/22/2021 8:15:00 PM 0.49 32.882 0.207 7.07 129.25 0.24
1/22/2021 8:30:00 PM 0.47 32.846 0.206 7.06 130.76 0.24
1/22/2021 8:45:00 PM 0.45 32.81 0.205 7.06 131.43 0.24
1/22/2021 9:00:00 PM 0.43 32.774 0.203 7.06 132.54 0.24
1/22/2021 9:15:00 PM 0.41 32.738 0.202 7.06 133.98 0.24
1/22/2021 9:30:00 PM 0.39 32.702 0.201 7.06 139.12 0.24
1/22/2021 9:45:00 PM 0.37 32.666 0.199 7.06 146.68 0.24
1/22/2021 10:00:00 PM 0.35 32.63 0.198 7.06 158.73 0.24
1/22/2021 10:15:00 PM 0.33 32.594 0.196 7.06 173.97 0.24
1/22/2021 10:30:00 PM 0.34 32.612 0.195 7.07 183.56 0.24
1/22/2021 10:45:00 PM 0.31 32.558 0.193 7.07 194.76 0.24
1/22/2021 11:00:00 PM 0.28 32.504 0.191 7.07 206.99 0.24
1/22/2021 11:15:00 PM 0.26 32.468 0.19 7.07 219.16 0.24
1/22/2021 11:30:00 PM 0.24 32.432 0.188 7.07 231.21 0.24
1/22/2021 11:45:00 PM 0.22 32.396 0.184 7.07 236.58 0.24
1/23/2021 12:00:00 AM 0.2 32.36 0.179 7.07 225.72 0.24
1/23/2021 12:15:00 AM 0.17 32.306 0.176 7.07 209.46 0.24
1/23/2021 12:30:00 AM 0.15 32.27 0.173 7.07 197.69 0.24
1/23/2021 12:45:00 AM 0.12 32.216 0.219 7.13 151.87 1.06
1/23/2021 1:00:00 AM 0.1 32.18 0.217 7.09 154.83 0.25
1/23/2021 1:15:00 AM 0.07 32.126 0.215 7.08 163.69 0.24
1/23/2021 1:30:00 AM 0.04 32.072 0.213 7.08 163.3 0.24
1/23/2021 1:45:00 AM 0.02 32.036 0.212 7.07 165.3 0.24
1/23/2021 2:00:00 AM 0 32 0.211 7.08 171.58 0.24
1/23/2021 2:15:00 AM -0.02 31.964 0.21 7.08 176.73 0.24
1/23/2021 2:30:00 AM -0.03 31.946 0.209 7.08 181.47 0.24
1/23/2021 2:45:00 AM -0.03 31.946 0.209 7.08 188.77 0.24
1/23/2021 3:00:00 AM -0.04 31.928 0.208 7.08 180.98 0.24
1/23/2021 3:15:00 AM -0.04 31.928 0.208 7.08 187.35 0.24
1/23/2021 3:30:00 AM -0.04 31.928 0.208 7.09 193.64 0.24
1/23/2021 3:45:00 AM -0.04 31.928 0.208 7.09 198.47 0.24
1/23/2021 4:00:00 AM -0.05 31.91 0.207 7.09 202.33 0.24
1/23/2021 4:15:00 AM -0.05 31.91 0.206 7.1 208.3 0.24
1/23/2021 4:30:00 AM -0.05 31.91 0.206 7.1 215.2 0.24
1/23/2021 4:45:00 AM -0.05 31.91 0.205 7.1 226.61 0.24
1/23/2021 5:00:00 AM -0.06 31.892 0.205 7.11 231.1 0.24
1/23/2021 5:15:00 AM -0.06 31.892 0.205 7.11 235.12 0.24
1/23/2021 5:30:00 AM -0.07 31.874 0.204 7.11 238.13 0.24
1/23/2021 5:45:00 AM -0.07 31.874 0.204 7.12 239.35 0.24
1/23/2021 6:00:00 AM -0.07 31.874 0.204 7.12 242.97 0.24
1/23/2021 6:15:00 AM -0.08 31.856 0.203 7.12 245.7 0.24
1/23/2021 6:30:00 AM -0.07 31.874 0.203 7.12 248.64 0.24
1/23/2021 6:45:00 AM -0.07 31.874 0.203 7.12 250.23 0.24
1/23/2021 7:00:00 AM -0.06 31.892 0.202 7.13 248.71 0.24
1/23/2021 7:15:00 AM -0.06 31.892 0.202 7.13 250.53 0.24
1/23/2021 7:30:00 AM -0.06 31.892 0.201 7.13 251.49 0.24
1/23/2021 7:45:00 AM -0.05 31.91 0.201 7.13 252.32 0.24
1/23/2021 8:00:00 AM -0.05 31.91 0.201 7.13 253.85 0.24
1/23/2021 8:15:00 AM -0.05 31.91 0.201 7.13 261.44 0.24
1/23/2021 8:30:00 AM -0.06 31.892 0.201 7.13 262.01 0.24
1/23/2021 8:45:00 AM -0.06 31.892 0.2 7.14 266.04 0.24
1/23/2021 9:00:00 AM -0.06 31.892 0.2 7.14 268.33 0.24
1/23/2021 9:15:00 AM -0.06 31.892 0.2 7.14 269.46 0.24
1/23/2021 9:30:00 AM -0.06 31.892 0.2 7.14 270.73 0.24
1/23/2021 9:45:00 AM -0.07 31.874 0.2 7.14 273.85 0.24
1/23/2021 10:00:00 AM -0.07 31.874 0.2 7.14 275.13 0.24
1/23/2021 10:15:00 AM -0.07 31.874 0.2 7.15 277.52 0.24
1/23/2021 10:30:00 AM -0.06 31.892 0.2 7.15 279.48 0.24
1/23/2021 10:45:00 AM -0.06 31.892 0.199 7.15 277.61 0.24
1/23/2021 11:00:00 AM -0.06 31.892 0.199 7.15 277.78 0.24
1/23/2021 11:15:00 AM -0.05 31.91 0.199 7.15 277.73 0.24
1/23/2021 11:30:00 AM -0.05 31.91 0.199 7.15 276.94 0.24
1/23/2021 11:45:00 AM -0.04 31.928 0.199 7.15 276.64 0.24
1/23/2021 12:00:00 PM -0.04 31.928 0.199 7.15 277.47 0.24
1/23/2021 12:15:00 PM -0.04 31.928 0.199 7.16 278.74 0.24
1/23/2021 12:30:00 PM -0.03 31.946 0.199 7.16 278.63 0.24
1/23/2021 12:45:00 PM -0.01 31.982 0.198 7.16 280.16 0.24
1/23/2021 1:00:00 PM 0.01 32.018 0.198 7.16 281.95 0.24
1/23/2021 1:15:00 PM 0.03 32.054 0.198 7.16 282.46 0.24
1/23/2021 1:30:00 PM 0.04 32.072 0.198 7.16 279.63 0.24
1/23/2021 1:45:00 PM 0.07 32.126 0.198 7.17 279.81 0.24
1/23/2021 2:00:00 PM 0.11 32.198 0.198 7.17 281.57 0.24
1/23/2021 2:15:00 PM 0.15 32.27 0.198 7.17 282.65 0.24
1/23/2021 2:30:00 PM 0.19 32.342 0.198 7.17 283.34 0.24
1/23/2021 2:45:00 PM 0.2 32.36 0.198 7.17 285 0.24
1/23/2021 3:00:00 PM 0.21 32.378 0.198 7.17 287.05 0.24
1/23/2021 3:15:00 PM 0.23 32.414 0.198 7.17 286.92 0.24
1/23/2021 3:30:00 PM 0.23 32.414 0.198 7.17 287.85 0.24
1/23/2021 3:45:00 PM 0.22 32.396 0.198 7.17 289.55 0.24
1/23/2021 4:00:00 PM 0.19 32.342 0.198 7.17 288.91 0.24
1/23/2021 4:15:00 PM 0.15 32.27 0.198 7.17 288 0.24
1/23/2021 4:30:00 PM 0.11 32.198 0.198 7.17 287.31 0.24
1/23/2021 4:45:00 PM 0.08 32.144 0.198 7.17 288 0.24
1/23/2021 5:00:00 PM 0.05 32.09 0.197 7.17 288.25 0.24
1/23/2021 5:15:00 PM 0.02 32.036 0.197 7.17 288.84 0.24
1/23/2021 5:30:00 PM -0.01 31.982 0.197 7.17 290.2 0.24
1/23/2021 5:45:00 PM -0.03 31.946 0.197 7.18 290.64 0.24
1/23/2021 6:00:00 PM -0.05 31.91 0.196 7.18 288.84 0.24
1/23/2021 6:15:00 PM -0.05 31.91 0.196 7.18 286.44 0.24
1/23/2021 6:30:00 PM -0.05 31.91 0.196 7.18 285.36 0.24
1/23/2021 6:45:00 PM -0.05 31.91 0.195 7.18 282.57 0.24
1/23/2021 7:00:00 PM -0.05 31.91 0.195 7.18 264.85 0.24
1/23/2021 7:15:00 PM -0.04 31.928 0.195 7.19 267.15 0.24
1/23/2021 7:30:00 PM -0.04 31.928 0.194 7.19 272.61 0.24
1/23/2021 7:45:00 PM -0.04 31.928 0.194 7.19 296.2 0.24
1/23/2021 8:00:00 PM -0.05 31.91 0.194 7.19 284.68 0.24
1/23/2021 8:15:00 PM -0.05 31.91 0.193 7.2 280.9 0.24
1/23/2021 8:30:00 PM -0.05 31.91 0.192 7.2 244.38 0.24
1/23/2021 8:45:00 PM -0.02 31.964 0.192 7.2 221.41 0.25
1/23/2021 9:00:00 PM -0.03 31.946 0.191 7.2 215.71 0.24
1/23/2021 9:15:00 PM -0.04 31.928 0.191 7.2 218.12 0.24
1/23/2021 9:30:00 PM -0.05 31.91 0.19 7.21 220.12 0.24
1/23/2021 9:45:00 PM -0.05 31.91 0.189 7.21 208.32 0.25
1/23/2021 10:00:00 PM -0.05 31.91 0.189 7.21 319.78 0.24
1/23/2021 10:15:00 PM -0.05 31.91 0.188 7.21 286.48 0.24
1/23/2021 10:30:00 PM -0.05 31.91 0.188 7.21 261.21 0.24
1/23/2021 10:45:00 PM -0.05 31.91 0.187 7.21 255.68 0.24
1/23/2021 11:00:00 PM -0.05 31.91 0.187 7.21 239.89 0.24
1/23/2021 11:15:00 PM -0.05 31.91 0.187 7.22 235.5 0.24
1/23/2021 11:30:00 PM -0.05 31.91 0.187 7.22 230.56 0.24
1/23/2021 11:45:00 PM -0.05 31.91 0.223 7.23 149.44 0.39
1/24/2021 12:00:00 AM -0.05 31.91 0.22 7.21 154.92 0.24
1/24/2021 12:15:00 AM -0.05 31.91 0.219 7.2 155.44 0.24
1/24/2021 12:30:00 AM -0.05 31.91 0.217 7.21 156.16 0.24
1/24/2021 12:45:00 AM -0.04 31.928 0.216 7.21 155.25 0.24
1/24/2021 1:00:00 AM -0.04 31.928 0.215 7.21 160.68 0.24
1/24/2021 1:15:00 AM -0.04 31.928 0.214 7.21 167.59 0.24
1/24/2021 1:30:00 AM -0.04 31.928 0.213 7.21 170.23 0.24
1/24/2021 1:45:00 AM -0.04 31.928 0.212 7.21 174.16 0.24
1/24/2021 2:00:00 AM -0.04 31.928 0.211 7.21 176.99 0.24
1/24/2021 2:15:00 AM -0.04 31.928 0.21 7.21 178.85 0.24
1/24/2021 2:30:00 AM -0.03 31.946 0.209 7.21 180.69 0.24
1/24/2021 2:45:00 AM -0.03 31.946 0.209 7.21 179.76 0.24
1/24/2021 3:00:00 AM -0.03 31.946 0.208 7.21 171.02 0.24
1/24/2021 3:15:00 AM -0.02 31.964 0.208 7.21 172.91 0.24
1/24/2021 3:30:00 AM 0.11 32.198 0.207 7.21 175.34 0.24
1/24/2021 3:45:00 AM 0.09 32.162 0.206 7.21 171.83 0.24
1/24/2021 4:00:00 AM 0.04 32.072 0.206 7.21 179.25 0.24
1/24/2021 4:15:00 AM 0.01 32.018 0.205 7.21 176.7 0.24
1/24/2021 4:30:00 AM -0.01 31.982 0.205 7.21 169.72 0.24
1/24/2021 4:45:00 AM -0.02 31.964 0.204 7.21 178.18 0.24
1/24/2021 5:00:00 AM -0.03 31.946 0.204 7.21 175.62 0.24
1/24/2021 5:15:00 AM -0.03 31.946 0.203 7.21 173.67 0.24
1/24/2021 5:30:00 AM -0.03 31.946 0.203 7.21 171.64 0.24
1/24/2021 5:45:00 AM -0.03 31.946 0.203 7.21 170.15 0.24
1/24/2021 6:00:00 AM -0.04 31.928 0.202 7.21 168.65 0.24
1/24/2021 6:15:00 AM -0.03 31.946 0.202 7.21 171.18 0.24
1/24/2021 6:30:00 AM -0.03 31.946 0.202 7.21 173.66 0.24
1/24/2021 6:45:00 AM -0.03 31.946 0.202 7.21 177.1 0.24
1/24/2021 7:00:00 AM -0.03 31.946 0.201 7.21 180.23 0.24
1/24/2021 7:15:00 AM -0.03 31.946 0.201 7.21 180.6 0.24
1/24/2021 7:30:00 AM -0.03 31.946 0.201 7.21 182.52 0.24
1/24/2021 7:45:00 AM -0.03 31.946 0.201 7.21 185.39 0.24
1/24/2021 8:00:00 AM -0.02 31.964 0.201 7.21 193.21 0.24
1/24/2021 8:15:00 AM -0.02 31.964 0.2 7.21 203.1 0.24
1/24/2021 8:30:00 AM -0.02 31.964 0.2 7.21 211.44 0.24
1/24/2021 8:45:00 AM -0.02 31.964 0.2 7.21 221.03 0.24
1/24/2021 9:00:00 AM -0.02 31.964 0.2 7.21 234.45 0.24
1/24/2021 9:15:00 AM -0.02 31.964 0.2 7.21 244.82 0.24
1/24/2021 9:30:00 AM -0.02 31.964 0.199 7.21 248.31 0.24
1/24/2021 9:45:00 AM -0.02 31.964 0.199 7.21 252.2 0.24
1/24/2021 10:00:00 AM -0.02 31.964 0.199 7.2 261.38 0.24
1/24/2021 10:15:00 AM -0.02 31.964 0.199 7.2 274.03 0.24
1/24/2021 10:30:00 AM -0.02 31.964 0.199 7.2 290.33 0.24
1/24/2021 10:45:00 AM -0.02 31.964 0.199 7.2 310.65 0.24
1/24/2021 11:00:00 AM -0.01 31.982 0.199 7.2 327.01 0.24
1/24/2021 11:15:00 AM -0.01 31.982 0.199 7.2 337.67 0.24
1/24/2021 11:30:00 AM -0.01 31.982 0.199 7.2 348.73 0.24
1/24/2021 11:45:00 AM -0.01 31.982 0.199 7.21 362.87 0.24
1/24/2021 12:00:00 PM 0 32 0.199 7.21 372.93 0.24
1/24/2021 12:15:00 PM 0.02 32.036 0.199 7.21 381.42 0.24
1/24/2021 12:30:00 PM 0.04 32.072 0.199 7.21 386.48 0.24
1/24/2021 12:45:00 PM 0.03 32.054 0.199 7.21 393.73 0.24
1/24/2021 1:00:00 PM 0.03 32.054 0.198 7.21 399.12 0.24
1/24/2021 1:15:00 PM 0.04 32.072 0.198 7.21 433.17 0.24
1/24/2021 1:30:00 PM 0.05 32.09 0.198 7.21 455.15 0.24
1/24/2021 1:45:00 PM 0.07 32.126 0.198 7.21 520.26 0.24
1/24/2021 2:00:00 PM 0.09 32.162 0.198 7.21 577.07 0.24
1/24/2021 2:15:00 PM 0.11 32.198 0.197 7.21 628.24 0.24
1/24/2021 2:30:00 PM 0.11 32.198 0.197 7.21 687.58 0.24
1/24/2021 2:45:00 PM 0.1 32.18 0.197 7.22 742 0.24
1/24/2021 3:00:00 PM 0.09 32.162 0.196 7.22 786.22 0.24
1/24/2021 3:15:00 PM 0.08 32.144 0.196 7.22 831.19 0.24
1/24/2021 3:30:00 PM 0.07 32.126 0.196 7.22 849.05 0.24
1/24/2021 3:45:00 PM 0.07 32.126 0.195 7.22 792.86 0.24
1/24/2021 4:00:00 PM 0.06 32.108 0.195 7.22 783.44 0.24
1/24/2021 4:15:00 PM 0.06 32.108 0.195 7.22 741.73 0.24
1/24/2021 4:30:00 PM 0.06 32.108 0.195 7.22 929.82 0.24
1/24/2021 4:45:00 PM 0.05 32.09 0.194 7.22 896.71 0.24
1/24/2021 5:00:00 PM 0.04 32.072 0.194 7.22 876.45 0.24
1/24/2021 5:15:00 PM 0.03 32.054 0.194 7.22 830.35 0.24
1/24/2021 5:30:00 PM 0.01 32.018 0.193 7.22 573.32 0.24
1/24/2021 5:45:00 PM -0.01 31.982 0.193 7.22 528 0.24
1/24/2021 6:00:00 PM -0.02 31.964 0.193 7.23 479.74 0.24
1/24/2021 6:15:00 PM -0.04 31.928 0.193 7.23 454.38 0.24
1/24/2021 6:30:00 PM -0.06 31.892 0.192 7.23 439.04 0.24
1/24/2021 6:45:00 PM 0 32 0.192 7.23 390 0.24
1/24/2021 7:00:00 PM 0.01 32.018 0.192 7.23 365.07 0.24
1/24/2021 7:15:00 PM -0.04 31.928 0.192 7.23 354.97 0.24
1/24/2021 7:30:00 PM -0.06 31.892 0.191 7.23 336.66 0.24
1/24/2021 7:45:00 PM -0.07 31.874 0.191 7.23 301.58 0.24
1/24/2021 8:00:00 PM -0.07 31.874 0.191 7.23 270.37 0.24
1/24/2021 8:15:00 PM -0.07 31.874 0.191 7.23 271.05 0.24
1/24/2021 8:30:00 PM -0.07 31.874 0.191 7.23 285.91 0.24
1/24/2021 8:45:00 PM -0.07 31.874 0.191 7.23 276.29 0.24
1/24/2021 9:00:00 PM -0.07 31.874 0.191 7.23 272.04 0.24
1/24/2021 9:15:00 PM -0.07 31.874 0.191 7.23 254.11 0.24
1/24/2021 9:30:00 PM -0.07 31.874 0.191 7.23 245.44 0.24
1/24/2021 9:45:00 PM -0.07 31.874 0.192 7.23 286.7 0.24
1/24/2021 10:00:00 PM -0.07 31.874 0.193 7.23 635.42 0.24
1/24/2021 10:15:00 PM -0.07 31.874 0.196 7.23 691.29 0.24
1/24/2021 10:30:00 PM -0.07 31.874 0.224 7.28 103.6 0.54
1/24/2021 10:45:00 PM -0.07 31.874 0.222 7.2 103.16 0.34
1/24/2021 11:00:00 PM -0.07 31.874 0.221 7.19 103.11 0.33
1/24/2021 11:15:00 PM -0.07 31.874 0.22 7.19 103.3 0.28
1/24/2021 11:30:00 PM -0.07 31.874 0.219 7.18 103.05 0.26
1/24/2021 11:45:00 PM -0.07 31.874 0.219 7.18 102.89 0.26
1/25/2021 12:00:00 AM -0.07 31.874 0.218 7.18 103.42 0.33
1/25/2021 12:15:00 AM -0.07 31.874 0.218 7.18 103.36 0.3
1/25/2021 12:30:00 AM -0.07 31.874 0.218 7.18 103.28 0.26
1/25/2021 12:45:00 AM -0.07 31.874 0.217 7.17 102.96 0.27
1/25/2021 1:00:00 AM -0.07 31.874 0.216 7.17 102.5 0.25
1/25/2021 1:15:00 AM -0.07 31.874 0.216 7.17 102.81 0.24
1/25/2021 1:30:00 AM -0.07 31.874 0.215 7.17 102.3 0.24
1/25/2021 1:45:00 AM -0.07 31.874 0.214 7.17 103.23 0.24
1/25/2021 2:00:00 AM -0.07 31.874 0.214 7.18 103.45 0.24
1/25/2021 2:15:00 AM -0.07 31.874 0.214 7.17 103.04 0.24
1/25/2021 2:30:00 AM -0.07 31.874 0.214 7.17 103.26 0.24
1/25/2021 2:45:00 AM -0.07 31.874 0.215 7.17 102.95 0.24
1/25/2021 3:00:00 AM -0.07 31.874 0.214 7.17 103.63 0.24
1/25/2021 3:15:00 AM -0.07 31.874 0.214 7.18 103.77 0.24
1/25/2021 3:30:00 AM -0.07 31.874 0.214 7.17 103.35 0.24
1/25/2021 3:45:00 AM -0.07 31.874 0.215 7.17 103.67 0.24
1/25/2021 4:00:00 AM -0.07 31.874 0.215 7.17 103.54 0.24
1/25/2021 4:15:00 AM -0.07 31.874 0.216 7.17 103.61 0.24
1/25/2021 4:30:00 AM -0.07 31.874 0.216 7.17 103.65 0.24
1/25/2021 4:45:00 AM -0.07 31.874 0.216 7.17 104.03 0.24
1/25/2021 5:00:00 AM -0.07 31.874 0.216 7.17 104.48 0.24
1/25/2021 5:15:00 AM -0.07 31.874 0.216 7.17 104.43 0.24
1/25/2021 5:30:00 AM -0.07 31.874 0.217 7.17 104.56 0.24
1/25/2021 5:45:00 AM -0.07 31.874 0.218 7.17 104.43 0.24
1/25/2021 6:00:00 AM -0.07 31.874 0.219 7.17 105.7 0.24
1/25/2021 6:15:00 AM -0.07 31.874 0.22 7.17 106.32 0.24
1/25/2021 6:30:00 AM -0.07 31.874 0.22 7.17 107.01 0.24
1/25/2021 6:45:00 AM -0.07 31.874 0.221 7.17 109.74 0.24
1/25/2021 7:00:00 AM -0.07 31.874 0.22 7.16 118.42 0.24
1/25/2021 7:15:00 AM -0.07 31.874 0.221 7.16 131.75 0.24
1/25/2021 7:30:00 AM -0.07 31.874 0.219 7.16 142.13 0.24
1/25/2021 7:45:00 AM -0.07 31.874 0.217 7.16 147.76 0.24
1/25/2021 8:00:00 AM -0.06 31.892 0.225 7.21 108.62 2.29
1/25/2021 8:15:00 AM -0.06 31.892 0.224 7.16 110.22 1.22
1/25/2021 8:30:00 AM -0.06 31.892 0.223 7.15 112.08 1
1/25/2021 8:45:00 AM -0.06 31.892 0.222 7.15 112.5 0.91
1/25/2021 9:00:00 AM -0.06 31.892 0.222 7.15 113.53 0.78
1/25/2021 9:15:00 AM -0.06 31.892 0.221 7.14 114.23 0.68
1/25/2021 9:30:00 AM -0.06 31.892 0.219 7.14 116.76 0.58
1/25/2021 9:45:00 AM -0.06 31.892 0.218 7.14 118.38 0.47
1/25/2021 10:00:00 AM -0.06 31.892 0.216 7.13 120.48 0.4
1/25/2021 10:15:00 AM -0.06 31.892 0.214 7.13 124.7 0.35
1/25/2021 10:30:00 AM -0.05 31.91 0.213 7.13 130.6 0.32
1/25/2021 10:45:00 AM -0.05 31.91 0.211 7.13 138.48 0.3
1/25/2021 11:00:00 AM -0.05 31.91 0.209 7.13 147.63 0.27
1/25/2021 11:15:00 AM -0.04 31.928 0.207 7.13 158.13 0.26
1/25/2021 11:30:00 AM -0.04 31.928 0.206 7.12 164.83 0.25
1/25/2021 11:45:00 AM -0.03 31.946 0.203 7.12 172.44 0.25
1/25/2021 12:00:00 PM -0.02 31.964 0.201 7.12 176.57 0.25
1/25/2021 12:15:00 PM 0 32 0.198 7.13 178.32 0.24
1/25/2021 12:30:00 PM 0.01 32.018 0.194 7.12 187.52 0.24
1/25/2021 12:45:00 PM 0.03 32.054 0.187 7.12 196.26 0.24
1/25/2021 1:00:00 PM 0.05 32.09 0.23 7.2 106.15 3.14
1/25/2021 1:15:00 PM 0.08 32.144 0.227 7.16 105.72 2.13
1/25/2021 1:30:00 PM 0.1 32.18 0.225 7.17 105.08 2.56
1/25/2021 1:45:00 PM 0.11 32.198 0.223 7.17 104.69 1.82
1/25/2021 2:00:00 PM 0.13 32.234 0.22 7.17 104.85 1.51
1/25/2021 2:15:00 PM 0.14 32.252 0.219 7.17 105.01 1.39
1/25/2021 2:30:00 PM 0.15 32.27 0.217 7.17 104.93 1.63
1/25/2021 2:45:00 PM 0.16 32.288 0.214 7.17 105.34 1.86
1/25/2021 3:00:00 PM 0.17 32.306 0.213 7.17 106.26 1.89
1/25/2021 3:15:00 PM 0.19 32.342 0.211 7.15 106.94 1.86
1/25/2021 3:30:00 PM 0.2 32.36 0.21 7.15 107.91 2.11
1/25/2021 3:45:00 PM 0.22 32.396 0.209 7.16 108.24 2.14
1/25/2021 4:00:00 PM 0.24 32.432 0.208 7.16 108.57 2.11
1/25/2021 4:15:00 PM 0.26 32.468 0.208 7.16 108.9 2.09
1/25/2021 4:30:00 PM 0.27 32.486 0.208 7.15 108.6 2.4
1/25/2021 4:45:00 PM 0.28 32.504 0.208 7.15 108.99 2.26
1/25/2021 5:00:00 PM 0.29 32.522 0.208 7.15 109.15 1.8
1/25/2021 5:15:00 PM 0.3 32.54 0.208 7.15 109.14 1.88
1/25/2021 5:30:00 PM 0.3 32.54 0.208 7.15 109.11 2.33
1/25/2021 5:45:00 PM 0.29 32.522 0.209 7.14 109.27 1.78
1/25/2021 6:00:00 PM 0.28 32.504 0.209 7.13 109.3 1.57
1/25/2021 6:15:00 PM 0.27 32.486 0.21 7.13 109.64 1.76
1/25/2021 6:30:00 PM 0.26 32.468 0.21 7.13 110.03 1.97
1/25/2021 6:45:00 PM 0.24 32.432 0.21 7.13 110.22 2.14
1/25/2021 7:00:00 PM 0.21 32.378 0.211 7.13 110.53 2.17
1/25/2021 7:15:00 PM 0.18 32.324 0.211 7.13 110.74 2.47
1/25/2021 7:30:00 PM 0.15 32.27 0.212 7.13 111.03 2.48
1/25/2021 7:45:00 PM 0.12 32.216 0.212 7.13 110.7 2.78
1/25/2021 8:00:00 PM 0.1 32.18 0.213 7.13 110.88 4.06
1/25/2021 8:15:00 PM 0.07 32.126 0.213 7.13 111.33 5.56
1/25/2021 8:30:00 PM 0.05 32.09 0.213 7.13 111.89 6.4
1/25/2021 8:45:00 PM 0.03 32.054 0.214 7.12 111.91 6.68
1/25/2021 9:00:00 PM 0.02 32.036 0.214 7.13 111.79 6.81
1/25/2021 9:15:00 PM 0 32 0.215 7.12 112.17 6.62
1/25/2021 9:30:00 PM -0.01 31.982 0.216 7.12 112.83 8.28
1/25/2021 9:45:00 PM -0.02 31.964 0.216 7.12 113.24 8.94
1/25/2021 10:00:00 PM -0.04 31.928 0.216 7.12 113.21 9.03
1/25/2021 10:15:00 PM -0.05 31.91 0.217 7.12 112.6 7.75
1/25/2021 10:30:00 PM -0.03 31.946 0.218 7.12 112.78 6.67
1/25/2021 10:45:00 PM -0.05 31.91 0.218 7.12 112.89 5.66
1/25/2021 11:00:00 PM -0.06 31.892 0.218 7.12 113.54 4.87
1/25/2021 11:15:00 PM -0.07 31.874 0.219 7.12 113.48 4.31
1/25/2021 11:30:00 PM -0.08 31.856 0.219 7.12 113.65 3.81
1/25/2021 11:45:00 PM -0.07 31.874 0.219 7.12 113.66 3.27
1/26/2021 12:00:00 AM 0.03 32.054 0.22 7.12 114.4 2.73
1/26/2021 12:15:00 AM 0.04 32.072 0.22 7.12 115.23 2.52
1/26/2021 12:30:00 AM -0.02 31.964 0.22 7.12 115.58 2.1
1/26/2021 12:45:00 AM -0.05 31.91 0.221 7.12 115.29 1.84
1/26/2021 1:00:00 AM -0.06 31.892 0.221 7.12 115.25 1.63
1/26/2021 1:15:00 AM -0.07 31.874 0.221 7.12 115.44 1.48
1/26/2021 1:30:00 AM -0.07 31.874 0.221 7.12 115.56 1.43
1/26/2021 1:45:00 AM -0.07 31.874 0.221 7.12 116.08 1.23
1/26/2021 2:00:00 AM -0.07 31.874 0.22 7.12 116.42 1.06
1/26/2021 2:15:00 AM -0.07 31.874 0.22 7.12 116.41 0.95
1/26/2021 2:30:00 AM -0.07 31.874 0.219 7.12 117.12 0.98
1/26/2021 2:45:00 AM -0.07 31.874 0.218 7.12 117.5 1.01
1/26/2021 3:00:00 AM -0.07 31.874 0.217 7.12 118.33 1.04
1/26/2021 3:15:00 AM -0.07 31.874 0.215 7.12 118.56 1.29
1/26/2021 3:30:00 AM -0.07 31.874 0.212 7.12 120.68 1.4
1/26/2021 3:45:00 AM -0.07 31.874 0.209 7.12 123.52 1.73
1/26/2021 4:00:00 AM -0.07 31.874 0.205 7.12 126.11 2.01
1/26/2021 4:15:00 AM -0.07 31.874 0.199 7.11 131.67 2.75
1/26/2021 4:30:00 AM -0.06 31.892 0.224 7.22 112.17 4.06
1/26/2021 4:45:00 AM -0.07 31.874 0.22 7.17 112.49 1.73
1/26/2021 5:00:00 AM -0.07 31.874 0.217 7.14 112.33 9.11
1/26/2021 5:15:00 AM -0.07 31.874 0.215 7.12 112.45 9.2
1/26/2021 5:30:00 AM -0.07 31.874 0.213 7.11 112.45 9.43
1/26/2021 5:45:00 AM -0.07 31.874 0.212 7.1 112.6 9.33
1/26/2021 6:00:00 AM -0.07 31.874 0.211 7.09 112.66 9.88
1/26/2021 6:15:00 AM -0.07 31.874 0.21 7.09 112.7 10.06
1/26/2021 6:30:00 AM -0.07 31.874 0.208 7.09 113.3 10.3
1/26/2021 6:45:00 AM -0.07 31.874 0.207 7.09 113.61 10.41
1/26/2021 7:00:00 AM -0.07 31.874 0.205 7.09 113.79 10.03
1/26/2021 7:15:00 AM -0.07 31.874 0.205 7.08 114.4 10.14
1/26/2021 7:30:00 AM -0.07 31.874 0.204 7.08 114.99 10.12
1/26/2021 7:45:00 AM -0.07 31.874 0.203 7.07 115 10.23
1/26/2021 8:00:00 AM -0.06 31.892 0.202 7.08 115.49 10.15
1/26/2021 8:15:00 AM -0.06 31.892 0.201 7.07 115.38 9.96
1/26/2021 8:30:00 AM -0.06 31.892 0.201 7.07 115.6 10.1
1/26/2021 8:45:00 AM -0.06 31.892 0.2 7.07 115.57 9.86
1/26/2021 9:00:00 AM -0.05 31.91 0.2 7.07 116.48 9.84
1/26/2021 9:15:00 AM -0.05 31.91 0.199 7.07 116.79 10.05
1/26/2021 9:30:00 AM -0.05 31.91 0.199 7.06 116.79 10.12
1/26/2021 9:45:00 AM -0.05 31.91 0.199 7.06 116.65 10.14
1/26/2021 10:00:00 AM -0.04 31.928 0.199 7.05 116.29 10.58
1/26/2021 10:15:00 AM -0.05 31.91 0.198 7.05 116.62 10.6
1/26/2021 10:30:00 AM -0.05 31.91 0.198 7.04 116.79 11.15
1/26/2021 10:45:00 AM -0.05 31.91 0.198 7.03 116.89 11.94
1/26/2021 11:00:00 AM -0.05 31.91 0.198 7.03 117.35 11.55
1/26/2021 11:15:00 AM -0.05 31.91 0.198 7.03 117.63 11.23
1/26/2021 11:30:00 AM -0.05 31.91 0.198 7.03 118.9 11
1/26/2021 11:45:00 AM -0.05 31.91 0.198 7.03 118.7 10.92
1/26/2021 12:00:00 PM -0.05 31.91 0.198 7.03 119.04 11.08
1/26/2021 12:15:00 PM -0.05 31.91 0.198 7.03 118.54 11.25
1/26/2021 12:30:00 PM -0.05 31.91 0.198 7.04 119.51 11.19
1/26/2021 12:45:00 PM -0.05 31.91 0.198 7.04 119.44 11.24
1/26/2021 1:00:00 PM -0.04 31.928 0.198 7.04 120.23 11.45
1/26/2021 1:15:00 PM -0.04 31.928 0.198 7.05 121.11 11.53
1/26/2021 1:30:00 PM -0.04 31.928 0.198 7.05 121.44 11.55
1/26/2021 1:45:00 PM -0.04 31.928 0.198 7.05 122.01 11.56
1/26/2021 2:00:00 PM -0.04 31.928 0.198 7.05 122.84 11.58
1/26/2021 2:15:00 PM -0.04 31.928 0.198 7.05 123.02 11.61
1/26/2021 2:30:00 PM -0.04 31.928 0.198 7.06 122.65 11.55
1/26/2021 2:45:00 PM -0.04 31.928 0.198 7.06 123.5 11.52
1/26/2021 3:00:00 PM -0.04 31.928 0.198 7.06 123.75 11.46
1/26/2021 3:15:00 PM -0.04 31.928 0.198 7.06 123.87 11.37
1/26/2021 3:30:00 PM -0.04 31.928 0.199 7.06 124.39 11.61
1/26/2021 3:45:00 PM -0.04 31.928 0.198 7.07 124.69 11.31
1/26/2021 4:00:00 PM -0.04 31.928 0.199 7.07 124.88 11.23
1/26/2021 4:15:00 PM -0.04 31.928 0.199 7.07 125.94 10.98
1/26/2021 4:30:00 PM -0.04 31.928 0.199 7.07 127.92 10.81
1/26/2021 4:45:00 PM -0.05 31.91 0.199 7.07 127.52 10.63
1/26/2021 5:00:00 PM -0.05 31.91 0.199 7.07 129.83 10.48
1/26/2021 5:15:00 PM -0.05 31.91 0.199 7.07 130.85 10.42
1/26/2021 5:30:00 PM -0.05 31.91 0.199 7.08 130.21 10.37
1/26/2021 5:45:00 PM -0.06 31.892 0.199 7.08 130.23 10.23
1/26/2021 6:00:00 PM -0.06 31.892 0.199 7.08 130.72 10.13
1/26/2021 6:15:00 PM -0.06 31.892 0.198 7.08 131.37 10.08
1/26/2021 6:30:00 PM -0.06 31.892 0.198 7.08 132.55 9.94
1/26/2021 6:45:00 PM -0.07 31.874 0.198 7.09 133.44 9.66
1/26/2021 7:00:00 PM -0.07 31.874 0.198 7.09 133.49 9.6
1/26/2021 7:15:00 PM -0.07 31.874 0.197 7.09 137.33 9.36
1/26/2021 7:30:00 PM -0.07 31.874 0.196 7.09 140.46 9.11
1/26/2021 7:45:00 PM -0.07 31.874 0.195 7.09 141.21 8.99
1/26/2021 8:00:00 PM -0.07 31.874 0.194 7.09 142.17 9.27
1/26/2021 8:15:00 PM -0.07 31.874 0.193 7.1 143.44 9.3
1/26/2021 8:30:00 PM -0.07 31.874 0.192 7.1 145.33 9
1/26/2021 8:45:00 PM -0.07 31.874 0.191 7.1 145.41 9.14
1/26/2021 9:00:00 PM -0.07 31.874 0.19 7.1 146.17 8.86
1/26/2021 9:15:00 PM -0.06 31.892 0.246 7.17 108.62 6.09
1/26/2021 9:30:00 PM -0.06 31.892 0.245 7.13 109.46 8.02
1/26/2021 9:45:00 PM -0.06 31.892 0.243 7.12 109.72 11.7
1/26/2021 10:00:00 PM -0.06 31.892 0.241 7.12 109.97 13.11
1/26/2021 10:15:00 PM -0.06 31.892 0.24 7.12 110.4 13.32
1/26/2021 10:30:00 PM -0.01 31.982 0.239 7.12 110.82 12.76
1/26/2021 10:45:00 PM -0.03 31.946 0.239 7.12 110.9 12.77
1/26/2021 11:00:00 PM -0.04 31.928 0.238 7.12 111.17 12.54
1/26/2021 11:15:00 PM -0.05 31.91 0.237 7.12 111.89 12.88
1/26/2021 11:30:00 PM -0.05 31.91 0.237 7.12 111.95 12.76
1/26/2021 11:45:00 PM -0.06 31.892 0.236 7.12 112.22 12.49
1/27/2021 12:00:00 AM -0.06 31.892 0.236 7.12 112.49 12.64
1/27/2021 12:15:00 AM -0.06 31.892 0.235 7.12 112.43 12.8
1/27/2021 12:30:00 AM -0.06 31.892 0.235 7.12 112.61 12.97
1/27/2021 12:45:00 AM -0.06 31.892 0.234 7.12 113.69 12.98
1/27/2021 1:00:00 AM -0.06 31.892 0.234 7.12 113.57 13.12
1/27/2021 1:15:00 AM -0.06 31.892 0.233 7.12 114.56 13.16
1/27/2021 1:30:00 AM -0.05 31.91 0.232 7.12 115 13.15
1/27/2021 1:45:00 AM -0.05 31.91 0.231 7.12 115.71 13.21
1/27/2021 2:00:00 AM -0.05 31.91 0.231 7.13 116.55 13.24
1/27/2021 2:15:00 AM -0.05 31.91 0.23 7.13 117.09 13.21
1/27/2021 2:30:00 AM -0.05 31.91 0.23 7.13 118.37 13.2
1/27/2021 2:45:00 AM -0.05 31.91 0.229 7.13 118.28 13.33
1/27/2021 3:00:00 AM -0.05 31.91 0.229 7.13 119.35 13.31
1/27/2021 3:15:00 AM -0.05 31.91 0.228 7.13 119.76 13.07
1/27/2021 3:30:00 AM -0.05 31.91 0.228 7.13 120.71 13.28
1/27/2021 3:45:00 AM -0.05 31.91 0.227 7.13 121.85 13.22
1/27/2021 4:00:00 AM -0.05 31.91 0.227 7.13 123.07 13.26
1/27/2021 4:15:00 AM -0.05 31.91 0.226 7.13 125.7 13.26
1/27/2021 4:30:00 AM -0.05 31.91 0.225 7.13 126.23 13.04
1/27/2021 4:45:00 AM -0.05 31.91 0.225 7.13 126.48 13.14
1/27/2021 5:00:00 AM -0.05 31.91 0.225 7.13 126.59 12.9
1/27/2021 5:15:00 AM -0.06 31.892 0.225 7.14 128.74 12.52
1/27/2021 5:30:00 AM -0.06 31.892 0.224 7.14 131.8 12.8
1/27/2021 5:45:00 AM -0.06 31.892 0.224 7.14 135.99 12.83
1/27/2021 6:00:00 AM -0.06 31.892 0.223 7.14 138.19 12.91
1/27/2021 6:15:00 AM -0.06 31.892 0.223 7.14 138.42 12.73
1/27/2021 6:30:00 AM -0.06 31.892 0.223 7.14 141.64 12.83
1/27/2021 6:45:00 AM -0.06 31.892 0.222 7.14 145.25 12.62
1/27/2021 7:00:00 AM -0.06 31.892 0.222 7.15 150.56 12.93
1/27/2021 7:15:00 AM -0.06 31.892 0.221 7.15 153.56 12.86
1/27/2021 7:30:00 AM -0.06 31.892 0.221 7.15 156.14 12.78
1/27/2021 7:45:00 AM -0.06 31.892 0.221 7.15 158.86 12.44
1/27/2021 8:00:00 AM -0.06 31.892 0.22 7.15 162.78 12.62
1/27/2021 8:15:00 AM -0.06 31.892 0.22 7.15 168.14 12.8
1/27/2021 8:30:00 AM -0.06 31.892 0.22 7.15 172.47 12.63
1/27/2021 8:45:00 AM -0.06 31.892 0.219 7.15 178.16 12.6
1/27/2021 9:00:00 AM -0.06 31.892 0.219 7.15 181.81 12.5
1/27/2021 9:15:00 AM -0.06 31.892 0.218 7.15 183.8 11.92
1/27/2021 9:30:00 AM -0.06 31.892 0.218 7.16 188.33 11.98
1/27/2021 9:45:00 AM -0.06 31.892 0.217 7.16 191.33 11.74
1/27/2021 10:00:00 AM -0.05 31.91 0.217 7.16 195.81 11.42
1/27/2021 10:15:00 AM -0.05 31.91 0.216 7.16 200.22 11.67
1/27/2021 10:30:00 AM -0.05 31.91 0.216 7.16 204.66 11.62
1/27/2021 10:45:00 AM -0.05 31.91 0.215 7.16 208.41 11.48
1/27/2021 11:00:00 AM -0.05 31.91 0.215 7.16 207.79 11.69
1/27/2021 11:15:00 AM -0.05 31.91 0.214 7.16 207.71 11.7
1/27/2021 11:30:00 AM -0.05 31.91 0.213 7.17 212.33 11.54
1/27/2021 11:45:00 AM -0.05 31.91 0.212 7.17 217.44 11.68
1/27/2021 12:00:00 PM -0.05 31.91 0.211 7.17 224.49 11.9
1/27/2021 12:15:00 PM -0.05 31.91 0.21 7.17 231.05 11.62
1/27/2021 12:30:00 PM -0.04 31.928 0.208 7.17 235.9 11.47
1/27/2021 12:45:00 PM -0.04 31.928 0.207 7.17 239.79 11.12
1/27/2021 1:00:00 PM -0.04 31.928 0.205 7.17 243.41 10.55
1/27/2021 1:15:00 PM -0.04 31.928 0.203 7.17 250 10.57
1/27/2021 1:30:00 PM -0.03 31.946 0.2 7.17 254.27 10.41
1/27/2021 1:45:00 PM -0.02 31.964 0.198 7.17 258.16 10.09
1/27/2021 2:00:00 PM -0.01 31.982 0.195 7.17 260.62 10.12
1/27/2021 2:15:00 PM 0 32 0.249 7.19 114.11 6.34
1/27/2021 2:30:00 PM 0.01 32.018 0.247 7.18 113.35 9.28
1/27/2021 2:45:00 PM 0.01 32.018 0.244 7.18 113.05 10.43
1/27/2021 3:00:00 PM 0.01 32.018 0.242 7.18 112.47 10.9
1/27/2021 3:15:00 PM 0.01 32.018 0.241 7.19 111.44 10.81
1/27/2021 3:30:00 PM 0.01 32.018 0.24 7.19 111.79 11.19
1/27/2021 3:45:00 PM 0.01 32.018 0.239 7.19 112.02 10.93
1/27/2021 4:00:00 PM 0 32 0.237 7.18 111.78 11.21
1/27/2021 4:15:00 PM 0 32 0.236 7.18 111.78 11.49
1/27/2021 4:30:00 PM -0.01 31.982 0.235 7.18 111.57 11.2
1/27/2021 4:45:00 PM -0.01 31.982 0.235 7.18 111.76 11.59
1/27/2021 5:00:00 PM -0.02 31.964 0.235 7.18 112.07 11.51
1/27/2021 5:15:00 PM -0.02 31.964 0.234 7.17 111.99 11.43
1/27/2021 5:30:00 PM -0.03 31.946 0.234 7.18 112.24 11.52
1/27/2021 5:45:00 PM -0.04 31.928 0.234 7.18 112.56 11.43
1/27/2021 6:00:00 PM -0.04 31.928 0.234 7.18 112.62 11.61
1/27/2021 6:15:00 PM -0.05 31.91 0.234 7.17 112.48 11.52
1/27/2021 6:30:00 PM -0.06 31.892 0.234 7.18 112.07 11.69
1/27/2021 6:45:00 PM -0.06 31.892 0.234 7.18 112.3 11.77
1/27/2021 7:00:00 PM -0.07 31.874 0.234 7.18 112.05 11.32
1/27/2021 7:15:00 PM -0.07 31.874 0.234 7.18 111.86 11.76
1/27/2021 7:30:00 PM -0.07 31.874 0.234 7.18 112.02 11.68
1/27/2021 7:45:00 PM -0.07 31.874 0.234 7.18 111.81 11.94
1/27/2021 8:00:00 PM -0.08 31.856 0.234 7.18 112.08 11.72
1/27/2021 8:15:00 PM -0.08 31.856 0.234 7.18 111.77 11.41
1/27/2021 8:30:00 PM -0.08 31.856 0.234 7.18 111.83 11.23
1/27/2021 8:45:00 PM -0.08 31.856 0.234 7.18 111.57 11.13
1/27/2021 9:00:00 PM -0.08 31.856 0.234 7.18 111.32 11.42
1/27/2021 9:15:00 PM -0.08 31.856 0.234 7.19 111.54 11.4
1/27/2021 9:30:00 PM -0.08 31.856 0.234 7.19 111.42 11.2
1/27/2021 9:45:00 PM -0.08 31.856 0.234 7.19 111.23 11.5
1/27/2021 10:00:00 PM -0.08 31.856 0.233 7.19 111.18 11.4
1/27/2021 10:15:00 PM -0.08 31.856 0.233 7.19 111.32 11.64
1/27/2021 10:30:00 PM -0.03 31.946 0.233 7.19 111.19 11.32
1/27/2021 10:45:00 PM -0.05 31.91 0.233 7.19 111.45 11.46
1/27/2021 11:00:00 PM -0.07 31.874 0.233 7.19 111.88 11.24
1/27/2021 11:15:00 PM -0.07 31.874 0.233 7.19 111.73 11.48
1/27/2021 11:30:00 PM -0.08 31.856 0.233 7.19 111.69 11.25
1/27/2021 11:45:00 PM -0.08 31.856 0.233 7.19 111.66 11.3
1/28/2021 12:00:00 AM -0.08 31.856 0.232 7.19 111.52 11.23
1/28/2021 12:15:00 AM -0.08 31.856 0.232 7.2 111.48 11.4
1/28/2021 12:30:00 AM -0.08 31.856 0.232 7.19 111.85 11.12
1/28/2021 12:45:00 AM -0.08 31.856 0.232 7.2 112.06 10.99
1/28/2021 1:00:00 AM -0.08 31.856 0.232 7.2 112.02 10.89
1/28/2021 1:15:00 AM -0.08 31.856 0.232 7.2 112.19 10.83
1/28/2021 1:30:00 AM -0.08 31.856 0.232 7.2 112.43 11.21
1/28/2021 1:45:00 AM -0.07 31.874 0.231 7.2 112.08 10.85
1/28/2021 2:00:00 AM -0.07 31.874 0.231 7.2 112.1 10.75
1/28/2021 2:15:00 AM -0.07 31.874 0.231 7.2 112.06 10.68
1/28/2021 2:30:00 AM -0.07 31.874 0.231 7.2 112.17 10.66
1/28/2021 2:45:00 AM -0.07 31.874 0.231 7.2 112.01 10.81
1/28/2021 3:00:00 AM -0.07 31.874 0.231 7.2 111.5 10.51
1/28/2021 3:15:00 AM -0.07 31.874 0.231 7.2 111.69 10.42
1/28/2021 3:30:00 AM -0.07 31.874 0.231 7.2 111.51 10.57
1/28/2021 3:45:00 AM -0.07 31.874 0.231 7.2 111.5 10.45
1/28/2021 4:00:00 AM -0.07 31.874 0.231 7.2 111.32 10.59
1/28/2021 4:15:00 AM -0.07 31.874 0.231 7.2 111.56 10.41
1/28/2021 4:30:00 AM -0.07 31.874 0.23 7.2 111.3 10.31
1/28/2021 4:45:00 AM -0.07 31.874 0.23 7.2 111.44 10.34
1/28/2021 5:00:00 AM -0.07 31.874 0.23 7.2 111.66 10.36
1/28/2021 5:15:00 AM -0.07 31.874 0.23 7.2 112.14 10.25
1/28/2021 5:30:00 AM -0.07 31.874 0.23 7.2 112.6 10.26
1/28/2021 5:45:00 AM -0.07 31.874 0.23 7.2 112.36 10.36
1/28/2021 6:00:00 AM -0.07 31.874 0.23 7.2 112.72 10.15
1/28/2021 6:15:00 AM -0.07 31.874 0.229 7.2 112.81 10.06
1/28/2021 6:30:00 AM -0.07 31.874 0.229 7.2 112.79 10.08
1/28/2021 6:45:00 AM -0.07 31.874 0.229 7.21 113.09 9.77
1/28/2021 7:00:00 AM -0.07 31.874 0.229 7.21 113.26 9.94
1/28/2021 7:15:00 AM -0.07 31.874 0.229 7.21 113.72 9.7
1/28/2021 7:30:00 AM -0.07 31.874 0.228 7.21 113.67 9.73
1/28/2021 7:45:00 AM -0.07 31.874 0.228 7.21 113.25 9.95
1/28/2021 8:00:00 AM -0.07 31.874 0.228 7.21 114.73 9.9
1/28/2021 8:15:00 AM -0.07 31.874 0.228 7.21 115.46 9.55
1/28/2021 8:30:00 AM -0.07 31.874 0.228 7.21 117.13 9.72
1/28/2021 8:45:00 AM -0.07 31.874 0.228 7.21 117.9 9.74
1/28/2021 9:00:00 AM -0.07 31.874 0.228 7.21 117.74 9.63
1/28/2021 9:15:00 AM -0.07 31.874 0.228 7.21 118.01 9.8
1/28/2021 9:30:00 AM -0.06 31.892 0.228 7.21 119.24 9.84
1/28/2021 9:45:00 AM -0.06 31.892 0.228 7.21 120.06 9.75
1/28/2021 10:00:00 AM -0.06 31.892 0.228 7.21 120.93 9.71
1/28/2021 10:15:00 AM -0.06 31.892 0.228 7.21 121.12 9.6
1/28/2021 10:30:00 AM -0.06 31.892 0.227 7.21 123.08 9.19
1/28/2021 10:45:00 AM -0.06 31.892 0.227 7.21 124.72 9.28
1/28/2021 11:00:00 AM -0.05 31.91 0.227 7.21 125.44 9.15
1/28/2021 11:15:00 AM -0.05 31.91 0.227 7.21 126.61 9.14
1/28/2021 11:30:00 AM -0.04 31.928 0.227 7.21 125.82 8.26
1/28/2021 11:45:00 AM -0.03 31.946 0.227 7.21 126.2 8.51
1/28/2021 12:00:00 PM -0.02 31.964 0.227 7.21 128.06 8.06
1/28/2021 12:15:00 PM -0.01 31.982 0.227 7.21 127.49 7.25
1/28/2021 12:30:00 PM 0 32 0.227 7.21 129.03 7.49
1/28/2021 12:45:00 PM 0.01 32.018 0.227 7.21 131.24 6.98
1/28/2021 1:00:00 PM 0.02 32.036 0.227 7.21 130.41 6.95
1/28/2021 1:15:00 PM 0.02 32.036 0.227 7.21 131.78 6.76
1/28/2021 1:30:00 PM 0.03 32.054 0.227 7.21 132.76 6.53
1/28/2021 1:45:00 PM 0.03 32.054 0.227 7.21 133.56 6.7
1/28/2021 2:00:00 PM 0.03 32.054 0.227 7.21 133.52 6.81
1/28/2021 2:15:00 PM 0.03 32.054 0.227 7.21 132.78 6.66
1/28/2021 2:30:00 PM 0.04 32.072 0.227 7.21 133.69 6.44
1/28/2021 2:45:00 PM 0.05 32.09 0.227 7.21 134.59 5.74
1/28/2021 3:00:00 PM 0.05 32.09 0.227 7.21 134.71 5.76
1/28/2021 3:15:00 PM 0.06 32.108 0.227 7.21 136.61 6.08
1/28/2021 3:30:00 PM 0.06 32.108 0.227 7.21 136.34 6.2
1/28/2021 3:45:00 PM 0.06 32.108 0.227 7.21 138.37 6.26
1/28/2021 4:00:00 PM 0.07 32.126 0.227 7.21 139.27 6.18
1/28/2021 4:15:00 PM 0.07 32.126 0.226 7.21 140.4 6.33
1/28/2021 4:30:00 PM 0.06 32.108 0.226 7.21 141.25 6.33
1/28/2021 4:45:00 PM 0.04 32.072 0.226 7.21 142.02 5.95
1/28/2021 5:00:00 PM 0.02 32.036 0.226 7.21 142.72 5.95
1/28/2021 5:15:00 PM 0 32 0.226 7.21 142.5 5.59
1/28/2021 5:30:00 PM -0.03 31.946 0.226 7.21 143.29 5.4
1/28/2021 5:45:00 PM -0.05 31.91 0.226 7.21 143.74 5.92
1/28/2021 6:00:00 PM -0.07 31.874 0.226 7.21 144.59 6.43
1/28/2021 6:15:00 PM -0.07 31.874 0.225 7.21 144.17 6.67
1/28/2021 6:30:00 PM -0.07 31.874 0.225 7.21 144.63 6.63
1/28/2021 6:45:00 PM -0.08 31.856 0.225 7.21 144.54 5.79
1/28/2021 7:00:00 PM -0.08 31.856 0.225 7.21 145.99 5.52
1/28/2021 7:15:00 PM -0.08 31.856 0.225 7.21 145.99 5.36
1/28/2021 7:30:00 PM -0.08 31.856 0.225 7.2 147.36 4.5
1/28/2021 7:45:00 PM -0.08 31.856 0.225 7.2 146.24 4.76
1/28/2021 8:00:00 PM -0.08 31.856 0.225 7.2 147.13 5.01
1/28/2021 8:15:00 PM -0.08 31.856 0.225 7.2 147.62 6.54
1/28/2021 8:30:00 PM -0.08 31.856 0.225 7.2 148.08 5.68
1/28/2021 8:45:00 PM -0.08 31.856 0.225 7.2 147.27 5.42
1/28/2021 9:00:00 PM -0.08 31.856 0.224 7.2 147.67 5.36
1/28/2021 9:15:00 PM -0.08 31.856 0.224 7.2 148.03 4.54
1/28/2021 9:30:00 PM -0.08 31.856 0.224 7.2 148.68 4.01
1/28/2021 9:45:00 PM -0.08 31.856 0.224 7.2 149.11 3.73
1/28/2021 10:00:00 PM -0.08 31.856 0.224 7.2 151.74 3.27
1/28/2021 10:15:00 PM -0.08 31.856 0.224 7.2 151.19 3.08
1/28/2021 10:30:00 PM -0.06 31.892 0.224 7.2 152.93 3.13
1/28/2021 10:45:00 PM -0.07 31.874 0.224 7.2 152.25 2.99
1/28/2021 11:00:00 PM -0.07 31.874 0.223 7.2 152.14 2.85
1/28/2021 11:15:00 PM -0.08 31.856 0.223 7.2 152.37 3.07
1/28/2021 11:30:00 PM -0.08 31.856 0.223 7.2 151.93 2.71
1/28/2021 11:45:00 PM -0.08 31.856 0.223 7.2 153.35 2.91
1/29/2021 12:00:00 AM -0.08 31.856 0.222 7.2 157.17 2.7
1/29/2021 12:15:00 AM -0.07 31.874 0.222 7.2 155.72 2.66
1/29/2021 12:30:00 AM -0.07 31.874 0.221 7.2 156.42 2.71
1/29/2021 12:45:00 AM -0.07 31.874 0.221 7.2 158.35 2.24
1/29/2021 1:00:00 AM -0.07 31.874 0.22 7.2 161.58 2.5
1/29/2021 1:15:00 AM -0.07 31.874 0.22 7.2 163.62 2.86
1/29/2021 1:30:00 AM -0.07 31.874 0.219 7.2 162.94 2.54
1/29/2021 1:45:00 AM -0.07 31.874 0.219 7.2 164.66 2.08
1/29/2021 2:00:00 AM -0.07 31.874 0.218 7.2 166.71 1.9
1/29/2021 2:15:00 AM -0.07 31.874 0.217 7.21 165.15 1.9
1/29/2021 2:30:00 AM -0.07 31.874 0.216 7.2 168.76 1.85
1/29/2021 2:45:00 AM -0.08 31.856 0.215 7.21 170.56 1.81
1/29/2021 3:00:00 AM -0.07 31.874 0.214 7.21 170.01 1.75
1/29/2021 3:15:00 AM -0.07 31.874 0.213 7.21 167.82 1.75
1/29/2021 3:30:00 AM -0.07 31.874 0.212 7.21 167.22 1.95
1/29/2021 3:45:00 AM -0.07 31.874 0.211 7.2 168.94 2.24
1/29/2021 4:00:00 AM -0.07 31.874 0.21 7.2 168.77 2.6
1/29/2021 4:15:00 AM -0.07 31.874 0.285 7.21 103.75 3.58
1/29/2021 4:30:00 AM -0.08 31.856 0.28 7.21 102.93 4.82
1/29/2021 4:45:00 AM -0.08 31.856 0.276 7.2 103.05 6.16
1/29/2021 5:00:00 AM -0.08 31.856 0.273 7.21 103.16 6.34
1/29/2021 5:15:00 AM -0.08 31.856 0.271 7.21 103.26 6.75
1/29/2021 5:30:00 AM -0.08 31.856 0.268 7.22 103.25 6.88
1/29/2021 5:45:00 AM -0.08 31.856 0.267 7.22 103.88 7.26
1/29/2021 6:00:00 AM -0.08 31.856 0.264 7.22 103.83 9.95
1/29/2021 6:15:00 AM -0.08 31.856 0.262 7.22 104.65 11.42
1/29/2021 6:30:00 AM -0.08 31.856 0.26 7.22 104.83 10.4
1/29/2021 6:45:00 AM -0.08 31.856 0.258 7.23 104.62 12.61
1/29/2021 7:00:00 AM -0.08 31.856 0.257 7.23 104.72 10.99
1/29/2021 7:15:00 AM -0.08 31.856 0.256 7.23 105.02 9.89
1/29/2021 7:30:00 AM -0.08 31.856 0.256 7.24 105.05 9.88
1/29/2021 7:45:00 AM -0.08 31.856 0.256 7.24 105.57 9.38
1/29/2021 8:00:00 AM -0.08 31.856 0.256 7.24 105.02 9.71
1/29/2021 8:15:00 AM -0.08 31.856 0.257 7.24 104.98 9.57
1/29/2021 8:30:00 AM -0.08 31.856 0.257 7.24 104.99 9.77
1/29/2021 8:45:00 AM -0.08 31.856 0.258 7.25 104.64 9.82
1/29/2021 9:00:00 AM -0.08 31.856 0.258 7.25 104.45 9.49
1/29/2021 9:15:00 AM -0.08 31.856 0.259 7.25 104.49 9.28
1/29/2021 9:30:00 AM -0.08 31.856 0.259 7.25 104.99 9.65
1/29/2021 9:45:00 AM -0.08 31.856 0.26 7.25 104.93 9.94
1/29/2021 10:00:00 AM -0.08 31.856 0.26 7.25 104.51 9.65
1/29/2021 10:15:00 AM -0.07 31.874 0.26 7.25 104.29 9.42
1/29/2021 10:30:00 AM -0.07 31.874 0.261 7.26 104.13 10.02
1/29/2021 10:45:00 AM -0.07 31.874 0.262 7.26 104.39 10.57
1/29/2021 11:00:00 AM -0.07 31.874 0.262 7.26 104.46 10.72
1/29/2021 11:15:00 AM -0.07 31.874 0.263 7.25 104.58 10.94
1/29/2021 11:30:00 AM -0.07 31.874 0.263 7.26 104.68 11.07
1/29/2021 11:45:00 AM -0.07 31.874 0.263 7.26 104.92 10.8
1/29/2021 12:00:00 PM -0.07 31.874 0.264 7.26 105.18 10.91
1/29/2021 12:15:00 PM -0.07 31.874 0.264 7.25 104.87 11.64
1/29/2021 12:30:00 PM -0.07 31.874 0.264 7.25 104.91 12.29
1/29/2021 12:45:00 PM -0.07 31.874 0.265 7.25 105.09 13.81
1/29/2021 1:00:00 PM -0.08 31.856 0.266 7.24 105.02 14
1/29/2021 1:15:00 PM -0.08 31.856 0.267 7.24 104.6 14.11
1/29/2021 1:30:00 PM -0.08 31.856 0.268 7.25 104.27 14.04
1/29/2021 1:45:00 PM -0.07 31.874 0.268 7.24 104.15 14.08
1/29/2021 2:00:00 PM -0.06 31.892 0.269 7.24 104.29 14.04
1/29/2021 2:15:00 PM -0.06 31.892 0.269 7.24 104.44 13.78
1/29/2021 2:30:00 PM -0.05 31.91 0.27 7.24 104.22 13.62
1/29/2021 2:45:00 PM -0.04 31.928 0.27 7.24 103.76 13.69
1/29/2021 3:00:00 PM -0.04 31.928 0.271 7.24 104.27 13.73
1/29/2021 3:15:00 PM -0.05 31.91 0.271 7.24 104.01 13.97
1/29/2021 3:30:00 PM -0.06 31.892 0.272 7.24 103.72 13.99
1/29/2021 3:45:00 PM -0.06 31.892 0.272 7.24 103.72 14
1/29/2021 4:00:00 PM -0.06 31.892 0.272 7.24 103.62 14.05
1/29/2021 4:15:00 PM -0.06 31.892 0.273 7.24 103.6 14.04
1/29/2021 4:30:00 PM -0.07 31.874 0.273 7.24 103.82 14.01
1/29/2021 4:45:00 PM -0.07 31.874 0.273 7.24 103.7 14
1/29/2021 5:00:00 PM -0.07 31.874 0.274 7.25 103.33 13.98
1/29/2021 5:15:00 PM -0.07 31.874 0.274 7.25 103.56 13.96
1/29/2021 5:30:00 PM -0.08 31.856 0.274 7.25 103.49 13.97
1/29/2021 5:45:00 PM -0.08 31.856 0.275 7.25 103.19 13.95
1/29/2021 6:00:00 PM -0.08 31.856 0.275 7.25 103.28 13.96
1/29/2021 6:15:00 PM -0.08 31.856 0.275 7.25 102.92 13.82
1/29/2021 6:30:00 PM -0.08 31.856 0.276 7.25 102.79 13.92
1/29/2021 6:45:00 PM -0.08 31.856 0.276 7.25 102.59 14.02
1/29/2021 7:00:00 PM -0.08 31.856 0.277 7.26 102.4 14.01
1/29/2021 7:15:00 PM -0.08 31.856 0.277 7.26 102.46 14.03
1/29/2021 7:30:00 PM -0.08 31.856 0.278 7.26 102.36 14.01
1/29/2021 7:45:00 PM -0.08 31.856 0.278 7.26 102.08 13.99
1/29/2021 8:00:00 PM -0.08 31.856 0.278 7.26 101.91 13.98
1/29/2021 8:15:00 PM -0.08 31.856 0.279 7.26 101.85 13.96
1/29/2021 8:30:00 PM -0.08 31.856 0.28 7.26 102.36 13.94
1/29/2021 8:45:00 PM -0.08 31.856 0.28 7.26 102.98 13.92
1/29/2021 9:00:00 PM -0.08 31.856 0.28 7.26 102.79 13.91
1/29/2021 9:15:00 PM -0.08 31.856 0.281 7.26 103.16 13.97
1/29/2021 9:30:00 PM -0.08 31.856 0.281 7.26 102.63 13.93
1/29/2021 9:45:00 PM -0.08 31.856 0.281 7.26 102.41 13.91
1/29/2021 10:00:00 PM -0.08 31.856 0.282 7.26 102.49 14.02
1/29/2021 10:15:00 PM -0.08 31.856 0.282 7.26 103.22 13.96
1/29/2021 10:30:00 PM -0.08 31.856 0.282 7.26 103.04 14.04
1/29/2021 10:45:00 PM -0.08 31.856 0.283 7.26 103.57 13.95
1/29/2021 11:00:00 PM -0.08 31.856 0.283 7.26 103.3 14.07
1/29/2021 11:15:00 PM -0.08 31.856 0.283 7.26 102.92 14.03
1/29/2021 11:30:00 PM -0.08 31.856 0.284 7.26 102.86 14.06
1/29/2021 11:45:00 PM -0.08 31.856 0.284 7.25 102.46 14.06
1/30/2021 12:00:00 AM -0.08 31.856 0.284 7.26 102.6 14.08
1/30/2021 12:15:00 AM -0.08 31.856 0.284 7.26 102.71 14.03
1/30/2021 12:30:00 AM -0.08 31.856 0.284 7.26 102.27 14.08
1/30/2021 12:45:00 AM -0.08 31.856 0.284 7.26 102.11 14.05
1/30/2021 1:00:00 AM -0.08 31.856 0.285 7.26 102.14 14.04
1/30/2021 1:15:00 AM -0.08 31.856 0.285 7.25 101.72 14.02
1/30/2021 1:30:00 AM -0.08 31.856 0.285 7.26 101.46 14.04
1/30/2021 1:45:00 AM -0.08 31.856 0.285 7.26 100.96 14.06
1/30/2021 2:00:00 AM -0.08 31.856 0.286 7.26 101.15 14.07
1/30/2021 2:15:00 AM -0.08 31.856 0.286 7.25 101.54 14.08
1/30/2021 2:30:00 AM -0.08 31.856 0.286 7.25 100.8 14.06
1/30/2021 2:45:00 AM -0.08 31.856 0.286 7.25 101.54 14.07
1/30/2021 3:00:00 AM -0.08 31.856 0.286 7.25 101.42 14.06
1/30/2021 3:15:00 AM -0.08 31.856 0.287 7.26 101.29 14.05
1/30/2021 3:30:00 AM -0.08 31.856 0.287 7.26 101.57 14.05
1/30/2021 3:45:00 AM -0.08 31.856 0.287 7.26 101.46 14.04
1/30/2021 4:00:00 AM -0.08 31.856 0.287 7.26 102.33 13.99
1/30/2021 4:15:00 AM -0.08 31.856 0.287 7.26 102.38 14.01
1/30/2021 4:30:00 AM -0.08 31.856 0.287 7.26 102.51 13.99
1/30/2021 4:45:00 AM -0.08 31.856 0.287 7.26 102.48 13.97
1/30/2021 5:00:00 AM -0.08 31.856 0.287 7.26 102.89 13.96
1/30/2021 5:15:00 AM -0.08 31.856 0.287 7.26 103.26 13.94
1/30/2021 5:30:00 AM -0.08 31.856 0.287 7.26 103.79 13.92
1/30/2021 5:45:00 AM -0.08 31.856 0.287 7.26 103.98 13.91
1/30/2021 6:00:00 AM -0.08 31.856 0.287 7.25 104.57 13.91
1/30/2021 6:15:00 AM -0.08 31.856 0.287 7.25 105.03 13.92
1/30/2021 6:30:00 AM -0.08 31.856 0.287 7.25 104.9 13.94
1/30/2021 6:45:00 AM -0.08 31.856 0.287 7.25 104.47 13.94
1/30/2021 7:00:00 AM -0.08 31.856 0.287 7.25 104.65 13.94
1/30/2021 7:15:00 AM -0.08 31.856 0.287 7.25 104.94 13.95
1/30/2021 7:30:00 AM -0.08 31.856 0.287 7.25 105.48 13.92
1/30/2021 7:45:00 AM -0.08 31.856 0.287 7.25 105.45 13.92
1/30/2021 8:00:00 AM -0.08 31.856 0.287 7.25 105.64 13.9
1/30/2021 8:15:00 AM -0.08 31.856 0.287 7.25 106.06 13.91
1/30/2021 8:30:00 AM -0.08 31.856 0.287 7.25 105.68 13.91
1/30/2021 8:45:00 AM -0.08 31.856 0.287 7.25 105.7 13.93
1/30/2021 9:00:00 AM -0.08 31.856 0.287 7.25 105.83 13.93
1/30/2021 9:15:00 AM -0.08 31.856 0.287 7.25 105.53 13.93
1/30/2021 9:30:00 AM -0.08 31.856 0.286 7.25 104.65 13.91
1/30/2021 9:45:00 AM -0.07 31.874 0.286 7.25 105.68 13.87
1/30/2021 10:00:00 AM -0.07 31.874 0.286 7.25 106.28 13.9
1/30/2021 10:15:00 AM -0.07 31.874 0.286 7.25 105.95 13.9
1/30/2021 10:30:00 AM -0.07 31.874 0.286 7.25 105.42 13.9
1/30/2021 10:45:00 AM -0.07 31.874 0.286 7.25 105.72 13.9
1/30/2021 11:00:00 AM -0.07 31.874 0.286 7.25 106.41 13.92
1/30/2021 11:15:00 AM -0.07 31.874 0.286 7.25 106.42 13.91
1/30/2021 11:30:00 AM -0.07 31.874 0.286 7.25 106.9 13.9
1/30/2021 11:45:00 AM -0.07 31.874 0.285 7.25 107.43 13.9
1/30/2021 12:00:00 PM -0.07 31.874 0.285 7.25 107.64 13.91
1/30/2021 12:15:00 PM -0.07 31.874 0.285 7.25 108.7 13.9
1/30/2021 12:30:00 PM -0.07 31.874 0.285 7.25 109.69 13.88
1/30/2021 12:45:00 PM -0.07 31.874 0.285 7.25 108.96 13.89
1/30/2021 1:00:00 PM -0.07 31.874 0.284 7.25 109.2 13.87
1/30/2021 1:15:00 PM -0.07 31.874 0.284 7.25 110.2 13.88
1/30/2021 1:30:00 PM -0.07 31.874 0.284 7.25 110.38 13.87
1/30/2021 1:45:00 PM -0.07 31.874 0.284 7.25 109.97 13.85
1/30/2021 2:00:00 PM -0.07 31.874 0.284 7.25 110.09 13.85
1/30/2021 2:15:00 PM -0.07 31.874 0.283 7.25 110.05 13.86
1/30/2021 2:30:00 PM -0.07 31.874 0.283 7.25 110.59 13.85
1/30/2021 2:45:00 PM -0.07 31.874 0.283 7.25 110.15 13.82
1/30/2021 3:00:00 PM -0.07 31.874 0.283 7.25 111.54 13.81
1/30/2021 3:15:00 PM -0.07 31.874 0.283 7.25 113.14 13.81
1/30/2021 3:30:00 PM -0.07 31.874 0.282 7.25 113.01 13.78
1/30/2021 3:45:00 PM -0.07 31.874 0.282 7.25 112.1 13.76
1/30/2021 4:00:00 PM -0.07 31.874 0.282 7.25 111.97 13.75
1/30/2021 4:15:00 PM -0.07 31.874 0.282 7.25 112.61 13.72
1/30/2021 4:30:00 PM -0.07 31.874 0.281 7.25 114.06 13.71
1/30/2021 4:45:00 PM -0.07 31.874 0.281 7.25 113.5 13.71
1/30/2021 5:00:00 PM -0.07 31.874 0.28 7.25 113.47 13.73
1/30/2021 5:15:00 PM -0.07 31.874 0.28 7.25 113.88 13.71
1/30/2021 5:30:00 PM -0.07 31.874 0.28 7.25 114.8 13.71
1/30/2021 5:45:00 PM -0.08 31.856 0.279 7.25 115.62 13.72
1/30/2021 6:00:00 PM -0.08 31.856 0.279 7.25 115.6 13.7
1/30/2021 6:15:00 PM -0.08 31.856 0.278 7.25 115.31 13.72
1/30/2021 6:30:00 PM -0.08 31.856 0.278 7.25 113.43 13.71
1/30/2021 6:45:00 PM -0.08 31.856 0.277 7.25 112.71 13.71
1/30/2021 7:00:00 PM -0.08 31.856 0.276 7.25 112.87 13.73
1/30/2021 7:15:00 PM -0.08 31.856 0.276 7.25 111.72 13.74
1/30/2021 7:30:00 PM -0.08 31.856 0.275 7.25 111.36 13.74
1/30/2021 7:45:00 PM -0.08 31.856 0.275 7.25 111.57 13.73
1/30/2021 8:00:00 PM -0.08 31.856 0.274 7.25 111.01 13.74
1/30/2021 8:15:00 PM -0.08 31.856 0.274 7.25 111.66 13.61
1/30/2021 8:30:00 PM -0.08 31.856 0.272 7.25 112.4 13.62
1/30/2021 8:45:00 PM -0.08 31.856 0.269 7.26 111.97 13.66
1/30/2021 9:00:00 PM -0.08 31.856 0.266 7.25 112.14 13.41
1/30/2021 9:15:00 PM -0.08 31.856 0.263 7.25 112.56 13.46
1/30/2021 9:30:00 PM -0.08 31.856 0.26 7.25 113.02 13.55
1/30/2021 9:45:00 PM -0.08 31.856 0.257 7.25 112.67 13.58
1/30/2021 10:00:00 PM -0.08 31.856 0.254 7.26 113.2 13.61
1/30/2021 10:15:00 PM -0.08 31.856 0.253 7.26 113.59 13.64
1/30/2021 10:30:00 PM -0.08 31.856 0.25 7.26 113.08 13.66
1/30/2021 10:45:00 PM -0.08 31.856 0.275 7.26 94.01 7.88
1/30/2021 11:00:00 PM -0.08 31.856 0.273 7.26 93.48 9.7
1/30/2021 11:15:00 PM -0.08 31.856 0.271 7.26 93.35 11.43
1/30/2021 11:30:00 PM -0.08 31.856 0.269 7.27 93.24 12.33
1/30/2021 11:45:00 PM -0.08 31.856 0.268 7.28 93.01 12.96
1/31/2021 12:00:00 AM -0.08 31.856 0.267 7.28 92.97 12.84
1/31/2021 12:15:00 AM -0.08 31.856 0.266 7.28 92.91 13.05
1/31/2021 12:30:00 AM -0.08 31.856 0.265 7.28 93 12.82
1/31/2021 12:45:00 AM -0.08 31.856 0.264 7.28 92.91 13.28
1/31/2021 1:00:00 AM -0.08 31.856 0.264 7.28 92.99 13.23
1/31/2021 1:15:00 AM -0.08 31.856 0.263 7.28 93.05 13.21
1/31/2021 1:30:00 AM -0.08 31.856 0.263 7.28 93.28 13.28
1/31/2021 1:45:00 AM -0.08 31.856 0.262 7.28 93.17 13.38
1/31/2021 2:00:00 AM -0.08 31.856 0.262 7.28 92.99 13.45
1/31/2021 2:15:00 AM -0.08 31.856 0.262 7.27 93.03 13.55
1/31/2021 2:30:00 AM -0.08 31.856 0.261 7.27 92.91 13.53
1/31/2021 2:45:00 AM -0.08 31.856 0.261 7.27 93.1 13.52
1/31/2021 3:00:00 AM -0.08 31.856 0.26 7.27 93.01 13.51
1/31/2021 3:15:00 AM -0.08 31.856 0.26 7.27 92.81 13.57
1/31/2021 3:30:00 AM -0.08 31.856 0.26 7.27 92.89 13.41
1/31/2021 3:45:00 AM -0.08 31.856 0.259 7.27 92.98 13.32
1/31/2021 4:00:00 AM -0.08 31.856 0.259 7.27 93.13 13.42
1/31/2021 4:15:00 AM -0.08 31.856 0.259 7.27 93.13 13.4
1/31/2021 4:30:00 AM -0.08 31.856 0.258 7.27 93.07 13.32
1/31/2021 4:45:00 AM -0.08 31.856 0.257 7.26 92.94 13.44
1/31/2021 5:00:00 AM -0.08 31.856 0.257 7.26 92.64 13.28
1/31/2021 5:15:00 AM -0.08 31.856 0.256 7.26 92.67 13.19
1/31/2021 5:30:00 AM -0.08 31.856 0.256 7.26 92.67 13.12
1/31/2021 5:45:00 AM -0.08 31.856 0.255 7.26 92.82 13.21
1/31/2021 6:00:00 AM -0.08 31.856 0.255 7.26 92.97 13.24
1/31/2021 6:15:00 AM -0.08 31.856 0.254 7.26 92.95 13.19
1/31/2021 6:30:00 AM -0.08 31.856 0.254 7.26 93.08 13.14
1/31/2021 6:45:00 AM -0.08 31.856 0.253 7.26 93.28 13.05
1/31/2021 7:00:00 AM -0.08 31.856 0.253 7.26 93.16 13.08
1/31/2021 7:15:00 AM -0.08 31.856 0.252 7.26 93.38 13.06
1/31/2021 7:30:00 AM -0.08 31.856 0.252 7.26 93.52 12.73
1/31/2021 7:45:00 AM -0.08 31.856 0.251 7.26 93.87 12.49
1/31/2021 8:00:00 AM -0.08 31.856 0.251 7.26 94.13 12.42
1/31/2021 8:15:00 AM -0.08 31.856 0.25 7.26 94.47 11.9
1/31/2021 8:30:00 AM -0.08 31.856 0.249 7.25 94.87 11.8
1/31/2021 8:45:00 AM -0.08 31.856 0.249 7.25 94.94 11.86
1/31/2021 9:00:00 AM -0.08 31.856 0.248 7.25 95.57 11.53
1/31/2021 9:15:00 AM -0.08 31.856 0.246 7.25 96.68 11.67
1/31/2021 9:30:00 AM -0.07 31.874 0.245 7.25 97.84 11.53
1/31/2021 9:45:00 AM -0.07 31.874 0.244 7.25 98.92 11.62
1/31/2021 10:00:00 AM -0.07 31.874 0.243 7.25 100.66 11.26
1/31/2021 10:15:00 AM -0.07 31.874 0.243 7.25 101.89 11.18
1/31/2021 10:30:00 AM -0.07 31.874 0.242 7.25 102.78 11.22
1/31/2021 10:45:00 AM -0.07 31.874 0.24 7.25 104.05 10.96
1/31/2021 11:00:00 AM -0.07 31.874 0.238 7.25 106.37 11.04
1/31/2021 11:15:00 AM -0.07 31.874 0.235 7.24 108.56 11.25
1/31/2021 11:30:00 AM -0.07 31.874 0.231 7.24 111.1 11.39
1/31/2021 11:45:00 AM -0.07 31.874 0.227 7.24 109.88 11.7
1/31/2021 12:00:00 PM -0.07 31.874 0.224 7.24 109.3 12.03
1/31/2021 12:15:00 PM -0.07 31.874 0.26 7.26 93.96 7.4
1/31/2021 12:30:00 PM -0.07 31.874 0.26 7.13 93.68 1.63
1/31/2021 12:45:00 PM -0.07 31.874 0.259 7.12 93.56 0.63
1/31/2021 1:00:00 PM -0.07 31.874 0.259 7.12 92.9 0.46
1/31/2021 1:15:00 PM -0.07 31.874 0.259 7.14 92.85 0.42
1/31/2021 1:30:00 PM -0.07 31.874 0.259 7.15 92.95 0.42
1/31/2021 1:45:00 PM -0.07 31.874 0.258 7.15 92.96 0.38
1/31/2021 2:00:00 PM -0.07 31.874 0.257 7.16 92.91 0.39
1/31/2021 2:15:00 PM -0.07 31.874 0.257 7.16 92.74 0.42
1/31/2021 2:30:00 PM -0.07 31.874 0.256 7.16 92.56 0.4
1/31/2021 2:45:00 PM -0.07 31.874 0.256 7.16 92.56 1.05
1/31/2021 3:00:00 PM -0.07 31.874 0.255 7.16 92.65 0.47
1/31/2021 3:15:00 PM -0.07 31.874 0.254 7.16 92.6 0.39
1/31/2021 3:30:00 PM -0.07 31.874 0.253 7.16 92.79 0.37
1/31/2021 3:45:00 PM -0.07 31.874 0.253 7.16 92.69 0.36
1/31/2021 4:00:00 PM -0.07 31.874 0.252 7.16 92.72 0.42
1/31/2021 4:15:00 PM -0.07 31.874 0.251 7.16 92.88 0.48
1/31/2021 4:30:00 PM -0.07 31.874 0.25 7.15 93.19 0.54
1/31/2021 4:45:00 PM -0.07 31.874 0.249 7.15 93.25 0.53
1/31/2021 5:00:00 PM -0.07 31.874 0.248 7.15 93.38 0.49
1/31/2021 5:15:00 PM -0.08 31.856 0.248 7.15 93.31 0.42
1/31/2021 5:30:00 PM -0.08 31.856 0.247 7.15 93.44 0.52
1/31/2021 5:45:00 PM -0.08 31.856 0.246 7.15 93.62 0.56
1/31/2021 6:00:00 PM -0.08 31.856 0.244 7.15 93.61 0.46
1/31/2021 6:15:00 PM -0.08 31.856 0.243 7.15 93.74 0.37
1/31/2021 6:30:00 PM -0.08 31.856 0.242 7.15 93.8 0.47
1/31/2021 6:45:00 PM -0.08 31.856 0.241 7.15 93.98 1.04
1/31/2021 7:00:00 PM -0.08 31.856 0.24 7.15 94.13 0.67
1/31/2021 7:15:00 PM -0.08 31.856 0.239 7.15 94.1 1.04
1/31/2021 7:30:00 PM -0.08 31.856 0.238 7.15 94.3 1.34
1/31/2021 7:45:00 PM -0.08 31.856 0.237 7.15 94.21 1.65
1/31/2021 8:00:00 PM -0.08 31.856 0.236 7.14 94.46 2.37
1/31/2021 8:15:00 PM -0.08 31.856 0.235 7.14 94.68 2.13
1/31/2021 8:30:00 PM -0.08 31.856 0.233 7.14 94.52 2.11
1/31/2021 8:45:00 PM -0.08 31.856 0.232 7.14 94.49 2.07
1/31/2021 9:00:00 PM -0.08 31.856 0.231 7.14 94.53 1.78
1/31/2021 9:15:00 PM -0.08 31.856 0.23 7.14 94.61 2.32
1/31/2021 9:30:00 PM -0.08 31.856 0.229 7.14 94.77 2.01
1/31/2021 9:45:00 PM -0.08 31.856 0.227 7.13 94.97 1.95
1/31/2021 10:00:00 PM -0.08 31.856 0.225 7.13 95.37 2.03
1/31/2021 10:15:00 PM -0.08 31.856 0.224 7.13 96.35 1.79
1/31/2021 10:30:00 PM -0.08 31.856 0.221 7.13 96.5 1.72
1/31/2021 10:45:00 PM -0.08 31.856 0.219 7.13 96.53 2.29
1/31/2021 11:00:00 PM -0.08 31.856 0.217 7.13 97.4 1.8
1/31/2021 11:15:00 PM -0.08 31.856 0.214 7.13 97.24 2.26
1/31/2021 11:30:00 PM -0.08 31.856 0.212 7.13 97.05 1.62
1/31/2021 11:45:00 PM -0.07 31.874 0.234 7.2 94.76 5.5
2/1/2021 12:00:00 AM -0.08 31.856 0.231 7.14 94.14 6.47
2/1/2021 12:15:00 AM -0.08 31.856 0.23 7.1 93.89 5.54
2/1/2021 12:30:00 AM -0.08 31.856 0.228 7.11 93.69 5.62
2/1/2021 12:45:00 AM -0.08 31.856 0.228 7.11 93.92 5.89
2/1/2021 1:00:00 AM -0.08 31.856 0.227 7.11 94.06 5.8
2/1/2021 1:15:00 AM -0.08 31.856 0.226 7.11 94.17 6.1
2/1/2021 1:30:00 AM -0.08 31.856 0.224 7.1 94.5 6.38
2/1/2021 1:45:00 AM -0.08 31.856 0.223 7.1 94.98 6.3
2/1/2021 2:00:00 AM -0.08 31.856 0.222 7.09 95.25 6.57
2/1/2021 2:15:00 AM -0.08 31.856 0.22 7.08 95.41 6.09
2/1/2021 2:30:00 AM -0.08 31.856 0.219 7.08 95.62 6.18
2/1/2021 2:45:00 AM -0.08 31.856 0.217 7.08 95.8 7.06
2/1/2021 3:00:00 AM -0.08 31.856 0.216 7.08 96.83 7.66
2/1/2021 3:15:00 AM -0.08 31.856 0.214 7.08 97.44 7.98
2/1/2021 3:30:00 AM -0.08 31.856 0.212 7.08 98.28 8.43
2/1/2021 3:45:00 AM -0.08 31.856 0.21 7.08 97.8 8.42
2/1/2021 4:00:00 AM -0.08 31.856 0.209 7.08 98.36 8.41
2/1/2021 4:15:00 AM -0.08 31.856 0.207 7.08 98.41 8.72
2/1/2021 4:30:00 AM -0.08 31.856 0.205 7.08 98.41 9.32
2/1/2021 4:45:00 AM -0.08 31.856 0.203 7.09 99.1 9.31
2/1/2021 5:00:00 AM -0.08 31.856 0.227 7.08 92.23 8.99
2/1/2021 5:15:00 AM -0.08 31.856 0.225 7.05 92.44 11.63
2/1/2021 5:30:00 AM -0.08 31.856 0.225 7.02 92.07 12.3
2/1/2021 5:45:00 AM -0.08 31.856 0.224 7.01 92.3 12.95
2/1/2021 6:00:00 AM -0.08 31.856 0.223 7.01 92.13 13.1
2/1/2021 6:15:00 AM -0.08 31.856 0.223 7.02 92.07 13.05
2/1/2021 6:30:00 AM -0.08 31.856 0.222 7.02 92.13 13.14
2/1/2021 6:45:00 AM -0.08 31.856 0.222 7.03 92.13 13.17
2/1/2021 7:00:00 AM -0.08 31.856 0.222 7.03 92.04 13.17
2/1/2021 7:15:00 AM -0.08 31.856 0.222 7.03 92 13.19
2/1/2021 7:30:00 AM -0.08 31.856 0.221 7.03 91.92 13.18
2/1/2021 7:45:00 AM -0.08 31.856 0.221 7.03 91.86 13.22
2/1/2021 8:00:00 AM -0.08 31.856 0.221 7.03 92.11 13.16
2/1/2021 8:15:00 AM -0.08 31.856 0.221 7.03 91.91 13.18
2/1/2021 8:30:00 AM -0.08 31.856 0.221 7.04 91.73 13.27
2/1/2021 8:45:00 AM -0.08 31.856 0.221 7.04 91.75 13.24
2/1/2021 9:00:00 AM -0.08 31.856 0.221 7.04 91.71 13.3
2/1/2021 9:15:00 AM -0.08 31.856 0.221 7.04 91.62 13.34
2/1/2021 9:30:00 AM -0.08 31.856 0.221 7.05 91.35 13.38
2/1/2021 9:45:00 AM -0.08 31.856 0.221 7.05 91.19 13.36
2/1/2021 10:00:00 AM -0.08 31.856 0.221 7.05 91.21 13.35
2/1/2021 10:15:00 AM -0.08 31.856 0.221 7.05 91.4 13.33
2/1/2021 10:30:00 AM -0.08 31.856 0.221 7.06 91.57 13.35
2/1/2021 10:45:00 AM -0.08 31.856 0.221 7.06 91.5 13.38
2/1/2021 11:00:00 AM -0.08 31.856 0.221 7.06 91.53 13.43
2/1/2021 11:15:00 AM -0.08 31.856 0.221 7.06 91.36 13.44
2/1/2021 11:30:00 AM -0.08 31.856 0.221 7.06 91.3 13.47
2/1/2021 11:45:00 AM -0.08 31.856 0.222 7.06 91.23 13.41
2/1/2021 12:00:00 PM -0.08 31.856 0.222 7.07 91.44 13.47
2/1/2021 12:15:00 PM -0.08 31.856 0.222 7.07 91.53 13.52
2/1/2021 12:30:00 PM -0.08 31.856 0.222 7.07 91.36 13.42
2/1/2021 12:45:00 PM -0.08 31.856 0.222 7.08 91.15 13.47
2/1/2021 1:00:00 PM -0.08 31.856 0.222 7.08 90.97 13.46
2/1/2021 1:15:00 PM -0.08 31.856 0.222 7.08 90.82 13.5
2/1/2021 1:30:00 PM -0.08 31.856 0.222 7.08 90.88 13.61
2/1/2021 1:45:00 PM -0.08 31.856 0.223 7.08 90.96 13.59
2/1/2021 2:00:00 PM -0.08 31.856 0.223 7.08 91.19 13.6
2/1/2021 2:15:00 PM -0.08 31.856 0.223 7.08 90.98 13.61
2/1/2021 2:30:00 PM -0.08 31.856 0.223 7.09 90.85 13.58
2/1/2021 2:45:00 PM -0.08 31.856 0.223 7.09 91.07 13.57
2/1/2021 3:00:00 PM -0.08 31.856 0.223 7.09 90.98 13.55
2/1/2021 3:15:00 PM -0.08 31.856 0.224 7.1 91.06 13.6
2/1/2021 3:30:00 PM -0.08 31.856 0.224 7.1 90.93 13.58
2/1/2021 3:45:00 PM -0.08 31.856 0.224 7.1 90.98 13.55
2/1/2021 4:00:00 PM -0.08 31.856 0.224 7.1 90.74 13.56
2/1/2021 4:15:00 PM -0.08 31.856 0.224 7.1 91.03 13.56
2/1/2021 4:30:00 PM -0.08 31.856 0.225 7.1 91.08 13.55
2/1/2021 4:45:00 PM -0.08 31.856 0.225 7.1 90.79 13.57
2/1/2021 5:00:00 PM -0.08 31.856 0.225 7.11 90.82 13.55
2/1/2021 5:15:00 PM -0.08 31.856 0.225 7.11 90.84 13.53
2/1/2021 5:30:00 PM -0.08 31.856 0.225 7.11 90.91 13.53
2/1/2021 5:45:00 PM -0.08 31.856 0.226 7.11 91.14 13.52
2/1/2021 6:00:00 PM -0.08 31.856 0.226 7.11 91.17 13.54
2/1/2021 6:15:00 PM -0.08 31.856 0.226 7.11 91.06 13.52
2/1/2021 6:30:00 PM -0.08 31.856 0.226 7.11 91.01 13.5
2/1/2021 6:45:00 PM -0.08 31.856 0.226 7.11 91 13.52
2/1/2021 7:00:00 PM -0.08 31.856 0.226 7.11 91.1 13.52
2/1/2021 7:15:00 PM -0.08 31.856 0.226 7.12 90.99 13.55
2/1/2021 7:30:00 PM -0.08 31.856 0.227 7.12 90.78 13.54
2/1/2021 7:45:00 PM -0.08 31.856 0.227 7.12 90.78 13.52
2/1/2021 8:00:00 PM -0.08 31.856 0.227 7.12 90.57 13.5
2/1/2021 8:15:00 PM -0.08 31.856 0.227 7.12 90.66 13.48
2/1/2021 8:30:00 PM -0.08 31.856 0.227 7.12 90.76 13.5
2/1/2021 8:45:00 PM -0.08 31.856 0.227 7.12 90.82 13.49
2/1/2021 9:00:00 PM -0.08 31.856 0.227 7.12 90.77 13.41
2/1/2021 9:15:00 PM -0.08 31.856 0.227 7.12 90.5 13.42
2/1/2021 9:30:00 PM -0.08 31.856 0.228 7.12 90.16 13.44
2/1/2021 9:45:00 PM -0.08 31.856 0.228 7.12 90.17 13.46
2/1/2021 10:00:00 PM -0.08 31.856 0.228 7.12 90.06 13.34
2/1/2021 10:15:00 PM -0.08 31.856 0.228 7.13 89.94 13.03
2/1/2021 10:30:00 PM -0.08 31.856 0.228 7.13 89.53 12.96
2/1/2021 10:45:00 PM -0.08 31.856 0.228 7.13 89.72 12.89
2/1/2021 11:00:00 PM -0.08 31.856 0.228 7.13 89.59 13.08
2/1/2021 11:15:00 PM -0.08 31.856 0.229 7.13 89.88 13.18
2/1/2021 11:30:00 PM -0.08 31.856 0.229 7.13 89.56 13.22
2/1/2021 11:45:00 PM -0.08 31.856 0.229 7.13 89.52 13.28
2/2/2021 12:00:00 AM -0.08 31.856 0.229 7.13 89.84 13.14
2/2/2021 12:15:00 AM -0.08 31.856 0.229 7.13 89.89 12.92
2/2/2021 12:30:00 AM -0.08 31.856 0.229 7.13 89.75 13.09
2/2/2021 12:45:00 AM -0.08 31.856 0.23 7.13 89.62 13.16
2/2/2021 1:00:00 AM -0.08 31.856 0.23 7.13 89.55 13.11
2/2/2021 1:15:00 AM -0.08 31.856 0.23 7.13 89.53 13.14
2/2/2021 1:30:00 AM -0.08 31.856 0.23 7.13 89.58 12.88
2/2/2021 1:45:00 AM -0.08 31.856 0.23 7.13 89.7 12.69
2/2/2021 2:00:00 AM -0.08 31.856 0.23 7.14 89.65 12.8
2/2/2021 2:15:00 AM -0.08 31.856 0.23 7.14 89.6 13.03
2/2/2021 2:30:00 AM -0.08 31.856 0.23 7.14 89.49 13.08
2/2/2021 2:45:00 AM -0.08 31.856 0.23 7.14 89.25 13.1
2/2/2021 3:00:00 AM -0.08 31.856 0.23 7.14 89.32 13.21
2/2/2021 3:15:00 AM -0.08 31.856 0.23 7.14 89.34 13.24
2/2/2021 3:30:00 AM -0.08 31.856 0.23 7.14 89.14 13.17
2/2/2021 3:45:00 AM -0.08 31.856 0.23 7.14 89.32 13.11
2/2/2021 4:00:00 AM -0.08 31.856 0.231 7.14 88.93 13.14
2/2/2021 4:15:00 AM -0.08 31.856 0.231 7.14 89.23 13.17
2/2/2021 4:30:00 AM -0.08 31.856 0.231 7.14 89 12.82
2/2/2021 4:45:00 AM -0.08 31.856 0.231 7.14 88.93 13.16
2/2/2021 5:00:00 AM -0.08 31.856 0.231 7.14 88.88 13.12
2/2/2021 5:15:00 AM -0.08 31.856 0.231 7.14 88.73 13.05
2/2/2021 5:30:00 AM -0.08 31.856 0.231 7.15 88.91 13.09
2/2/2021 5:45:00 AM -0.08 31.856 0.231 7.15 88.94 12.97
2/2/2021 6:00:00 AM -0.08 31.856 0.231 7.15 88.97 12.82
2/2/2021 6:15:00 AM -0.08 31.856 0.232 7.15 88.98 12.9
2/2/2021 6:30:00 AM -0.08 31.856 0.232 7.15 88.86 12.91
2/2/2021 6:45:00 AM -0.08 31.856 0.232 7.15 88.79 12.8
2/2/2021 7:00:00 AM -0.08 31.856 0.232 7.15 88.7 13.09
2/2/2021 7:15:00 AM -0.08 31.856 0.232 7.15 88.77 13.15
2/2/2021 7:30:00 AM -0.08 31.856 0.232 7.14 88.82 13.12
2/2/2021 7:45:00 AM -0.08 31.856 0.232 7.14 89.06 13.21
2/2/2021 8:00:00 AM -0.08 31.856 0.232 7.14 89.1 13.22
2/2/2021 8:15:00 AM -0.08 31.856 0.232 7.14 89.16 13.29
2/2/2021 8:30:00 AM -0.08 31.856 0.232 7.15 89.02 13.26
2/2/2021 8:45:00 AM -0.08 31.856 0.232 7.15 88.83 13.15
2/2/2021 9:00:00 AM -0.08 31.856 0.233 7.15 89.07 13.09
2/2/2021 9:15:00 AM -0.08 31.856 0.233 7.15 88.79 12.93
2/2/2021 9:30:00 AM -0.08 31.856 0.233 7.15 89.02 12.97
2/2/2021 9:45:00 AM -0.08 31.856 0.233 7.16 89.15 12.63
2/2/2021 10:00:00 AM -0.08 31.856 0.233 7.16 89.43 12.47
2/2/2021 10:15:00 AM -0.08 31.856 0.233 7.16 89.43 12.62
2/2/2021 10:30:00 AM -0.08 31.856 0.233 7.16 89.45 12.63
2/2/2021 10:45:00 AM -0.08 31.856 0.233 7.16 89.4 12.49
2/2/2021 11:00:00 AM -0.08 31.856 0.233 7.16 89.44 12.41
2/2/2021 11:15:00 AM -0.08 31.856 0.233 7.16 89.34 12.44
2/2/2021 11:30:00 AM -0.08 31.856 0.234 7.16 89.08 12.48
2/2/2021 11:45:00 AM -0.08 31.856 0.233 7.16 89.35 12.46
2/2/2021 12:00:00 PM -0.08 31.856 0.234 7.17 89.04 12.69
2/2/2021 12:15:00 PM -0.08 31.856 0.234 7.17 89.43 12.65
2/2/2021 12:30:00 PM -0.08 31.856 0.234 7.17 88.78 12.31
2/2/2021 12:45:00 PM -0.07 31.874 0.234 7.17 89.38 12.17
2/2/2021 1:00:00 PM -0.07 31.874 0.234 7.17 89.28 12.36
2/2/2021 1:15:00 PM -0.08 31.856 0.234 7.17 89.08 12.97
2/2/2021 1:30:00 PM -0.07 31.874 0.234 7.17 89.19 12.81
2/2/2021 1:45:00 PM -0.07 31.874 0.234 7.17 89.17 12.82
2/2/2021 2:00:00 PM -0.07 31.874 0.234 7.17 89.22 13.02
2/2/2021 2:15:00 PM -0.08 31.856 0.235 7.17 89.14 12.87
2/2/2021 2:30:00 PM -0.08 31.856 0.234 7.17 89.19 12.8
2/2/2021 2:45:00 PM -0.08 31.856 0.235 7.17 89.28 12.97
2/2/2021 3:00:00 PM -0.08 31.856 0.235 7.17 89.16 13.05
2/2/2021 3:15:00 PM -0.08 31.856 0.235 7.17 89.19 12.86
2/2/2021 3:30:00 PM -0.08 31.856 0.235 7.17 89.18 12.85
2/2/2021 3:45:00 PM -0.08 31.856 0.235 7.17 89.16 12.85
2/2/2021 4:00:00 PM -0.08 31.856 0.235 7.18 89.35 12.76
2/2/2021 4:15:00 PM -0.08 31.856 0.235 7.18 89.13 12.6
2/2/2021 4:30:00 PM -0.08 31.856 0.235 7.18 89.33 12.49
2/2/2021 4:45:00 PM -0.08 31.856 0.235 7.18 88.9 12.31
2/2/2021 5:00:00 PM -0.08 31.856 0.236 7.18 88.95 12.03
2/2/2021 5:15:00 PM -0.08 31.856 0.236 7.18 89.05 12.42
2/2/2021 5:30:00 PM -0.08 31.856 0.236 7.18 89.09 12.2
2/2/2021 5:45:00 PM -0.08 31.856 0.236 7.18 88.83 12.46
2/2/2021 6:00:00 PM -0.08 31.856 0.236 7.18 89 12.65
2/2/2021 6:15:00 PM -0.08 31.856 0.236 7.18 88.61 12.54
2/2/2021 6:30:00 PM -0.08 31.856 0.236 7.18 88.53 12.52
2/2/2021 6:45:00 PM -0.08 31.856 0.236 7.18 88.71 12.39
2/2/2021 7:00:00 PM -0.08 31.856 0.236 7.18 88.94 12.18
2/2/2021 7:15:00 PM -0.08 31.856 0.236 7.18 89.02 12.26
2/2/2021 7:30:00 PM -0.08 31.856 0.236 7.18 88.95 12.24
2/2/2021 7:45:00 PM -0.08 31.856 0.236 7.18 88.73 12.17
2/2/2021 8:00:00 PM -0.08 31.856 0.236 7.18 88.81 12.06
2/2/2021 8:15:00 PM -0.08 31.856 0.236 7.18 88.65 11.76
2/2/2021 8:30:00 PM -0.08 31.856 0.237 7.18 88.63 12.03
2/2/2021 8:45:00 PM -0.08 31.856 0.237 7.18 88.93 12.09
2/2/2021 9:00:00 PM -0.08 31.856 0.237 7.18 88.88 11.99
2/2/2021 9:15:00 PM -0.08 31.856 0.237 7.19 89.1 11.61
2/2/2021 9:30:00 PM -0.08 31.856 0.237 7.19 88.9 11.72
2/2/2021 9:45:00 PM -0.08 31.856 0.237 7.19 89.42 11.78
2/2/2021 10:00:00 PM -0.08 31.856 0.237 7.19 89.25 11.52
2/2/2021 10:15:00 PM -0.08 31.856 0.237 7.19 89.1 11.14
2/2/2021 10:30:00 PM -0.07 31.874 0.237 7.19 88.73 11.5
2/2/2021 10:45:00 PM -0.08 31.856 0.237 7.19 88.91 11.17
2/2/2021 11:00:00 PM -0.08 31.856 0.237 7.19 89.07 11.94
2/2/2021 11:15:00 PM -0.08 31.856 0.237 7.19 88.93 11.89
2/2/2021 11:30:00 PM -0.08 31.856 0.237 7.19 88.68 12.21
2/2/2021 11:45:00 PM -0.08 31.856 0.237 7.19 88.88 12.07
2/3/2021 12:00:00 AM -0.08 31.856 0.237 7.19 89.01 11.93
2/3/2021 12:15:00 AM -0.08 31.856 0.237 7.19 88.92 12.09
2/3/2021 12:30:00 AM -0.08 31.856 0.237 7.19 88.91 11.82
2/3/2021 12:45:00 AM -0.08 31.856 0.238 7.19 88.81 11.63
2/3/2021 1:00:00 AM -0.08 31.856 0.238 7.19 88.78 11.63
2/3/2021 1:15:00 AM -0.08 31.856 0.238 7.19 88.64 11.46
2/3/2021 1:30:00 AM -0.08 31.856 0.238 7.19 88.66 11.46
2/3/2021 1:45:00 AM -0.08 31.856 0.238 7.2 88.42 11.34
2/3/2021 2:00:00 AM -0.08 31.856 0.238 7.2 88.57 11.12
2/3/2021 2:15:00 AM -0.08 31.856 0.238 7.2 88.52 11.41
2/3/2021 2:30:00 AM -0.08 31.856 0.237 7.2 88.58 11.66
2/3/2021 2:45:00 AM -0.08 31.856 0.238 7.2 88.3 11.28
2/3/2021 3:00:00 AM -0.08 31.856 0.238 7.2 88.55 11.31
2/3/2021 3:15:00 AM -0.08 31.856 0.238 7.2 88.49 11.56
2/3/2021 3:30:00 AM -0.08 31.856 0.238 7.2 88.16 11.32
2/3/2021 3:45:00 AM -0.08 31.856 0.238 7.2 88.33 11.15
2/3/2021 4:00:00 AM -0.08 31.856 0.238 7.2 88.23 11.03
2/3/2021 4:15:00 AM -0.08 31.856 0.238 7.2 88.73 11.14
2/3/2021 4:30:00 AM -0.08 31.856 0.238 7.2 88.23 10.99
2/3/2021 4:45:00 AM -0.08 31.856 0.238 7.2 88.07 11.52
2/3/2021 5:00:00 AM -0.08 31.856 0.238 7.2 88.16 11.04
2/3/2021 5:15:00 AM -0.08 31.856 0.238 7.2 88.54 11.07
2/3/2021 5:30:00 AM -0.08 31.856 0.238 7.2 88.22 11.47
2/3/2021 5:45:00 AM -0.08 31.856 0.238 7.2 88.55 11.52
2/3/2021 6:00:00 AM -0.08 31.856 0.238 7.2 88.18 11.19
2/3/2021 6:15:00 AM -0.08 31.856 0.238 7.2 88.4 10.93
2/3/2021 6:30:00 AM -0.08 31.856 0.238 7.21 88.14 11.09
2/3/2021 6:45:00 AM -0.08 31.856 0.238 7.21 88.24 10.96
2/3/2021 7:00:00 AM -0.08 31.856 0.238 7.21 88.35 10.95
2/3/2021 7:15:00 AM -0.08 31.856 0.238 7.21 88.38 10.39
2/3/2021 7:30:00 AM -0.08 31.856 0.238 7.21 88.46 10.83
2/3/2021 7:45:00 AM -0.08 31.856 0.238 7.21 88.71 11.04
2/3/2021 8:00:00 AM -0.08 31.856 0.238 7.21 88.71 11.11
2/3/2021 8:15:00 AM -0.08 31.856 0.238 7.21 88.98 11.06
2/3/2021 8:30:00 AM -0.08 31.856 0.238 7.21 88.93 10.67
2/3/2021 8:45:00 AM -0.08 31.856 0.238 7.21 88.96 10.53
2/3/2021 9:00:00 AM -0.08 31.856 0.238 7.21 88.78 10.7
2/3/2021 9:15:00 AM -0.08 31.856 0.238 7.21 88.6 10.69
2/3/2021 9:30:00 AM -0.08 31.856 0.238 7.21 88.79 10.77
2/3/2021 9:45:00 AM -0.08 31.856 0.238 7.21 88.79 11.07
2/3/2021 10:00:00 AM -0.08 31.856 0.238 7.21 88.54 10.42
2/3/2021 10:15:00 AM -0.08 31.856 0.238 7.21 88.66 10.83
2/3/2021 10:30:00 AM -0.08 31.856 0.238 7.21 88.42 10.86
2/3/2021 10:45:00 AM -0.08 31.856 0.239 7.22 88.39 10.97
2/3/2021 11:00:00 AM -0.08 31.856 0.239 7.22 88.41 10.88
2/3/2021 11:15:00 AM -0.08 31.856 0.238 7.22 88.79 10.57
2/3/2021 11:30:00 AM -0.08 31.856 0.238 7.22 89.09 10.25
2/3/2021 11:45:00 AM -0.08 31.856 0.239 7.22 88.75 10.34
2/3/2021 12:00:00 PM -0.08 31.856 0.238 7.22 88.68 10.57
2/3/2021 12:15:00 PM -0.08 31.856 0.238 7.22 88.11 10.22
2/3/2021 12:30:00 PM -0.07 31.874 0.238 7.22 88.43 10.08
2/3/2021 12:45:00 PM -0.07 31.874 0.239 7.22 87.76 10.18
2/3/2021 1:00:00 PM -0.07 31.874 0.238 7.22 87.96 10.39
2/3/2021 1:15:00 PM -0.08 31.856 0.239 7.22 88.28 10.4
2/3/2021 1:30:00 PM -0.07 31.874 0.239 7.22 88.73 10.43
2/3/2021 1:45:00 PM -0.07 31.874 0.239 7.22 88.45 10.6
2/3/2021 2:00:00 PM -0.08 31.856 0.239 7.21 88.65 10.6
2/3/2021 2:15:00 PM -0.08 31.856 0.239 7.22 88.49 10.38
2/3/2021 2:30:00 PM -0.07 31.874 0.239 7.21 88.4 10.54
2/3/2021 2:45:00 PM -0.07 31.874 0.239 7.22 88.17 10.67
2/3/2021 3:00:00 PM -0.07 31.874 0.239 7.21 87.99 10.54
2/3/2021 3:15:00 PM -0.08 31.856 0.239 7.22 87.77 10.15
2/3/2021 3:30:00 PM -0.08 31.856 0.239 7.22 88.8 10.62
2/3/2021 3:45:00 PM -0.08 31.856 0.239 7.22 88.37 10.84
2/3/2021 4:00:00 PM -0.08 31.856 0.239 7.22 88.21 10.62
2/3/2021 4:15:00 PM -0.08 31.856 0.239 7.22 88.08 10.73
2/3/2021 4:30:00 PM -0.08 31.856 0.239 7.22 88.14 10.68
2/3/2021 4:45:00 PM -0.08 31.856 0.239 7.22 88.37 10.85
2/3/2021 5:00:00 PM -0.08 31.856 0.239 7.22 88.54 10.42
2/3/2021 5:15:00 PM -0.08 31.856 0.239 7.22 88.61 10.86
2/3/2021 5:30:00 PM -0.08 31.856 0.239 7.22 88.61 10.83
2/3/2021 5:45:00 PM -0.08 31.856 0.239 7.22 88.96 10.48
2/3/2021 6:00:00 PM -0.08 31.856 0.239 7.22 89.11 10.7
2/3/2021 6:15:00 PM -0.08 31.856 0.239 7.22 88.69 11.46
2/3/2021 6:30:00 PM -0.08 31.856 0.239 7.22 88.61 11.39
2/3/2021 6:45:00 PM -0.08 31.856 0.239 7.22 88.61 11
2/3/2021 7:00:00 PM -0.08 31.856 0.239 7.22 88.43 10.77
2/3/2021 7:15:00 PM -0.08 31.856 0.239 7.22 88.48 10.63
2/3/2021 7:30:00 PM -0.08 31.856 0.239 7.22 88.97 10.2
2/3/2021 7:45:00 PM -0.08 31.856 0.239 7.22 89.3 10.33
2/3/2021 8:00:00 PM -0.08 31.856 0.239 7.22 89.62 10.73
2/3/2021 8:15:00 PM -0.08 31.856 0.239 7.22 88.87 10.26
2/3/2021 8:30:00 PM -0.08 31.856 0.239 7.22 89.81 9.85
2/3/2021 8:45:00 PM -0.08 31.856 0.239 7.22 90.18 9.95
2/3/2021 9:00:00 PM -0.08 31.856 0.239 7.22 90.78 10.01
2/3/2021 9:15:00 PM -0.08 31.856 0.239 7.22 91.28 9.74
2/3/2021 9:30:00 PM -0.08 31.856 0.239 7.22 92.21 9.62
2/3/2021 9:45:00 PM -0.08 31.856 0.239 7.22 91.11 10.39
2/3/2021 10:00:00 PM -0.08 31.856 0.239 7.22 91.06 10.25
2/3/2021 10:15:00 PM -0.08 31.856 0.239 7.22 91.63 10.27
2/3/2021 10:30:00 PM -0.07 31.874 0.239 7.22 91.46 10.35
2/3/2021 10:45:00 PM -0.08 31.856 0.239 7.22 92.02 10.81
2/3/2021 11:00:00 PM -0.08 31.856 0.239 7.23 91.73 11.53
2/3/2021 11:15:00 PM -0.08 31.856 0.239 7.23 92.11 11.7
2/3/2021 11:30:00 PM -0.08 31.856 0.239 7.23 92.28 11.5
2/3/2021 11:45:00 PM -0.08 31.856 0.239 7.23 91.52 11.7
2/4/2021 12:00:00 AM -0.08 31.856 0.239 7.23 90.94 11.46
2/4/2021 12:15:00 AM -0.08 31.856 0.239 7.23 91.36 11.29
2/4/2021 12:30:00 AM -0.08 31.856 0.239 7.23 91.91 11.33
2/4/2021 12:45:00 AM -0.08 31.856 0.239 7.23 91.97 11.78
2/4/2021 1:00:00 AM -0.08 31.856 0.239 7.23 92.14 11.62
2/4/2021 1:15:00 AM -0.08 31.856 0.239 7.23 93.71 11.67
2/4/2021 1:30:00 AM -0.08 31.856 0.239 7.23 93.14 11.65
2/4/2021 1:45:00 AM -0.08 31.856 0.239 7.23 93.13 11.15
2/4/2021 2:00:00 AM -0.08 31.856 0.239 7.23 93.67 11.38
2/4/2021 2:15:00 AM -0.08 31.856 0.238 7.23 93.81 11.7
2/4/2021 2:30:00 AM -0.08 31.856 0.238 7.23 93.26 11.62
2/4/2021 2:45:00 AM -0.08 31.856 0.238 7.23 92.94 11.45
2/4/2021 3:00:00 AM -0.08 31.856 0.238 7.23 92.41 11.42
2/4/2021 3:15:00 AM -0.08 31.856 0.238 7.23 92.3 11.59
2/4/2021 3:30:00 AM -0.08 31.856 0.238 7.23 93.06 11.81
2/4/2021 3:45:00 AM -0.08 31.856 0.238 7.23 93.13 11.7
2/4/2021 4:00:00 AM -0.08 31.856 0.238 7.23 92.93 11.63
2/4/2021 4:15:00 AM -0.08 31.856 0.238 7.23 92.85 11.93
2/4/2021 4:30:00 AM -0.08 31.856 0.238 7.23 93.73 11.46
2/4/2021 4:45:00 AM -0.08 31.856 0.238 7.24 92.95 11.69
2/4/2021 5:00:00 AM -0.08 31.856 0.238 7.23 92.77 11.69
2/4/2021 5:15:00 AM -0.08 31.856 0.238 7.23 92.9 11.73
2/4/2021 5:30:00 AM -0.08 31.856 0.238 7.23 93.05 11.48
2/4/2021 5:45:00 AM -0.08 31.856 0.238 7.24 92.31 11.41
2/4/2021 6:00:00 AM -0.08 31.856 0.238 7.24 93.01 11.83
2/4/2021 6:15:00 AM -0.08 31.856 0.238 7.24 92.86 11.69
2/4/2021 6:30:00 AM -0.08 31.856 0.238 7.24 92.36 11.31
2/4/2021 6:45:00 AM -0.08 31.856 0.237 7.24 93.3 11.2
2/4/2021 7:00:00 AM -0.08 31.856 0.237 7.24 93.02 11.14
2/4/2021 7:15:00 AM -0.08 31.856 0.237 7.24 93.87 10.98
2/4/2021 7:30:00 AM -0.08 31.856 0.237 7.24 93.01 11.06
2/4/2021 7:45:00 AM -0.08 31.856 0.237 7.24 92.55 10.94
2/4/2021 8:00:00 AM -0.08 31.856 0.237 7.24 92.54 11.13
2/4/2021 8:15:00 AM -0.08 31.856 0.237 7.24 92.06 10.81
2/4/2021 8:30:00 AM -0.08 31.856 0.237 7.24 91.89 11.11
2/4/2021 8:45:00 AM -0.08 31.856 0.237 7.24 91.53 10.63
2/4/2021 9:00:00 AM -0.08 31.856 0.237 7.24 91.92 10.7
2/4/2021 9:15:00 AM -0.08 31.856 0.237 7.24 91.59 10.79
2/4/2021 9:30:00 AM -0.08 31.856 0.237 7.24 91.49 10.8
2/4/2021 9:45:00 AM -0.08 31.856 0.237 7.24 91.61 10.77
2/4/2021 10:00:00 AM -0.08 31.856 0.237 7.24 92.18 10.62
2/4/2021 10:15:00 AM -0.08 31.856 0.237 7.24 91.87 10.72
2/4/2021 10:30:00 AM -0.08 31.856 0.237 7.24 91.07 10.81
2/4/2021 10:45:00 AM -0.07 31.874 0.237 7.24 91.21 10.75
2/4/2021 11:00:00 AM -0.07 31.874 0.237 7.24 90.69 10.78
2/4/2021 11:15:00 AM -0.07 31.874 0.237 7.24 89.66 10.92
2/4/2021 11:30:00 AM -0.07 31.874 0.237 7.24 90 11.16
2/4/2021 11:45:00 AM -0.07 31.874 0.237 7.24 89.52 10.8
2/4/2021 12:00:00 PM -0.07 31.874 0.237 7.24 88.76 10.75
2/4/2021 12:15:00 PM -0.07 31.874 0.237 7.24 89.41 10.87
2/4/2021 12:30:00 PM -0.07 31.874 0.237 7.24 89.93 10.92
2/4/2021 12:45:00 PM -0.07 31.874 0.237 7.24 89.69 11.14
2/4/2021 1:00:00 PM -0.07 31.874 0.237 7.24 90.78 11.33
2/4/2021 1:15:00 PM -0.07 31.874 0.236 7.24 89.68 11.22
2/4/2021 1:30:00 PM -0.07 31.874 0.236 7.24 90.33 11.07
2/4/2021 1:45:00 PM -0.07 31.874 0.236 7.24 91.1 10.96
2/4/2021 2:00:00 PM -0.07 31.874 0.236 7.24 91.93 11.29
2/4/2021 2:15:00 PM -0.07 31.874 0.236 7.24 91.14 11.12
2/4/2021 2:30:00 PM -0.07 31.874 0.236 7.24 91.72 11.19
2/4/2021 2:45:00 PM -0.07 31.874 0.236 7.24 92.36 11.04
2/4/2021 3:00:00 PM -0.07 31.874 0.236 7.24 91.8 10.91
2/4/2021 3:15:00 PM -0.07 31.874 0.236 7.24 92.04 10.76
2/4/2021 3:30:00 PM -0.07 31.874 0.236 7.24 91.64 11.04
2/4/2021 3:45:00 PM -0.07 31.874 0.236 7.24 91.67 11.13
2/4/2021 4:00:00 PM -0.07 31.874 0.236 7.25 90.37 10.91
2/4/2021 4:15:00 PM -0.07 31.874 0.236 7.25 90.51 10.85
2/4/2021 4:30:00 PM -0.07 31.874 0.236 7.25 90.79 10.71
2/4/2021 4:45:00 PM -0.07 31.874 0.236 7.25 91.05 10.66
2/4/2021 5:00:00 PM -0.07 31.874 0.236 7.25 90.96 11.05
2/4/2021 5:15:00 PM -0.08 31.856 0.236 7.25 90.9 10.76
2/4/2021 5:30:00 PM -0.08 31.856 0.236 7.25 90.65 10.42
2/4/2021 5:45:00 PM -0.08 31.856 0.236 7.25 90.76 10.35
2/4/2021 6:00:00 PM -0.08 31.856 0.236 7.25 90.17 10.37
2/4/2021 6:15:00 PM -0.08 31.856 0.236 7.25 90.73 10.59
2/4/2021 6:30:00 PM -0.08 31.856 0.236 7.25 90.13 10.24
2/4/2021 6:45:00 PM -0.08 31.856 0.236 7.25 89.73 11.02
2/4/2021 7:00:00 PM -0.08 31.856 0.236 7.25 90.27 10.51
2/4/2021 7:15:00 PM -0.08 31.856 0.236 7.25 90.48 10.27
2/4/2021 7:30:00 PM -0.08 31.856 0.236 7.25 90.53 10.78
2/4/2021 7:45:00 PM -0.08 31.856 0.236 7.25 90.68 10.74
2/4/2021 8:00:00 PM -0.08 31.856 0.236 7.25 89.85 10.43
2/4/2021 8:15:00 PM -0.08 31.856 0.236 7.25 90.36 10.5
2/4/2021 8:30:00 PM -0.08 31.856 0.236 7.25 90.07 10.79
2/4/2021 8:45:00 PM -0.08 31.856 0.236 7.25 90.74 10.47
2/4/2021 9:00:00 PM -0.08 31.856 0.236 7.26 89.8 10.5
2/4/2021 9:15:00 PM -0.08 31.856 0.235 7.26 90.12 10.76
2/4/2021 9:30:00 PM -0.08 31.856 0.235 7.26 90.54 10.75
2/4/2021 9:45:00 PM -0.08 31.856 0.235 7.26 91.26 10.29
2/4/2021 10:00:00 PM -0.08 31.856 0.235 7.26 90.43 10.65
2/4/2021 10:15:00 PM -0.08 31.856 0.235 7.26 90.08 10.47
2/4/2021 10:30:00 PM -0.06 31.892 0.235 7.26 89.99 10.07
2/4/2021 10:45:00 PM -0.07 31.874 0.235 7.26 88.87 10.63
2/4/2021 11:00:00 PM -0.08 31.856 0.235 7.26 88.69 9.96
2/4/2021 11:15:00 PM -0.08 31.856 0.235 7.26 88.43 9.24
2/4/2021 11:30:00 PM -0.08 31.856 0.235 7.26 88.99 9.22
2/4/2021 11:45:00 PM -0.08 31.856 0.235 7.26 89.6 9.34
2/5/2021 12:00:00 AM -0.08 31.856 0.235 7.26 89.77 9.97
2/5/2021 12:15:00 AM -0.08 31.856 0.235 7.26 90.09 9.73
2/5/2021 12:30:00 AM -0.08 31.856 0.235 7.26 89.95 9.78
2/5/2021 12:45:00 AM -0.08 31.856 0.235 7.26 90.34 9.85
2/5/2021 1:00:00 AM -0.08 31.856 0.234 7.26 90.49 9.99
2/5/2021 1:15:00 AM -0.08 31.856 0.234 7.26 91.5 10.19
2/5/2021 1:30:00 AM -0.08 31.856 0.234 7.26 91.6 10.3
2/5/2021 1:45:00 AM -0.08 31.856 0.234 7.26 91.75 10.44
2/5/2021 2:00:00 AM -0.08 31.856 0.234 7.26 91.5 10.18
2/5/2021 2:15:00 AM -0.08 31.856 0.234 7.26 91.35 10.12
2/5/2021 2:30:00 AM -0.08 31.856 0.234 7.26 92.16 10.07
2/5/2021 2:45:00 AM -0.08 31.856 0.234 7.26 92.1 9.86
2/5/2021 3:00:00 AM -0.08 31.856 0.234 7.26 92.17 9.78
2/5/2021 3:15:00 AM -0.08 31.856 0.234 7.26 92.01 9.66
2/5/2021 3:30:00 AM -0.08 31.856 0.234 7.26 92.4 9.88
2/5/2021 3:45:00 AM -0.08 31.856 0.234 7.26 92.52 9.87
2/5/2021 4:00:00 AM -0.08 31.856 0.234 7.26 92.28 9.51
2/5/2021 4:15:00 AM -0.08 31.856 0.234 7.26 92.64 9.65
2/5/2021 4:30:00 AM -0.08 31.856 0.234 7.26 93.38 9.72
2/5/2021 4:45:00 AM -0.08 31.856 0.234 7.26 93.98 9.62
2/5/2021 5:00:00 AM -0.08 31.856 0.234 7.26 93.21 9.33
2/5/2021 5:15:00 AM -0.08 31.856 0.233 7.26 93.75 9.2
2/5/2021 5:30:00 AM -0.08 31.856 0.233 7.26 93.87 9.55
2/5/2021 5:45:00 AM -0.08 31.856 0.233 7.26 93.38 9.18
2/5/2021 6:00:00 AM -0.08 31.856 0.233 7.26 93.34 9.07
2/5/2021 6:15:00 AM -0.08 31.856 0.233 7.26 94.47 9.25
2/5/2021 6:30:00 AM -0.08 31.856 0.233 7.26 94.61 8.97
2/5/2021 6:45:00 AM -0.08 31.856 0.233 7.26 93.97 9.02
2/5/2021 7:00:00 AM -0.08 31.856 0.233 7.26 94.38 9.02
2/5/2021 7:15:00 AM -0.08 31.856 0.233 7.26 93.81 9.41
2/5/2021 7:30:00 AM -0.08 31.856 0.233 7.26 94.35 9.22
2/5/2021 7:45:00 AM -0.08 31.856 0.233 7.26 93.84 8.97
2/5/2021 8:00:00 AM -0.08 31.856 0.233 7.26 94.33 9.7
2/5/2021 8:15:00 AM -0.08 31.856 0.233 7.26